<?xml version="1.0" encoding="UTF-8" standalone="no" ?>
<gpx xmlns="http://www.topografix.com/GPX/1/1" xmlns:xsi="http://www.w3.org/2001/XMLSchema-instance" xsi:schemaLocation="http://www.topografix.com/GPX/1/1 http://www.topografix.com/GPX/1/1/gpx.xsd" version="1.1" creator="VisuGPX - https://www.visugpx.com">
  <metadata>
    <name>ESPAGNE - PEDESTRE - Boucle piémont Jaizkibel.</name>
    <desc><![CDATA[Pluie, soleil belle sortie]]></desc>
  </metadata>
  <trk>
    <name><![CDATA[ACTIVE LOG 004]]></name>
    <trkseg>
      <trkpt lat="43.3911" lon="-1.7945">
        <ele>33.783447</ele>
        <time>2014-10-05T07:40:50Z</time>
      </trkpt>
      <trkpt lat="43.39111" lon="-1.79451">
        <ele>33.783447</ele>
        <time>2014-10-05T07:40:51Z</time>
      </trkpt>
      <trkpt lat="43.39113" lon="-1.79451">
        <ele>36.186768</ele>
        <time>2014-10-05T07:40:53Z</time>
      </trkpt>
      <trkpt lat="43.39113" lon="-1.79451">
        <ele>39.070679</ele>
        <time>2014-10-05T07:40:57Z</time>
      </trkpt>
      <trkpt lat="43.39114" lon="-1.7945">
        <ele>41.473999</ele>
        <time>2014-10-05T07:41:03Z</time>
      </trkpt>
      <trkpt lat="43.39113" lon="-1.79451">
        <ele>44.838623</ele>
        <time>2014-10-05T07:41:08Z</time>
      </trkpt>
      <trkpt lat="43.39113" lon="-1.79451">
        <ele>44.358032</ele>
        <time>2014-10-05T07:41:09Z</time>
      </trkpt>
      <trkpt lat="43.39113" lon="-1.79452">
        <ele>47.722534</ele>
        <time>2014-10-05T07:41:23Z</time>
      </trkpt>
      <trkpt lat="43.39111" lon="-1.79454">
        <ele>48.68396</ele>
        <time>2014-10-05T07:41:33Z</time>
      </trkpt>
      <trkpt lat="43.39111" lon="-1.79469">
        <ele>49.645264</ele>
        <time>2014-10-05T07:41:46Z</time>
      </trkpt>
      <trkpt lat="43.39109" lon="-1.7947">
        <ele>49.645264</ele>
        <time>2014-10-05T07:41:48Z</time>
      </trkpt>
      <trkpt lat="43.39101" lon="-1.79481">
        <ele>51.567871</ele>
        <time>2014-10-05T07:41:57Z</time>
      </trkpt>
      <trkpt lat="43.39097" lon="-1.79493">
        <ele>52.048584</ele>
        <time>2014-10-05T07:42:12Z</time>
      </trkpt>
      <trkpt lat="43.39093" lon="-1.79509">
        <ele>52.048584</ele>
        <time>2014-10-05T07:42:22Z</time>
      </trkpt>
      <trkpt lat="43.39083" lon="-1.79532">
        <ele>52.529175</ele>
        <time>2014-10-05T07:42:38Z</time>
      </trkpt>
      <trkpt lat="43.39076" lon="-1.79545">
        <ele>51.567871</ele>
        <time>2014-10-05T07:42:53Z</time>
      </trkpt>
      <trkpt lat="43.39072" lon="-1.79553">
        <ele>52.048584</ele>
        <time>2014-10-05T07:42:59Z</time>
      </trkpt>
      <trkpt lat="43.39061" lon="-1.79577">
        <ele>52.529175</ele>
        <time>2014-10-05T07:43:16Z</time>
      </trkpt>
      <trkpt lat="43.39044" lon="-1.79592">
        <ele>51.567871</ele>
        <time>2014-10-05T07:43:36Z</time>
      </trkpt>
      <trkpt lat="43.39034" lon="-1.7959">
        <ele>50.606567</ele>
        <time>2014-10-05T07:43:46Z</time>
      </trkpt>
      <trkpt lat="43.39024" lon="-1.79584">
        <ele>50.125977</ele>
        <time>2014-10-05T07:44:02Z</time>
      </trkpt>
      <trkpt lat="43.39015" lon="-1.7959">
        <ele>49.645264</ele>
        <time>2014-10-05T07:44:12Z</time>
      </trkpt>
      <trkpt lat="43.38998" lon="-1.79601">
        <ele>49.164551</ele>
        <time>2014-10-05T07:44:23Z</time>
      </trkpt>
      <trkpt lat="43.38975" lon="-1.79608">
        <ele>48.203369</ele>
        <time>2014-10-05T07:44:35Z</time>
      </trkpt>
      <trkpt lat="43.38973" lon="-1.79608">
        <ele>48.203369</ele>
        <time>2014-10-05T07:44:36Z</time>
      </trkpt>
      <trkpt lat="43.3896" lon="-1.796">
        <ele>47.722534</ele>
        <time>2014-10-05T07:44:44Z</time>
      </trkpt>
      <trkpt lat="43.38941" lon="-1.79605">
        <ele>46.76123</ele>
        <time>2014-10-05T07:44:54Z</time>
      </trkpt>
      <trkpt lat="43.38941" lon="-1.79621">
        <ele>46.76123</ele>
        <time>2014-10-05T07:45:06Z</time>
      </trkpt>
      <trkpt lat="43.38943" lon="-1.7963">
        <ele>46.28064</ele>
        <time>2014-10-05T07:45:13Z</time>
      </trkpt>
      <trkpt lat="43.38956" lon="-1.79649">
        <ele>43.396606</ele>
        <time>2014-10-05T07:45:23Z</time>
      </trkpt>
      <trkpt lat="43.38966" lon="-1.79668">
        <ele>42.916016</ele>
        <time>2014-10-05T07:45:34Z</time>
      </trkpt>
      <trkpt lat="43.38978" lon="-1.7969">
        <ele>43.396606</ele>
        <time>2014-10-05T07:45:51Z</time>
      </trkpt>
      <trkpt lat="43.38984" lon="-1.79701">
        <ele>43.396606</ele>
        <time>2014-10-05T07:45:59Z</time>
      </trkpt>
      <trkpt lat="43.3899" lon="-1.79716">
        <ele>43.877319</ele>
        <time>2014-10-05T07:46:11Z</time>
      </trkpt>
      <trkpt lat="43.38999" lon="-1.79737">
        <ele>43.877319</ele>
        <time>2014-10-05T07:46:25Z</time>
      </trkpt>
      <trkpt lat="43.39006" lon="-1.79752">
        <ele>44.358032</ele>
        <time>2014-10-05T07:46:37Z</time>
      </trkpt>
      <trkpt lat="43.39013" lon="-1.79775">
        <ele>45.799927</ele>
        <time>2014-10-05T07:46:51Z</time>
      </trkpt>
      <trkpt lat="43.39015" lon="-1.79783">
        <ele>47.241821</ele>
        <time>2014-10-05T07:46:56Z</time>
      </trkpt>
      <trkpt lat="43.39019" lon="-1.79793">
        <ele>47.722534</ele>
        <time>2014-10-05T07:47:02Z</time>
      </trkpt>
      <trkpt lat="43.39017" lon="-1.79806">
        <ele>48.203369</ele>
        <time>2014-10-05T07:47:09Z</time>
      </trkpt>
      <trkpt lat="43.39018" lon="-1.79823">
        <ele>48.203369</ele>
        <time>2014-10-05T07:47:20Z</time>
      </trkpt>
      <trkpt lat="43.39018" lon="-1.79824">
        <ele>48.68396</ele>
        <time>2014-10-05T07:47:21Z</time>
      </trkpt>
      <trkpt lat="43.39022" lon="-1.79847">
        <ele>48.203369</ele>
        <time>2014-10-05T07:47:35Z</time>
      </trkpt>
      <trkpt lat="43.39026" lon="-1.79863">
        <ele>49.164551</ele>
        <time>2014-10-05T07:47:50Z</time>
      </trkpt>
      <trkpt lat="43.39023" lon="-1.79878">
        <ele>47.722534</ele>
        <time>2014-10-05T07:48:03Z</time>
      </trkpt>
      <trkpt lat="43.39027" lon="-1.79902">
        <ele>48.68396</ele>
        <time>2014-10-05T07:48:15Z</time>
      </trkpt>
      <trkpt lat="43.39029" lon="-1.79926">
        <ele>52.048584</ele>
        <time>2014-10-05T07:48:29Z</time>
      </trkpt>
      <trkpt lat="43.39029" lon="-1.79933">
        <ele>52.529175</ele>
        <time>2014-10-05T07:48:40Z</time>
      </trkpt>
      <trkpt lat="43.39024" lon="-1.79946">
        <ele>53.490479</ele>
        <time>2014-10-05T07:48:59Z</time>
      </trkpt>
      <trkpt lat="43.39023" lon="-1.79956">
        <ele>53.009766</ele>
        <time>2014-10-05T07:49:16Z</time>
      </trkpt>
      <trkpt lat="43.39024" lon="-1.79955">
        <ele>51.567871</ele>
        <time>2014-10-05T07:49:32Z</time>
      </trkpt>
      <trkpt lat="43.39024" lon="-1.79956">
        <ele>52.048584</ele>
        <time>2014-10-05T07:50:16Z</time>
      </trkpt>
      <trkpt lat="43.39018" lon="-1.79962">
        <ele>52.529175</ele>
        <time>2014-10-05T07:50:36Z</time>
      </trkpt>
      <trkpt lat="43.39017" lon="-1.79964">
        <ele>53.009766</ele>
        <time>2014-10-05T07:50:38Z</time>
      </trkpt>
      <trkpt lat="43.39004" lon="-1.79986">
        <ele>53.009766</ele>
        <time>2014-10-05T07:50:56Z</time>
      </trkpt>
      <trkpt lat="43.39003" lon="-1.79987">
        <ele>53.009766</ele>
        <time>2014-10-05T07:50:57Z</time>
      </trkpt>
      <trkpt lat="43.38997" lon="-1.79988">
        <ele>53.490479</ele>
        <time>2014-10-05T07:51:02Z</time>
      </trkpt>
      <trkpt lat="43.38984" lon="-1.7999">
        <ele>53.971191</ele>
        <time>2014-10-05T07:51:11Z</time>
      </trkpt>
      <trkpt lat="43.3898" lon="-1.79999">
        <ele>53.971191</ele>
        <time>2014-10-05T07:51:17Z</time>
      </trkpt>
      <trkpt lat="43.38978" lon="-1.80025">
        <ele>50.125977</ele>
        <time>2014-10-05T07:51:33Z</time>
      </trkpt>
      <trkpt lat="43.38976" lon="-1.80034">
        <ele>48.68396</ele>
        <time>2014-10-05T07:51:38Z</time>
      </trkpt>
      <trkpt lat="43.38966" lon="-1.80064">
        <ele>45.799927</ele>
        <time>2014-10-05T07:51:58Z</time>
      </trkpt>
      <trkpt lat="43.38939" lon="-1.8007">
        <ele>44.358032</ele>
        <time>2014-10-05T07:52:17Z</time>
      </trkpt>
      <trkpt lat="43.38921" lon="-1.8006">
        <ele>48.203369</ele>
        <time>2014-10-05T07:52:31Z</time>
      </trkpt>
      <trkpt lat="43.38917" lon="-1.80058">
        <ele>48.68396</ele>
        <time>2014-10-05T07:52:34Z</time>
      </trkpt>
      <trkpt lat="43.38912" lon="-1.80059">
        <ele>48.68396</ele>
        <time>2014-10-05T07:52:38Z</time>
      </trkpt>
      <trkpt lat="43.38891" lon="-1.80079">
        <ele>49.645264</ele>
        <time>2014-10-05T07:52:57Z</time>
      </trkpt>
      <trkpt lat="43.38882" lon="-1.80108">
        <ele>49.164551</ele>
        <time>2014-10-05T07:53:13Z</time>
      </trkpt>
      <trkpt lat="43.38866" lon="-1.80122">
        <ele>48.68396</ele>
        <time>2014-10-05T07:53:26Z</time>
      </trkpt>
      <trkpt lat="43.38856" lon="-1.80141">
        <ele>47.722534</ele>
        <time>2014-10-05T07:53:42Z</time>
      </trkpt>
      <trkpt lat="43.38856" lon="-1.80156">
        <ele>44.358032</ele>
        <time>2014-10-05T07:53:51Z</time>
      </trkpt>
      <trkpt lat="43.38845" lon="-1.80168">
        <ele>43.877319</ele>
        <time>2014-10-05T07:54:03Z</time>
      </trkpt>
      <trkpt lat="43.38833" lon="-1.80186">
        <ele>42.435425</ele>
        <time>2014-10-05T07:54:15Z</time>
      </trkpt>
      <trkpt lat="43.38827" lon="-1.80203">
        <ele>39.55127</ele>
        <time>2014-10-05T07:54:26Z</time>
      </trkpt>
      <trkpt lat="43.38819" lon="-1.80226">
        <ele>37.628662</ele>
        <time>2014-10-05T07:54:39Z</time>
      </trkpt>
      <trkpt lat="43.38804" lon="-1.80236">
        <ele>34.744873</ele>
        <time>2014-10-05T07:54:51Z</time>
      </trkpt>
      <trkpt lat="43.38792" lon="-1.80243">
        <ele>32.822266</ele>
        <time>2014-10-05T07:55:01Z</time>
      </trkpt>
      <trkpt lat="43.38783" lon="-1.80242">
        <ele>30.899536</ele>
        <time>2014-10-05T07:55:14Z</time>
      </trkpt>
      <trkpt lat="43.38778" lon="-1.80245">
        <ele>29.93811</ele>
        <time>2014-10-05T07:55:20Z</time>
      </trkpt>
      <trkpt lat="43.38772" lon="-1.80248">
        <ele>28.496216</ele>
        <time>2014-10-05T07:55:26Z</time>
      </trkpt>
      <trkpt lat="43.38771" lon="-1.80251">
        <ele>27.534912</ele>
        <time>2014-10-05T07:55:45Z</time>
      </trkpt>
      <trkpt lat="43.38768" lon="-1.80251">
        <ele>28.496216</ele>
        <time>2014-10-05T07:56:08Z</time>
      </trkpt>
      <trkpt lat="43.38773" lon="-1.80263">
        <ele>27.054321</ele>
        <time>2014-10-05T07:56:29Z</time>
      </trkpt>
      <trkpt lat="43.38766" lon="-1.80264">
        <ele>27.054321</ele>
        <time>2014-10-05T07:56:35Z</time>
      </trkpt>
      <trkpt lat="43.38763" lon="-1.80271">
        <ele>26.573608</ele>
        <time>2014-10-05T07:56:40Z</time>
      </trkpt>
      <trkpt lat="43.3877" lon="-1.80288">
        <ele>29.45752</ele>
        <time>2014-10-05T07:56:52Z</time>
      </trkpt>
      <trkpt lat="43.3877" lon="-1.80292">
        <ele>30.418823</ele>
        <time>2014-10-05T07:56:55Z</time>
      </trkpt>
      <trkpt lat="43.38767" lon="-1.80302">
        <ele>31.380127</ele>
        <time>2014-10-05T07:57:02Z</time>
      </trkpt>
      <trkpt lat="43.38759" lon="-1.80316">
        <ele>32.822266</ele>
        <time>2014-10-05T07:57:12Z</time>
      </trkpt>
      <trkpt lat="43.38749" lon="-1.8033">
        <ele>36.186768</ele>
        <time>2014-10-05T07:57:22Z</time>
      </trkpt>
      <trkpt lat="43.38747" lon="-1.80341">
        <ele>36.66748</ele>
        <time>2014-10-05T07:57:29Z</time>
      </trkpt>
      <trkpt lat="43.38753" lon="-1.80365">
        <ele>38.109375</ele>
        <time>2014-10-05T07:57:43Z</time>
      </trkpt>
      <trkpt lat="43.38757" lon="-1.80372">
        <ele>39.070679</ele>
        <time>2014-10-05T07:57:47Z</time>
      </trkpt>
      <trkpt lat="43.38763" lon="-1.80378">
        <ele>38.590088</ele>
        <time>2014-10-05T07:57:51Z</time>
      </trkpt>
      <trkpt lat="43.38766" lon="-1.80381">
        <ele>39.070679</ele>
        <time>2014-10-05T07:57:53Z</time>
      </trkpt>
      <trkpt lat="43.38773" lon="-1.80387">
        <ele>39.070679</ele>
        <time>2014-10-05T07:58:08Z</time>
      </trkpt>
      <trkpt lat="43.38774" lon="-1.80406">
        <ele>38.109375</ele>
        <time>2014-10-05T07:58:25Z</time>
      </trkpt>
      <trkpt lat="43.38773" lon="-1.80415">
        <ele>35.225464</ele>
        <time>2014-10-05T07:58:32Z</time>
      </trkpt>
      <trkpt lat="43.38778" lon="-1.80426">
        <ele>34.26416</ele>
        <time>2014-10-05T07:58:40Z</time>
      </trkpt>
      <trkpt lat="43.38787" lon="-1.80441">
        <ele>31.380127</ele>
        <time>2014-10-05T07:58:52Z</time>
      </trkpt>
      <trkpt lat="43.38777" lon="-1.80465">
        <ele>30.899536</ele>
        <time>2014-10-05T07:59:06Z</time>
      </trkpt>
      <trkpt lat="43.38776" lon="-1.80466">
        <ele>30.899536</ele>
        <time>2014-10-05T07:59:07Z</time>
      </trkpt>
      <trkpt lat="43.3878" lon="-1.8047">
        <ele>28.976929</ele>
        <time>2014-10-05T07:59:12Z</time>
      </trkpt>
      <trkpt lat="43.38783" lon="-1.80469">
        <ele>28.015503</ele>
        <time>2014-10-05T07:59:14Z</time>
      </trkpt>
      <trkpt lat="43.38787" lon="-1.80467">
        <ele>26.573608</ele>
        <time>2014-10-05T07:59:18Z</time>
      </trkpt>
      <trkpt lat="43.38792" lon="-1.80469">
        <ele>25.131714</ele>
        <time>2014-10-05T07:59:25Z</time>
      </trkpt>
      <trkpt lat="43.38787" lon="-1.80479">
        <ele>24.170288</ele>
        <time>2014-10-05T07:59:43Z</time>
      </trkpt>
      <trkpt lat="43.38781" lon="-1.80489">
        <ele>20.324951</ele>
        <time>2014-10-05T07:59:58Z</time>
      </trkpt>
      <trkpt lat="43.38769" lon="-1.80503">
        <ele>17.921753</ele>
        <time>2014-10-05T08:00:13Z</time>
      </trkpt>
      <trkpt lat="43.38766" lon="-1.80511">
        <ele>18.883057</ele>
        <time>2014-10-05T08:00:19Z</time>
      </trkpt>
      <trkpt lat="43.38765" lon="-1.80514">
        <ele>18.883057</ele>
        <time>2014-10-05T08:00:21Z</time>
      </trkpt>
      <trkpt lat="43.38761" lon="-1.8052">
        <ele>21.286377</ele>
        <time>2014-10-05T08:00:26Z</time>
      </trkpt>
      <trkpt lat="43.3876" lon="-1.80521">
        <ele>21.286377</ele>
        <time>2014-10-05T08:00:28Z</time>
      </trkpt>
      <trkpt lat="43.38744" lon="-1.80527">
        <ele>25.131714</ele>
        <time>2014-10-05T08:00:43Z</time>
      </trkpt>
      <trkpt lat="43.38733" lon="-1.80533">
        <ele>28.015503</ele>
        <time>2014-10-05T08:00:56Z</time>
      </trkpt>
      <trkpt lat="43.3872" lon="-1.80536">
        <ele>30.899536</ele>
        <time>2014-10-05T08:01:07Z</time>
      </trkpt>
      <trkpt lat="43.38719" lon="-1.80536">
        <ele>30.899536</ele>
        <time>2014-10-05T08:01:08Z</time>
      </trkpt>
      <trkpt lat="43.38713" lon="-1.80542">
        <ele>34.26416</ele>
        <time>2014-10-05T08:01:15Z</time>
      </trkpt>
      <trkpt lat="43.38704" lon="-1.80553">
        <ele>36.186768</ele>
        <time>2014-10-05T08:01:27Z</time>
      </trkpt>
      <trkpt lat="43.38698" lon="-1.80564">
        <ele>38.590088</ele>
        <time>2014-10-05T08:01:36Z</time>
      </trkpt>
      <trkpt lat="43.38707" lon="-1.80584">
        <ele>40.512817</ele>
        <time>2014-10-05T08:01:52Z</time>
      </trkpt>
      <trkpt lat="43.38714" lon="-1.80593">
        <ele>43.877319</ele>
        <time>2014-10-05T08:02:00Z</time>
      </trkpt>
      <trkpt lat="43.38714" lon="-1.80602">
        <ele>46.76123</ele>
        <time>2014-10-05T08:02:16Z</time>
      </trkpt>
      <trkpt lat="43.38708" lon="-1.80607">
        <ele>49.164551</ele>
        <time>2014-10-05T08:02:27Z</time>
      </trkpt>
      <trkpt lat="43.38701" lon="-1.80619">
        <ele>52.048584</ele>
        <time>2014-10-05T08:02:38Z</time>
      </trkpt>
      <trkpt lat="43.38704" lon="-1.80631">
        <ele>55.413086</ele>
        <time>2014-10-05T08:02:50Z</time>
      </trkpt>
      <trkpt lat="43.38711" lon="-1.80647">
        <ele>56.374512</ele>
        <time>2014-10-05T08:03:02Z</time>
      </trkpt>
      <trkpt lat="43.38713" lon="-1.80653">
        <ele>55.893799</ele>
        <time>2014-10-05T08:03:06Z</time>
      </trkpt>
      <trkpt lat="43.38714" lon="-1.80675">
        <ele>56.374512</ele>
        <time>2014-10-05T08:03:21Z</time>
      </trkpt>
      <trkpt lat="43.38712" lon="-1.80679">
        <ele>57.335815</ele>
        <time>2014-10-05T08:03:25Z</time>
      </trkpt>
      <trkpt lat="43.38707" lon="-1.80689">
        <ele>59.258423</ele>
        <time>2014-10-05T08:03:31Z</time>
      </trkpt>
      <trkpt lat="43.38708" lon="-1.807">
        <ele>59.739136</ele>
        <time>2014-10-05T08:03:39Z</time>
      </trkpt>
      <trkpt lat="43.38721" lon="-1.80724">
        <ele>59.739136</ele>
        <time>2014-10-05T08:03:53Z</time>
      </trkpt>
      <trkpt lat="43.38729" lon="-1.8073">
        <ele>57.816528</ele>
        <time>2014-10-05T08:04:01Z</time>
      </trkpt>
      <trkpt lat="43.3873" lon="-1.80737">
        <ele>57.335815</ele>
        <time>2014-10-05T08:04:04Z</time>
      </trkpt>
      <trkpt lat="43.38726" lon="-1.80757">
        <ele>61.18103</ele>
        <time>2014-10-05T08:04:16Z</time>
      </trkpt>
      <trkpt lat="43.38723" lon="-1.8077">
        <ele>62.142334</ele>
        <time>2014-10-05T08:04:25Z</time>
      </trkpt>
      <trkpt lat="43.38716" lon="-1.80785">
        <ele>64.545654</ele>
        <time>2014-10-05T08:04:36Z</time>
      </trkpt>
      <trkpt lat="43.38714" lon="-1.80806">
        <ele>64.545654</ele>
        <time>2014-10-05T08:04:49Z</time>
      </trkpt>
      <trkpt lat="43.38702" lon="-1.80819">
        <ele>65.026367</ele>
        <time>2014-10-05T08:05:01Z</time>
      </trkpt>
      <trkpt lat="43.38701" lon="-1.80819">
        <ele>65.026367</ele>
        <time>2014-10-05T08:05:02Z</time>
      </trkpt>
      <trkpt lat="43.38699" lon="-1.8082">
        <ele>64.545654</ele>
        <time>2014-10-05T08:05:04Z</time>
      </trkpt>
      <trkpt lat="43.38696" lon="-1.80847">
        <ele>65.026367</ele>
        <time>2014-10-05T08:05:19Z</time>
      </trkpt>
      <trkpt lat="43.38703" lon="-1.80878">
        <ele>62.142334</ele>
        <time>2014-10-05T08:05:37Z</time>
      </trkpt>
      <trkpt lat="43.38707" lon="-1.80909">
        <ele>61.18103</ele>
        <time>2014-10-05T08:05:52Z</time>
      </trkpt>
      <trkpt lat="43.38692" lon="-1.80928">
        <ele>64.065063</ele>
        <time>2014-10-05T08:06:07Z</time>
      </trkpt>
      <trkpt lat="43.3869" lon="-1.80933">
        <ele>65.026367</ele>
        <time>2014-10-05T08:06:11Z</time>
      </trkpt>
      <trkpt lat="43.38679" lon="-1.8095">
        <ele>67.910278</ele>
        <time>2014-10-05T08:06:27Z</time>
      </trkpt>
      <trkpt lat="43.38676" lon="-1.80954">
        <ele>69.832886</ele>
        <time>2014-10-05T08:06:31Z</time>
      </trkpt>
      <trkpt lat="43.38669" lon="-1.80961">
        <ele>73.197632</ele>
        <time>2014-10-05T08:06:39Z</time>
      </trkpt>
      <trkpt lat="43.38668" lon="-1.80961">
        <ele>73.678223</ele>
        <time>2014-10-05T08:06:40Z</time>
      </trkpt>
      <trkpt lat="43.38661" lon="-1.80979">
        <ele>75.60083</ele>
        <time>2014-10-05T08:06:53Z</time>
      </trkpt>
      <trkpt lat="43.38661" lon="-1.80982">
        <ele>75.60083</ele>
        <time>2014-10-05T08:06:56Z</time>
      </trkpt>
      <trkpt lat="43.38663" lon="-1.80987">
        <ele>76.081421</ele>
        <time>2014-10-05T08:07:00Z</time>
      </trkpt>
      <trkpt lat="43.38659" lon="-1.81009">
        <ele>74.158813</ele>
        <time>2014-10-05T08:07:14Z</time>
      </trkpt>
      <trkpt lat="43.38653" lon="-1.81022">
        <ele>72.236206</ele>
        <time>2014-10-05T08:07:23Z</time>
      </trkpt>
      <trkpt lat="43.38648" lon="-1.81038">
        <ele>72.716919</ele>
        <time>2014-10-05T08:07:31Z</time>
      </trkpt>
      <trkpt lat="43.38643" lon="-1.8106">
        <ele>70.794189</ele>
        <time>2014-10-05T08:07:44Z</time>
      </trkpt>
      <trkpt lat="43.3864" lon="-1.81075">
        <ele>69.832886</ele>
        <time>2014-10-05T08:07:52Z</time>
      </trkpt>
      <trkpt lat="43.38634" lon="-1.81089">
        <ele>68.390869</ele>
        <time>2014-10-05T08:08:02Z</time>
      </trkpt>
      <trkpt lat="43.38622" lon="-1.81108">
        <ele>69.832886</ele>
        <time>2014-10-05T08:08:12Z</time>
      </trkpt>
      <trkpt lat="43.3862" lon="-1.81112">
        <ele>69.352295</ele>
        <time>2014-10-05T08:08:14Z</time>
      </trkpt>
      <trkpt lat="43.38617" lon="-1.81126">
        <ele>70.794189</ele>
        <time>2014-10-05T08:08:22Z</time>
      </trkpt>
      <trkpt lat="43.38617" lon="-1.81129">
        <ele>72.236206</ele>
        <time>2014-10-05T08:08:24Z</time>
      </trkpt>
      <trkpt lat="43.38614" lon="-1.81146">
        <ele>73.197632</ele>
        <time>2014-10-05T08:08:35Z</time>
      </trkpt>
      <trkpt lat="43.38619" lon="-1.81158">
        <ele>72.716919</ele>
        <time>2014-10-05T08:08:42Z</time>
      </trkpt>
      <trkpt lat="43.38623" lon="-1.81179">
        <ele>71.755493</ele>
        <time>2014-10-05T08:08:52Z</time>
      </trkpt>
      <trkpt lat="43.38626" lon="-1.81191">
        <ele>70.313477</ele>
        <time>2014-10-05T08:08:59Z</time>
      </trkpt>
      <trkpt lat="43.38634" lon="-1.81214">
        <ele>67.910278</ele>
        <time>2014-10-05T08:09:13Z</time>
      </trkpt>
      <trkpt lat="43.38634" lon="-1.81215">
        <ele>67.429688</ele>
        <time>2014-10-05T08:09:14Z</time>
      </trkpt>
      <trkpt lat="43.38633" lon="-1.81228">
        <ele>65.50708</ele>
        <time>2014-10-05T08:09:26Z</time>
      </trkpt>
      <trkpt lat="43.38634" lon="-1.81233">
        <ele>63.584351</ele>
        <time>2014-10-05T08:09:30Z</time>
      </trkpt>
      <trkpt lat="43.38647" lon="-1.81253">
        <ele>60.700317</ele>
        <time>2014-10-05T08:09:43Z</time>
      </trkpt>
      <trkpt lat="43.3865" lon="-1.81265">
        <ele>58.77771</ele>
        <time>2014-10-05T08:09:51Z</time>
      </trkpt>
      <trkpt lat="43.38648" lon="-1.81269">
        <ele>58.77771</ele>
        <time>2014-10-05T08:09:53Z</time>
      </trkpt>
      <trkpt lat="43.38648" lon="-1.81277">
        <ele>58.297119</ele>
        <time>2014-10-05T08:09:57Z</time>
      </trkpt>
      <trkpt lat="43.38653" lon="-1.81312">
        <ele>54.451782</ele>
        <time>2014-10-05T08:10:16Z</time>
      </trkpt>
      <trkpt lat="43.38653" lon="-1.81324">
        <ele>52.048584</ele>
        <time>2014-10-05T08:10:23Z</time>
      </trkpt>
      <trkpt lat="43.38635" lon="-1.81335">
        <ele>50.125977</ele>
        <time>2014-10-05T08:10:40Z</time>
      </trkpt>
      <trkpt lat="43.38634" lon="-1.81335">
        <ele>49.164551</ele>
        <time>2014-10-05T08:10:41Z</time>
      </trkpt>
      <trkpt lat="43.38633" lon="-1.81342">
        <ele>48.68396</ele>
        <time>2014-10-05T08:10:46Z</time>
      </trkpt>
      <trkpt lat="43.38636" lon="-1.81351">
        <ele>47.241821</ele>
        <time>2014-10-05T08:10:53Z</time>
      </trkpt>
      <trkpt lat="43.38634" lon="-1.8135">
        <ele>45.799927</ele>
        <time>2014-10-05T08:10:55Z</time>
      </trkpt>
      <trkpt lat="43.38632" lon="-1.81349">
        <ele>45.799927</ele>
        <time>2014-10-05T08:10:58Z</time>
      </trkpt>
      <trkpt lat="43.38636" lon="-1.81366">
        <ele>41.473999</ele>
        <time>2014-10-05T08:11:11Z</time>
      </trkpt>
      <trkpt lat="43.38639" lon="-1.81372">
        <ele>40.993408</ele>
        <time>2014-10-05T08:11:17Z</time>
      </trkpt>
      <trkpt lat="43.38636" lon="-1.81376">
        <ele>38.590088</ele>
        <time>2014-10-05T08:11:23Z</time>
      </trkpt>
      <trkpt lat="43.38628" lon="-1.81371">
        <ele>36.66748</ele>
        <time>2014-10-05T08:11:33Z</time>
      </trkpt>
      <trkpt lat="43.38622" lon="-1.81363">
        <ele>33.783447</ele>
        <time>2014-10-05T08:11:45Z</time>
      </trkpt>
      <trkpt lat="43.3861" lon="-1.81337">
        <ele>32.341553</ele>
        <time>2014-10-05T08:12:01Z</time>
      </trkpt>
      <trkpt lat="43.38606" lon="-1.81352">
        <ele>30.418823</ele>
        <time>2014-10-05T08:12:14Z</time>
      </trkpt>
      <trkpt lat="43.38606" lon="-1.8136">
        <ele>28.015503</ele>
        <time>2014-10-05T08:12:22Z</time>
      </trkpt>
      <trkpt lat="43.38606" lon="-1.81366">
        <ele>26.573608</ele>
        <time>2014-10-05T08:12:27Z</time>
      </trkpt>
      <trkpt lat="43.38609" lon="-1.81385">
        <ele>24.170288</ele>
        <time>2014-10-05T08:12:43Z</time>
      </trkpt>
      <trkpt lat="43.3861" lon="-1.81395">
        <ele>21.286377</ele>
        <time>2014-10-05T08:13:00Z</time>
      </trkpt>
      <trkpt lat="43.38612" lon="-1.81403">
        <ele>18.402344</ele>
        <time>2014-10-05T08:13:18Z</time>
      </trkpt>
      <trkpt lat="43.38612" lon="-1.81404">
        <ele>17.441162</ele>
        <time>2014-10-05T08:13:20Z</time>
      </trkpt>
      <trkpt lat="43.38605" lon="-1.81416">
        <ele>18.883057</ele>
        <time>2014-10-05T08:13:34Z</time>
      </trkpt>
      <trkpt lat="43.38601" lon="-1.81416">
        <ele>20.805664</ele>
        <time>2014-10-05T08:13:47Z</time>
      </trkpt>
      <trkpt lat="43.38591" lon="-1.81417">
        <ele>24.170288</ele>
        <time>2014-10-05T08:14:01Z</time>
      </trkpt>
      <trkpt lat="43.38587" lon="-1.81426">
        <ele>26.092896</ele>
        <time>2014-10-05T08:14:14Z</time>
      </trkpt>
      <trkpt lat="43.38586" lon="-1.81431">
        <ele>28.496216</ele>
        <time>2014-10-05T08:14:19Z</time>
      </trkpt>
      <trkpt lat="43.38582" lon="-1.81442">
        <ele>30.418823</ele>
        <time>2014-10-05T08:14:32Z</time>
      </trkpt>
      <trkpt lat="43.38578" lon="-1.81441">
        <ele>31.860718</ele>
        <time>2014-10-05T08:14:36Z</time>
      </trkpt>
      <trkpt lat="43.38577" lon="-1.81441">
        <ele>31.860718</ele>
        <time>2014-10-05T08:14:37Z</time>
      </trkpt>
      <trkpt lat="43.3856" lon="-1.81438">
        <ele>35.225464</ele>
        <time>2014-10-05T08:14:54Z</time>
      </trkpt>
      <trkpt lat="43.38554" lon="-1.81439">
        <ele>38.109375</ele>
        <time>2014-10-05T08:15:02Z</time>
      </trkpt>
      <trkpt lat="43.38554" lon="-1.81439">
        <ele>38.109375</ele>
        <time>2014-10-05T08:15:03Z</time>
      </trkpt>
      <trkpt lat="43.38547" lon="-1.81446">
        <ele>41.473999</ele>
        <time>2014-10-05T08:15:14Z</time>
      </trkpt>
      <trkpt lat="43.38543" lon="-1.81458">
        <ele>43.877319</ele>
        <time>2014-10-05T08:15:27Z</time>
      </trkpt>
      <trkpt lat="43.38546" lon="-1.81466">
        <ele>44.358032</ele>
        <time>2014-10-05T08:15:38Z</time>
      </trkpt>
      <trkpt lat="43.38547" lon="-1.8147">
        <ele>43.396606</ele>
        <time>2014-10-05T08:15:43Z</time>
      </trkpt>
      <trkpt lat="43.38547" lon="-1.81476">
        <ele>42.435425</ele>
        <time>2014-10-05T08:15:47Z</time>
      </trkpt>
      <trkpt lat="43.38549" lon="-1.81485">
        <ele>40.993408</ele>
        <time>2014-10-05T08:15:52Z</time>
      </trkpt>
      <trkpt lat="43.38553" lon="-1.81519">
        <ele>39.070679</ele>
        <time>2014-10-05T08:16:11Z</time>
      </trkpt>
      <trkpt lat="43.38552" lon="-1.81522">
        <ele>39.55127</ele>
        <time>2014-10-05T08:16:13Z</time>
      </trkpt>
      <trkpt lat="43.3854" lon="-1.81541">
        <ele>36.186768</ele>
        <time>2014-10-05T08:16:28Z</time>
      </trkpt>
      <trkpt lat="43.38539" lon="-1.81542">
        <ele>36.186768</ele>
        <time>2014-10-05T08:16:29Z</time>
      </trkpt>
      <trkpt lat="43.38536" lon="-1.81544">
        <ele>36.186768</ele>
        <time>2014-10-05T08:16:32Z</time>
      </trkpt>
      <trkpt lat="43.38534" lon="-1.81547">
        <ele>36.186768</ele>
        <time>2014-10-05T08:16:34Z</time>
      </trkpt>
      <trkpt lat="43.38534" lon="-1.81557">
        <ele>37.148071</ele>
        <time>2014-10-05T08:16:40Z</time>
      </trkpt>
      <trkpt lat="43.38527" lon="-1.81573">
        <ele>40.032104</ele>
        <time>2014-10-05T08:16:50Z</time>
      </trkpt>
      <trkpt lat="43.38525" lon="-1.81598">
        <ele>37.628662</ele>
        <time>2014-10-05T08:17:04Z</time>
      </trkpt>
      <trkpt lat="43.38525" lon="-1.816">
        <ele>37.628662</ele>
        <time>2014-10-05T08:17:05Z</time>
      </trkpt>
      <trkpt lat="43.3853" lon="-1.81613">
        <ele>34.744873</ele>
        <time>2014-10-05T08:17:21Z</time>
      </trkpt>
      <trkpt lat="43.38535" lon="-1.81615">
        <ele>32.822266</ele>
        <time>2014-10-05T08:17:30Z</time>
      </trkpt>
      <trkpt lat="43.38539" lon="-1.81623">
        <ele>28.976929</ele>
        <time>2014-10-05T08:17:42Z</time>
      </trkpt>
      <trkpt lat="43.38541" lon="-1.81625">
        <ele>28.496216</ele>
        <time>2014-10-05T08:17:44Z</time>
      </trkpt>
      <trkpt lat="43.38551" lon="-1.8165">
        <ele>26.573608</ele>
        <time>2014-10-05T08:17:59Z</time>
      </trkpt>
      <trkpt lat="43.38552" lon="-1.81653">
        <ele>26.573608</ele>
        <time>2014-10-05T08:18:01Z</time>
      </trkpt>
      <trkpt lat="43.38545" lon="-1.81667">
        <ele>29.45752</ele>
        <time>2014-10-05T08:18:13Z</time>
      </trkpt>
      <trkpt lat="43.38537" lon="-1.81681">
        <ele>32.822266</ele>
        <time>2014-10-05T08:18:27Z</time>
      </trkpt>
      <trkpt lat="43.38522" lon="-1.8171">
        <ele>34.26416</ele>
        <time>2014-10-05T08:18:48Z</time>
      </trkpt>
      <trkpt lat="43.38507" lon="-1.81732">
        <ele>34.744873</ele>
        <time>2014-10-05T08:19:04Z</time>
      </trkpt>
      <trkpt lat="43.38496" lon="-1.81742">
        <ele>34.744873</ele>
        <time>2014-10-05T08:19:13Z</time>
      </trkpt>
      <trkpt lat="43.38494" lon="-1.81757">
        <ele>37.148071</ele>
        <time>2014-10-05T08:19:23Z</time>
      </trkpt>
      <trkpt lat="43.38493" lon="-1.81769">
        <ele>40.512817</ele>
        <time>2014-10-05T08:19:32Z</time>
      </trkpt>
      <trkpt lat="43.38485" lon="-1.81799">
        <ele>43.396606</ele>
        <time>2014-10-05T08:19:50Z</time>
      </trkpt>
      <trkpt lat="43.38478" lon="-1.81814">
        <ele>44.358032</ele>
        <time>2014-10-05T08:20:00Z</time>
      </trkpt>
      <trkpt lat="43.38491" lon="-1.81826">
        <ele>44.838623</ele>
        <time>2014-10-05T08:20:14Z</time>
      </trkpt>
      <trkpt lat="43.38492" lon="-1.81835">
        <ele>45.319214</ele>
        <time>2014-10-05T08:20:24Z</time>
      </trkpt>
      <trkpt lat="43.38494" lon="-1.81832">
        <ele>44.838623</ele>
        <time>2014-10-05T08:20:32Z</time>
      </trkpt>
      <trkpt lat="43.38483" lon="-1.81851">
        <ele>47.722534</ele>
        <time>2014-10-05T08:20:45Z</time>
      </trkpt>
      <trkpt lat="43.38471" lon="-1.8187">
        <ele>49.645264</ele>
        <time>2014-10-05T08:21:01Z</time>
      </trkpt>
      <trkpt lat="43.38466" lon="-1.81889">
        <ele>47.722534</ele>
        <time>2014-10-05T08:21:17Z</time>
      </trkpt>
      <trkpt lat="43.38466" lon="-1.81896">
        <ele>44.838623</ele>
        <time>2014-10-05T08:21:25Z</time>
      </trkpt>
      <trkpt lat="43.38466" lon="-1.81911">
        <ele>41.954712</ele>
        <time>2014-10-05T08:21:38Z</time>
      </trkpt>
      <trkpt lat="43.38466" lon="-1.81924">
        <ele>39.55127</ele>
        <time>2014-10-05T08:21:51Z</time>
      </trkpt>
      <trkpt lat="43.38464" lon="-1.81938">
        <ele>36.186768</ele>
        <time>2014-10-05T08:22:07Z</time>
      </trkpt>
      <trkpt lat="43.38462" lon="-1.81939">
        <ele>35.225464</ele>
        <time>2014-10-05T08:22:10Z</time>
      </trkpt>
      <trkpt lat="43.38454" lon="-1.81945">
        <ele>33.783447</ele>
        <time>2014-10-05T08:22:18Z</time>
      </trkpt>
      <trkpt lat="43.38438" lon="-1.81968">
        <ele>33.783447</ele>
        <time>2014-10-05T08:22:36Z</time>
      </trkpt>
      <trkpt lat="43.38427" lon="-1.81976">
        <ele>32.341553</ele>
        <time>2014-10-05T08:22:47Z</time>
      </trkpt>
      <trkpt lat="43.38412" lon="-1.81992">
        <ele>33.783447</ele>
        <time>2014-10-05T08:23:02Z</time>
      </trkpt>
      <trkpt lat="43.38403" lon="-1.82003">
        <ele>35.225464</ele>
        <time>2014-10-05T08:23:12Z</time>
      </trkpt>
      <trkpt lat="43.38398" lon="-1.82011">
        <ele>36.66748</ele>
        <time>2014-10-05T08:23:26Z</time>
      </trkpt>
      <trkpt lat="43.38394" lon="-1.82005">
        <ele>36.66748</ele>
        <time>2014-10-05T08:23:41Z</time>
      </trkpt>
      <trkpt lat="43.38391" lon="-1.82004">
        <ele>35.225464</ele>
        <time>2014-10-05T08:23:44Z</time>
      </trkpt>
      <trkpt lat="43.38388" lon="-1.82004">
        <ele>33.302856</ele>
        <time>2014-10-05T08:23:46Z</time>
      </trkpt>
      <trkpt lat="43.38384" lon="-1.82011">
        <ele>32.822266</ele>
        <time>2014-10-05T08:23:51Z</time>
      </trkpt>
      <trkpt lat="43.38379" lon="-1.82039">
        <ele>29.45752</ele>
        <time>2014-10-05T08:24:06Z</time>
      </trkpt>
      <trkpt lat="43.38369" lon="-1.82048">
        <ele>26.092896</ele>
        <time>2014-10-05T08:24:17Z</time>
      </trkpt>
      <trkpt lat="43.38368" lon="-1.82058">
        <ele>23.689575</ele>
        <time>2014-10-05T08:24:24Z</time>
      </trkpt>
      <trkpt lat="43.38372" lon="-1.82069">
        <ele>19.84436</ele>
        <time>2014-10-05T08:24:33Z</time>
      </trkpt>
      <trkpt lat="43.38378" lon="-1.82071">
        <ele>17.921753</ele>
        <time>2014-10-05T08:24:39Z</time>
      </trkpt>
      <trkpt lat="43.38377" lon="-1.82074">
        <ele>16.960449</ele>
        <time>2014-10-05T08:24:41Z</time>
      </trkpt>
      <trkpt lat="43.3837" lon="-1.82082">
        <ele>15.518433</ele>
        <time>2014-10-05T08:24:47Z</time>
      </trkpt>
      <trkpt lat="43.38358" lon="-1.82094">
        <ele>16.479736</ele>
        <time>2014-10-05T08:25:00Z</time>
      </trkpt>
      <trkpt lat="43.38352" lon="-1.82096">
        <ele>18.402344</ele>
        <time>2014-10-05T08:25:05Z</time>
      </trkpt>
      <trkpt lat="43.38334" lon="-1.82097">
        <ele>20.805664</ele>
        <time>2014-10-05T08:25:18Z</time>
      </trkpt>
      <trkpt lat="43.38322" lon="-1.82101">
        <ele>22.728271</ele>
        <time>2014-10-05T08:25:27Z</time>
      </trkpt>
      <trkpt lat="43.38306" lon="-1.82108">
        <ele>24.170288</ele>
        <time>2014-10-05T08:25:40Z</time>
      </trkpt>
      <trkpt lat="43.38303" lon="-1.82107">
        <ele>23.208984</ele>
        <time>2014-10-05T08:25:57Z</time>
      </trkpt>
      <trkpt lat="43.383" lon="-1.82107">
        <ele>22.728271</ele>
        <time>2014-10-05T08:27:11Z</time>
      </trkpt>
      <trkpt lat="43.38286" lon="-1.82131">
        <ele>23.208984</ele>
        <time>2014-10-05T08:27:24Z</time>
      </trkpt>
      <trkpt lat="43.38284" lon="-1.82135">
        <ele>23.208984</ele>
        <time>2014-10-05T08:27:28Z</time>
      </trkpt>
      <trkpt lat="43.38276" lon="-1.82148">
        <ele>22.728271</ele>
        <time>2014-10-05T08:27:40Z</time>
      </trkpt>
      <trkpt lat="43.38276" lon="-1.82155">
        <ele>20.324951</ele>
        <time>2014-10-05T08:27:47Z</time>
      </trkpt>
      <trkpt lat="43.38274" lon="-1.82157">
        <ele>20.324951</ele>
        <time>2014-10-05T08:27:49Z</time>
      </trkpt>
      <trkpt lat="43.38273" lon="-1.82163">
        <ele>18.883057</ele>
        <time>2014-10-05T08:27:52Z</time>
      </trkpt>
      <trkpt lat="43.38269" lon="-1.82171">
        <ele>18.402344</ele>
        <time>2014-10-05T08:27:58Z</time>
      </trkpt>
      <trkpt lat="43.38263" lon="-1.82195">
        <ele>15.03772</ele>
        <time>2014-10-05T08:28:11Z</time>
      </trkpt>
      <trkpt lat="43.38261" lon="-1.8221">
        <ele>13.115112</ele>
        <time>2014-10-05T08:28:21Z</time>
      </trkpt>
      <trkpt lat="43.38261" lon="-1.82216">
        <ele>11.673218</ele>
        <time>2014-10-05T08:28:24Z</time>
      </trkpt>
      <trkpt lat="43.3826" lon="-1.82224">
        <ele>12.153809</ele>
        <time>2014-10-05T08:28:28Z</time>
      </trkpt>
      <trkpt lat="43.38256" lon="-1.82228">
        <ele>11.192505</ele>
        <time>2014-10-05T08:28:32Z</time>
      </trkpt>
      <trkpt lat="43.38252" lon="-1.82238">
        <ele>10.711792</ele>
        <time>2014-10-05T08:28:38Z</time>
      </trkpt>
      <trkpt lat="43.38252" lon="-1.8225">
        <ele>10.711792</ele>
        <time>2014-10-05T08:28:48Z</time>
      </trkpt>
      <trkpt lat="43.38261" lon="-1.82249">
        <ele>10.711792</ele>
        <time>2014-10-05T08:28:59Z</time>
      </trkpt>
      <trkpt lat="43.38269" lon="-1.82256">
        <ele>11.192505</ele>
        <time>2014-10-05T08:29:09Z</time>
      </trkpt>
      <trkpt lat="43.38272" lon="-1.82255">
        <ele>13.115112</ele>
        <time>2014-10-05T08:29:12Z</time>
      </trkpt>
      <trkpt lat="43.38286" lon="-1.82259">
        <ele>13.595825</ele>
        <time>2014-10-05T08:29:20Z</time>
      </trkpt>
      <trkpt lat="43.383" lon="-1.82261">
        <ele>16.479736</ele>
        <time>2014-10-05T08:29:33Z</time>
      </trkpt>
      <trkpt lat="43.38303" lon="-1.82256">
        <ele>17.441162</ele>
        <time>2014-10-05T08:29:46Z</time>
      </trkpt>
      <trkpt lat="43.3832" lon="-1.82242">
        <ele>17.921753</ele>
        <time>2014-10-05T08:30:00Z</time>
      </trkpt>
      <trkpt lat="43.38336" lon="-1.82226">
        <ele>19.84436</ele>
        <time>2014-10-05T08:30:14Z</time>
      </trkpt>
      <trkpt lat="43.38347" lon="-1.82212">
        <ele>20.805664</ele>
        <time>2014-10-05T08:30:28Z</time>
      </trkpt>
      <trkpt lat="43.38355" lon="-1.82211">
        <ele>24.170288</ele>
        <time>2014-10-05T08:30:40Z</time>
      </trkpt>
      <trkpt lat="43.38361" lon="-1.82218">
        <ele>26.573608</ele>
        <time>2014-10-05T08:30:57Z</time>
      </trkpt>
      <trkpt lat="43.3837" lon="-1.82224">
        <ele>26.092896</ele>
        <time>2014-10-05T08:31:04Z</time>
      </trkpt>
      <trkpt lat="43.38383" lon="-1.82223">
        <ele>28.976929</ele>
        <time>2014-10-05T08:31:17Z</time>
      </trkpt>
      <trkpt lat="43.38393" lon="-1.82222">
        <ele>31.860718</ele>
        <time>2014-10-05T08:31:29Z</time>
      </trkpt>
      <trkpt lat="43.38395" lon="-1.82219">
        <ele>31.860718</ele>
        <time>2014-10-05T08:31:32Z</time>
      </trkpt>
      <trkpt lat="43.38406" lon="-1.82214">
        <ele>34.744873</ele>
        <time>2014-10-05T08:31:45Z</time>
      </trkpt>
      <trkpt lat="43.3841" lon="-1.82222">
        <ele>36.66748</ele>
        <time>2014-10-05T08:31:59Z</time>
      </trkpt>
      <trkpt lat="43.38411" lon="-1.82224">
        <ele>35.706055</ele>
        <time>2014-10-05T08:32:03Z</time>
      </trkpt>
      <trkpt lat="43.38422" lon="-1.82244">
        <ele>36.186768</ele>
        <time>2014-10-05T08:32:18Z</time>
      </trkpt>
      <trkpt lat="43.38425" lon="-1.82249">
        <ele>35.706055</ele>
        <time>2014-10-05T08:32:22Z</time>
      </trkpt>
      <trkpt lat="43.38431" lon="-1.82259">
        <ele>37.148071</ele>
        <time>2014-10-05T08:32:38Z</time>
      </trkpt>
      <trkpt lat="43.38431" lon="-1.82261">
        <ele>36.66748</ele>
        <time>2014-10-05T08:32:39Z</time>
      </trkpt>
      <trkpt lat="43.38439" lon="-1.8227">
        <ele>37.148071</ele>
        <time>2014-10-05T08:32:47Z</time>
      </trkpt>
      <trkpt lat="43.3844" lon="-1.82276">
        <ele>38.590088</ele>
        <time>2014-10-05T08:32:51Z</time>
      </trkpt>
      <trkpt lat="43.38442" lon="-1.82281">
        <ele>38.109375</ele>
        <time>2014-10-05T08:32:56Z</time>
      </trkpt>
      <trkpt lat="43.38432" lon="-1.82307">
        <ele>41.954712</ele>
        <time>2014-10-05T08:33:13Z</time>
      </trkpt>
      <trkpt lat="43.38423" lon="-1.8233">
        <ele>44.838623</ele>
        <time>2014-10-05T08:33:28Z</time>
      </trkpt>
      <trkpt lat="43.3841" lon="-1.82354">
        <ele>45.799927</ele>
        <time>2014-10-05T08:33:47Z</time>
      </trkpt>
      <trkpt lat="43.38395" lon="-1.8237">
        <ele>44.358032</ele>
        <time>2014-10-05T08:34:03Z</time>
      </trkpt>
      <trkpt lat="43.38374" lon="-1.82392">
        <ele>45.799927</ele>
        <time>2014-10-05T08:34:22Z</time>
      </trkpt>
      <trkpt lat="43.38353" lon="-1.82412">
        <ele>47.241821</ele>
        <time>2014-10-05T08:34:42Z</time>
      </trkpt>
      <trkpt lat="43.38341" lon="-1.82431">
        <ele>46.28064</ele>
        <time>2014-10-05T08:35:00Z</time>
      </trkpt>
      <trkpt lat="43.38335" lon="-1.82453">
        <ele>42.916016</ele>
        <time>2014-10-05T08:35:15Z</time>
      </trkpt>
      <trkpt lat="43.38328" lon="-1.82499">
        <ele>43.396606</ele>
        <time>2014-10-05T08:35:38Z</time>
      </trkpt>
      <trkpt lat="43.38322" lon="-1.82519">
        <ele>41.954712</ele>
        <time>2014-10-05T08:35:53Z</time>
      </trkpt>
      <trkpt lat="43.38324" lon="-1.82542">
        <ele>45.319214</ele>
        <time>2014-10-05T08:36:08Z</time>
      </trkpt>
      <trkpt lat="43.38327" lon="-1.82557">
        <ele>47.722534</ele>
        <time>2014-10-05T08:36:21Z</time>
      </trkpt>
      <trkpt lat="43.38329" lon="-1.82593">
        <ele>47.241821</ele>
        <time>2014-10-05T08:36:40Z</time>
      </trkpt>
      <trkpt lat="43.38332" lon="-1.8263">
        <ele>47.241821</ele>
        <time>2014-10-05T08:36:59Z</time>
      </trkpt>
      <trkpt lat="43.38333" lon="-1.82671">
        <ele>44.838623</ele>
        <time>2014-10-05T08:37:20Z</time>
      </trkpt>
      <trkpt lat="43.38335" lon="-1.8268">
        <ele>44.838623</ele>
        <time>2014-10-05T08:37:25Z</time>
      </trkpt>
      <trkpt lat="43.38335" lon="-1.82694">
        <ele>42.916016</ele>
        <time>2014-10-05T08:37:33Z</time>
      </trkpt>
      <trkpt lat="43.3834" lon="-1.82719">
        <ele>41.473999</ele>
        <time>2014-10-05T08:37:51Z</time>
      </trkpt>
      <trkpt lat="43.38344" lon="-1.82727">
        <ele>40.512817</ele>
        <time>2014-10-05T08:38:02Z</time>
      </trkpt>
      <trkpt lat="43.38348" lon="-1.82728">
        <ele>40.993408</ele>
        <time>2014-10-05T08:38:14Z</time>
      </trkpt>
      <trkpt lat="43.38349" lon="-1.82757">
        <ele>38.109375</ele>
        <time>2014-10-05T08:38:29Z</time>
      </trkpt>
      <trkpt lat="43.38342" lon="-1.82786">
        <ele>35.706055</ele>
        <time>2014-10-05T08:38:44Z</time>
      </trkpt>
      <trkpt lat="43.38342" lon="-1.82788">
        <ele>35.225464</ele>
        <time>2014-10-05T08:38:46Z</time>
      </trkpt>
      <trkpt lat="43.38346" lon="-1.82794">
        <ele>33.302856</ele>
        <time>2014-10-05T08:38:53Z</time>
      </trkpt>
      <trkpt lat="43.38346" lon="-1.82809">
        <ele>30.899536</ele>
        <time>2014-10-05T08:39:05Z</time>
      </trkpt>
      <trkpt lat="43.38348" lon="-1.82824">
        <ele>27.534912</ele>
        <time>2014-10-05T08:39:18Z</time>
      </trkpt>
      <trkpt lat="43.38351" lon="-1.82846">
        <ele>25.612305</ele>
        <time>2014-10-05T08:39:35Z</time>
      </trkpt>
      <trkpt lat="43.38352" lon="-1.82854">
        <ele>23.689575</ele>
        <time>2014-10-05T08:39:42Z</time>
      </trkpt>
      <trkpt lat="43.38352" lon="-1.82859">
        <ele>22.728271</ele>
        <time>2014-10-05T08:39:49Z</time>
      </trkpt>
      <trkpt lat="43.38353" lon="-1.8288">
        <ele>23.208984</ele>
        <time>2014-10-05T08:40:07Z</time>
      </trkpt>
      <trkpt lat="43.38352" lon="-1.82885">
        <ele>24.170288</ele>
        <time>2014-10-05T08:40:14Z</time>
      </trkpt>
      <trkpt lat="43.38346" lon="-1.82916">
        <ele>23.689575</ele>
        <time>2014-10-05T08:40:35Z</time>
      </trkpt>
      <trkpt lat="43.38338" lon="-1.82944">
        <ele>26.092896</ele>
        <time>2014-10-05T08:40:55Z</time>
      </trkpt>
      <trkpt lat="43.38335" lon="-1.82957">
        <ele>26.092896</ele>
        <time>2014-10-05T08:41:04Z</time>
      </trkpt>
      <trkpt lat="43.3833" lon="-1.82961">
        <ele>26.092896</ele>
        <time>2014-10-05T08:41:09Z</time>
      </trkpt>
      <trkpt lat="43.38325" lon="-1.82969">
        <ele>25.612305</ele>
        <time>2014-10-05T08:41:17Z</time>
      </trkpt>
      <trkpt lat="43.38321" lon="-1.82977">
        <ele>24.651001</ele>
        <time>2014-10-05T08:41:24Z</time>
      </trkpt>
      <trkpt lat="43.38313" lon="-1.82994">
        <ele>24.651001</ele>
        <time>2014-10-05T08:41:38Z</time>
      </trkpt>
      <trkpt lat="43.3832" lon="-1.83">
        <ele>27.054321</ele>
        <time>2014-10-05T08:41:50Z</time>
      </trkpt>
      <trkpt lat="43.38323" lon="-1.83004">
        <ele>30.418823</ele>
        <time>2014-10-05T08:41:57Z</time>
      </trkpt>
      <trkpt lat="43.38325" lon="-1.83013">
        <ele>32.341553</ele>
        <time>2014-10-05T08:42:13Z</time>
      </trkpt>
      <trkpt lat="43.38325" lon="-1.83017">
        <ele>32.341553</ele>
        <time>2014-10-05T08:42:25Z</time>
      </trkpt>
      <trkpt lat="43.38322" lon="-1.8302">
        <ele>31.860718</ele>
        <time>2014-10-05T08:42:30Z</time>
      </trkpt>
      <trkpt lat="43.38306" lon="-1.83044">
        <ele>32.822266</ele>
        <time>2014-10-05T08:42:50Z</time>
      </trkpt>
      <trkpt lat="43.38298" lon="-1.83057">
        <ele>31.860718</ele>
        <time>2014-10-05T08:42:59Z</time>
      </trkpt>
      <trkpt lat="43.38293" lon="-1.83078">
        <ele>27.534912</ele>
        <time>2014-10-05T08:43:14Z</time>
      </trkpt>
      <trkpt lat="43.38293" lon="-1.8308">
        <ele>28.496216</ele>
        <time>2014-10-05T08:43:15Z</time>
      </trkpt>
      <trkpt lat="43.38294" lon="-1.83085">
        <ele>26.573608</ele>
        <time>2014-10-05T08:43:19Z</time>
      </trkpt>
      <trkpt lat="43.38293" lon="-1.83088">
        <ele>26.092896</ele>
        <time>2014-10-05T08:43:21Z</time>
      </trkpt>
      <trkpt lat="43.38297" lon="-1.83115">
        <ele>26.573608</ele>
        <time>2014-10-05T08:43:38Z</time>
      </trkpt>
      <trkpt lat="43.38296" lon="-1.83119">
        <ele>27.534912</ele>
        <time>2014-10-05T08:43:41Z</time>
      </trkpt>
      <trkpt lat="43.38302" lon="-1.8314">
        <ele>30.418823</ele>
        <time>2014-10-05T08:43:57Z</time>
      </trkpt>
      <trkpt lat="43.38302" lon="-1.83141">
        <ele>30.899536</ele>
        <time>2014-10-05T08:43:58Z</time>
      </trkpt>
      <trkpt lat="43.3831" lon="-1.83156">
        <ele>29.93811</ele>
        <time>2014-10-05T08:44:14Z</time>
      </trkpt>
      <trkpt lat="43.38318" lon="-1.83175">
        <ele>28.496216</ele>
        <time>2014-10-05T08:44:28Z</time>
      </trkpt>
      <trkpt lat="43.38317" lon="-1.83179">
        <ele>29.45752</ele>
        <time>2014-10-05T08:44:31Z</time>
      </trkpt>
      <trkpt lat="43.38313" lon="-1.83186">
        <ele>30.418823</ele>
        <time>2014-10-05T08:44:37Z</time>
      </trkpt>
      <trkpt lat="43.3831" lon="-1.83193">
        <ele>30.899536</ele>
        <time>2014-10-05T08:44:42Z</time>
      </trkpt>
      <trkpt lat="43.38292" lon="-1.83214">
        <ele>31.860718</ele>
        <time>2014-10-05T08:45:00Z</time>
      </trkpt>
      <trkpt lat="43.38284" lon="-1.83231">
        <ele>33.783447</ele>
        <time>2014-10-05T08:45:12Z</time>
      </trkpt>
      <trkpt lat="43.38283" lon="-1.83239">
        <ele>33.783447</ele>
        <time>2014-10-05T08:45:19Z</time>
      </trkpt>
      <trkpt lat="43.38275" lon="-1.83267">
        <ele>33.302856</ele>
        <time>2014-10-05T08:45:37Z</time>
      </trkpt>
      <trkpt lat="43.38275" lon="-1.83292">
        <ele>33.302856</ele>
        <time>2014-10-05T08:45:52Z</time>
      </trkpt>
      <trkpt lat="43.38271" lon="-1.83298">
        <ele>33.783447</ele>
        <time>2014-10-05T08:45:57Z</time>
      </trkpt>
      <trkpt lat="43.38248" lon="-1.83316">
        <ele>33.783447</ele>
        <time>2014-10-05T08:46:17Z</time>
      </trkpt>
      <trkpt lat="43.38247" lon="-1.83321">
        <ele>33.302856</ele>
        <time>2014-10-05T08:46:20Z</time>
      </trkpt>
      <trkpt lat="43.38246" lon="-1.83328">
        <ele>33.783447</ele>
        <time>2014-10-05T08:46:25Z</time>
      </trkpt>
      <trkpt lat="43.38242" lon="-1.83339">
        <ele>34.26416</ele>
        <time>2014-10-05T08:46:32Z</time>
      </trkpt>
      <trkpt lat="43.38239" lon="-1.83348">
        <ele>37.148071</ele>
        <time>2014-10-05T08:46:39Z</time>
      </trkpt>
      <trkpt lat="43.38238" lon="-1.83351">
        <ele>36.66748</ele>
        <time>2014-10-05T08:46:41Z</time>
      </trkpt>
      <trkpt lat="43.38229" lon="-1.83381">
        <ele>35.225464</ele>
        <time>2014-10-05T08:47:01Z</time>
      </trkpt>
      <trkpt lat="43.38216" lon="-1.83411">
        <ele>34.26416</ele>
        <time>2014-10-05T08:47:21Z</time>
      </trkpt>
      <trkpt lat="43.38209" lon="-1.83419">
        <ele>31.380127</ele>
        <time>2014-10-05T08:47:32Z</time>
      </trkpt>
      <trkpt lat="43.382" lon="-1.83432">
        <ele>28.496216</ele>
        <time>2014-10-05T08:47:46Z</time>
      </trkpt>
      <trkpt lat="43.382" lon="-1.83433">
        <ele>28.496216</ele>
        <time>2014-10-05T08:47:47Z</time>
      </trkpt>
      <trkpt lat="43.38198" lon="-1.83437">
        <ele>28.496216</ele>
        <time>2014-10-05T08:47:51Z</time>
      </trkpt>
      <trkpt lat="43.38196" lon="-1.8344">
        <ele>27.054321</ele>
        <time>2014-10-05T08:47:54Z</time>
      </trkpt>
      <trkpt lat="43.38194" lon="-1.83445">
        <ele>26.573608</ele>
        <time>2014-10-05T08:47:59Z</time>
      </trkpt>
      <trkpt lat="43.38189" lon="-1.83452">
        <ele>24.651001</ele>
        <time>2014-10-05T08:48:05Z</time>
      </trkpt>
      <trkpt lat="43.3818" lon="-1.83472">
        <ele>22.247559</ele>
        <time>2014-10-05T08:48:21Z</time>
      </trkpt>
      <trkpt lat="43.38171" lon="-1.83481">
        <ele>21.286377</ele>
        <time>2014-10-05T08:48:31Z</time>
      </trkpt>
      <trkpt lat="43.38167" lon="-1.83484">
        <ele>20.805664</ele>
        <time>2014-10-05T08:48:35Z</time>
      </trkpt>
      <trkpt lat="43.38158" lon="-1.83491">
        <ele>23.689575</ele>
        <time>2014-10-05T08:48:47Z</time>
      </trkpt>
      <trkpt lat="43.3815" lon="-1.83491">
        <ele>24.651001</ele>
        <time>2014-10-05T08:48:57Z</time>
      </trkpt>
      <trkpt lat="43.38147" lon="-1.83493">
        <ele>25.131714</ele>
        <time>2014-10-05T08:49:01Z</time>
      </trkpt>
      <trkpt lat="43.38145" lon="-1.83495">
        <ele>25.131714</ele>
        <time>2014-10-05T08:49:03Z</time>
      </trkpt>
      <trkpt lat="43.38142" lon="-1.83506">
        <ele>27.054321</ele>
        <time>2014-10-05T08:49:11Z</time>
      </trkpt>
      <trkpt lat="43.38128" lon="-1.83517">
        <ele>28.015503</ele>
        <time>2014-10-05T08:49:25Z</time>
      </trkpt>
      <trkpt lat="43.38116" lon="-1.83525">
        <ele>29.45752</ele>
        <time>2014-10-05T08:49:40Z</time>
      </trkpt>
      <trkpt lat="43.38116" lon="-1.83525">
        <ele>29.93811</ele>
        <time>2014-10-05T08:49:41Z</time>
      </trkpt>
      <trkpt lat="43.38114" lon="-1.83532">
        <ele>29.45752</ele>
        <time>2014-10-05T08:49:46Z</time>
      </trkpt>
      <trkpt lat="43.38109" lon="-1.83555">
        <ele>29.45752</ele>
        <time>2014-10-05T08:50:00Z</time>
      </trkpt>
      <trkpt lat="43.3811" lon="-1.83559">
        <ele>30.899536</ele>
        <time>2014-10-05T08:50:04Z</time>
      </trkpt>
      <trkpt lat="43.38099" lon="-1.83582">
        <ele>32.822266</ele>
        <time>2014-10-05T08:50:22Z</time>
      </trkpt>
      <trkpt lat="43.38095" lon="-1.83598">
        <ele>35.706055</ele>
        <time>2014-10-05T08:50:33Z</time>
      </trkpt>
      <trkpt lat="43.38093" lon="-1.83609">
        <ele>38.590088</ele>
        <time>2014-10-05T08:50:44Z</time>
      </trkpt>
      <trkpt lat="43.38096" lon="-1.83627">
        <ele>39.55127</ele>
        <time>2014-10-05T08:50:58Z</time>
      </trkpt>
      <trkpt lat="43.38086" lon="-1.83661">
        <ele>38.590088</ele>
        <time>2014-10-05T08:51:18Z</time>
      </trkpt>
      <trkpt lat="43.38083" lon="-1.83673">
        <ele>39.070679</ele>
        <time>2014-10-05T08:51:25Z</time>
      </trkpt>
      <trkpt lat="43.38084" lon="-1.83681">
        <ele>38.109375</ele>
        <time>2014-10-05T08:51:41Z</time>
      </trkpt>
      <trkpt lat="43.38085" lon="-1.83716">
        <ele>37.628662</ele>
        <time>2014-10-05T08:51:59Z</time>
      </trkpt>
      <trkpt lat="43.38088" lon="-1.83748">
        <ele>37.628662</ele>
        <time>2014-10-05T08:52:16Z</time>
      </trkpt>
      <trkpt lat="43.38088" lon="-1.83753">
        <ele>37.628662</ele>
        <time>2014-10-05T08:52:19Z</time>
      </trkpt>
      <trkpt lat="43.38085" lon="-1.8377">
        <ele>37.148071</ele>
        <time>2014-10-05T08:52:31Z</time>
      </trkpt>
      <trkpt lat="43.38068" lon="-1.83802">
        <ele>37.628662</ele>
        <time>2014-10-05T08:52:52Z</time>
      </trkpt>
      <trkpt lat="43.38063" lon="-1.83811">
        <ele>37.628662</ele>
        <time>2014-10-05T08:52:58Z</time>
      </trkpt>
      <trkpt lat="43.38042" lon="-1.83838">
        <ele>38.109375</ele>
        <time>2014-10-05T08:53:20Z</time>
      </trkpt>
      <trkpt lat="43.38019" lon="-1.83853">
        <ele>40.032104</ele>
        <time>2014-10-05T08:53:39Z</time>
      </trkpt>
      <trkpt lat="43.37986" lon="-1.83877">
        <ele>42.435425</ele>
        <time>2014-10-05T08:54:07Z</time>
      </trkpt>
      <trkpt lat="43.37985" lon="-1.83878">
        <ele>42.916016</ele>
        <time>2014-10-05T08:54:08Z</time>
      </trkpt>
      <trkpt lat="43.37964" lon="-1.83874">
        <ele>43.396606</ele>
        <time>2014-10-05T08:54:25Z</time>
      </trkpt>
      <trkpt lat="43.37951" lon="-1.83863">
        <ele>44.358032</ele>
        <time>2014-10-05T08:54:40Z</time>
      </trkpt>
      <trkpt lat="43.37935" lon="-1.83873">
        <ele>40.032104</ele>
        <time>2014-10-05T08:54:56Z</time>
      </trkpt>
      <trkpt lat="43.37934" lon="-1.83873">
        <ele>40.032104</ele>
        <time>2014-10-05T08:54:57Z</time>
      </trkpt>
      <trkpt lat="43.37928" lon="-1.83876">
        <ele>39.55127</ele>
        <time>2014-10-05T08:55:12Z</time>
      </trkpt>
      <trkpt lat="43.37924" lon="-1.8388">
        <ele>38.109375</ele>
        <time>2014-10-05T08:55:25Z</time>
      </trkpt>
      <trkpt lat="43.37921" lon="-1.83888">
        <ele>35.225464</ele>
        <time>2014-10-05T08:55:41Z</time>
      </trkpt>
      <trkpt lat="43.37923" lon="-1.83896">
        <ele>32.822266</ele>
        <time>2014-10-05T08:55:55Z</time>
      </trkpt>
      <trkpt lat="43.37921" lon="-1.83902">
        <ele>32.341553</ele>
        <time>2014-10-05T08:56:01Z</time>
      </trkpt>
      <trkpt lat="43.37918" lon="-1.83916">
        <ele>28.976929</ele>
        <time>2014-10-05T08:56:16Z</time>
      </trkpt>
      <trkpt lat="43.37917" lon="-1.83923">
        <ele>28.976929</ele>
        <time>2014-10-05T08:56:21Z</time>
      </trkpt>
      <trkpt lat="43.37919" lon="-1.83931">
        <ele>27.054321</ele>
        <time>2014-10-05T08:56:28Z</time>
      </trkpt>
      <trkpt lat="43.37914" lon="-1.83945">
        <ele>24.170288</ele>
        <time>2014-10-05T08:56:44Z</time>
      </trkpt>
      <trkpt lat="43.37913" lon="-1.83947">
        <ele>24.170288</ele>
        <time>2014-10-05T08:56:45Z</time>
      </trkpt>
      <trkpt lat="43.37908" lon="-1.83957">
        <ele>21.286377</ele>
        <time>2014-10-05T08:56:56Z</time>
      </trkpt>
      <trkpt lat="43.37907" lon="-1.83958">
        <ele>20.805664</ele>
        <time>2014-10-05T08:56:58Z</time>
      </trkpt>
      <trkpt lat="43.37906" lon="-1.83959">
        <ele>20.805664</ele>
        <time>2014-10-05T08:56:59Z</time>
      </trkpt>
      <trkpt lat="43.37907" lon="-1.83967">
        <ele>20.324951</ele>
        <time>2014-10-05T08:57:11Z</time>
      </trkpt>
      <trkpt lat="43.37896" lon="-1.83975">
        <ele>18.402344</ele>
        <time>2014-10-05T08:58:36Z</time>
      </trkpt>
      <trkpt lat="43.37886" lon="-1.83987">
        <ele>17.921753</ele>
        <time>2014-10-05T08:58:52Z</time>
      </trkpt>
      <trkpt lat="43.3788" lon="-1.83999">
        <ele>14.076416</ele>
        <time>2014-10-05T08:59:04Z</time>
      </trkpt>
      <trkpt lat="43.3787" lon="-1.84007">
        <ele>12.634399</ele>
        <time>2014-10-05T08:59:20Z</time>
      </trkpt>
      <trkpt lat="43.37861" lon="-1.84009">
        <ele>11.673218</ele>
        <time>2014-10-05T08:59:35Z</time>
      </trkpt>
      <trkpt lat="43.37851" lon="-1.8401">
        <ele>11.192505</ele>
        <time>2014-10-05T08:59:49Z</time>
      </trkpt>
      <trkpt lat="43.37847" lon="-1.8401">
        <ele>11.192505</ele>
        <time>2014-10-05T09:00:01Z</time>
      </trkpt>
      <trkpt lat="43.37849" lon="-1.84001">
        <ele>11.673218</ele>
        <time>2014-10-05T09:00:38Z</time>
      </trkpt>
      <trkpt lat="43.3785" lon="-1.84">
        <ele>11.673218</ele>
        <time>2014-10-05T09:00:39Z</time>
      </trkpt>
      <trkpt lat="43.3785" lon="-1.83987">
        <ele>15.03772</ele>
        <time>2014-10-05T09:00:52Z</time>
      </trkpt>
      <trkpt lat="43.3784" lon="-1.83982">
        <ele>17.441162</ele>
        <time>2014-10-05T09:01:07Z</time>
      </trkpt>
      <trkpt lat="43.3784" lon="-1.83973">
        <ele>19.84436</ele>
        <time>2014-10-05T09:01:24Z</time>
      </trkpt>
      <trkpt lat="43.37846" lon="-1.83959">
        <ele>22.728271</ele>
        <time>2014-10-05T09:01:34Z</time>
      </trkpt>
      <trkpt lat="43.37852" lon="-1.8394">
        <ele>26.092896</ele>
        <time>2014-10-05T09:01:49Z</time>
      </trkpt>
      <trkpt lat="43.37852" lon="-1.83939">
        <ele>26.092896</ele>
        <time>2014-10-05T09:01:50Z</time>
      </trkpt>
      <trkpt lat="43.37852" lon="-1.83935">
        <ele>27.534912</ele>
        <time>2014-10-05T09:01:53Z</time>
      </trkpt>
      <trkpt lat="43.37852" lon="-1.83933">
        <ele>28.496216</ele>
        <time>2014-10-05T09:01:55Z</time>
      </trkpt>
      <trkpt lat="43.37846" lon="-1.83931">
        <ele>28.496216</ele>
        <time>2014-10-05T09:02:01Z</time>
      </trkpt>
      <trkpt lat="43.37828" lon="-1.83936">
        <ele>30.899536</ele>
        <time>2014-10-05T09:02:18Z</time>
      </trkpt>
      <trkpt lat="43.37813" lon="-1.83932">
        <ele>33.783447</ele>
        <time>2014-10-05T09:02:34Z</time>
      </trkpt>
      <trkpt lat="43.37808" lon="-1.8393">
        <ele>36.66748</ele>
        <time>2014-10-05T09:02:43Z</time>
      </trkpt>
      <trkpt lat="43.37796" lon="-1.8393">
        <ele>39.070679</ele>
        <time>2014-10-05T09:02:59Z</time>
      </trkpt>
      <trkpt lat="43.37784" lon="-1.83936">
        <ele>42.435425</ele>
        <time>2014-10-05T09:03:13Z</time>
      </trkpt>
      <trkpt lat="43.37782" lon="-1.83937">
        <ele>43.877319</ele>
        <time>2014-10-05T09:03:15Z</time>
      </trkpt>
      <trkpt lat="43.37764" lon="-1.83952">
        <ele>45.319214</ele>
        <time>2014-10-05T09:03:34Z</time>
      </trkpt>
      <trkpt lat="43.37747" lon="-1.83967">
        <ele>45.799927</ele>
        <time>2014-10-05T09:03:51Z</time>
      </trkpt>
      <trkpt lat="43.37733" lon="-1.83979">
        <ele>47.241821</ele>
        <time>2014-10-05T09:04:06Z</time>
      </trkpt>
      <trkpt lat="43.37732" lon="-1.83989">
        <ele>46.76123</ele>
        <time>2014-10-05T09:04:12Z</time>
      </trkpt>
      <trkpt lat="43.37736" lon="-1.83993">
        <ele>47.241821</ele>
        <time>2014-10-05T09:04:16Z</time>
      </trkpt>
      <trkpt lat="43.37741" lon="-1.84006">
        <ele>48.203369</ele>
        <time>2014-10-05T09:04:24Z</time>
      </trkpt>
      <trkpt lat="43.37738" lon="-1.8402">
        <ele>48.68396</ele>
        <time>2014-10-05T09:04:32Z</time>
      </trkpt>
      <trkpt lat="43.37722" lon="-1.84043">
        <ele>49.164551</ele>
        <time>2014-10-05T09:04:51Z</time>
      </trkpt>
      <trkpt lat="43.37717" lon="-1.8405">
        <ele>52.529175</ele>
        <time>2014-10-05T09:04:59Z</time>
      </trkpt>
      <trkpt lat="43.37702" lon="-1.84074">
        <ele>53.971191</ele>
        <time>2014-10-05T09:05:18Z</time>
      </trkpt>
      <trkpt lat="43.3769" lon="-1.84107">
        <ele>53.971191</ele>
        <time>2014-10-05T09:05:38Z</time>
      </trkpt>
      <trkpt lat="43.3767" lon="-1.84124">
        <ele>53.971191</ele>
        <time>2014-10-05T09:05:55Z</time>
      </trkpt>
      <trkpt lat="43.37657" lon="-1.84142">
        <ele>54.451782</ele>
        <time>2014-10-05T09:06:13Z</time>
      </trkpt>
      <trkpt lat="43.37662" lon="-1.84156">
        <ele>54.451782</ele>
        <time>2014-10-05T09:06:29Z</time>
      </trkpt>
      <trkpt lat="43.37665" lon="-1.84161">
        <ele>54.932373</ele>
        <time>2014-10-05T09:06:34Z</time>
      </trkpt>
      <trkpt lat="43.37671" lon="-1.84179">
        <ele>56.374512</ele>
        <time>2014-10-05T09:06:53Z</time>
      </trkpt>
      <trkpt lat="43.3767" lon="-1.84185">
        <ele>57.816528</ele>
        <time>2014-10-05T09:06:58Z</time>
      </trkpt>
      <trkpt lat="43.37671" lon="-1.84189">
        <ele>57.335815</ele>
        <time>2014-10-05T09:07:01Z</time>
      </trkpt>
      <trkpt lat="43.3767" lon="-1.84206">
        <ele>57.816528</ele>
        <time>2014-10-05T09:07:16Z</time>
      </trkpt>
      <trkpt lat="43.37668" lon="-1.84202">
        <ele>57.335815</ele>
        <time>2014-10-05T09:07:35Z</time>
      </trkpt>
      <trkpt lat="43.37666" lon="-1.84203">
        <ele>57.335815</ele>
        <time>2014-10-05T09:07:45Z</time>
      </trkpt>
      <trkpt lat="43.37662" lon="-1.84205">
        <ele>57.816528</ele>
        <time>2014-10-05T09:07:49Z</time>
      </trkpt>
      <trkpt lat="43.3766" lon="-1.84207">
        <ele>59.739136</ele>
        <time>2014-10-05T09:07:55Z</time>
      </trkpt>
      <trkpt lat="43.3766" lon="-1.84207">
        <ele>58.77771</ele>
        <time>2014-10-05T09:07:56Z</time>
      </trkpt>
      <trkpt lat="43.37671" lon="-1.84204">
        <ele>55.893799</ele>
        <time>2014-10-05T09:08:06Z</time>
      </trkpt>
      <trkpt lat="43.3767" lon="-1.84217">
        <ele>55.413086</ele>
        <time>2014-10-05T09:08:13Z</time>
      </trkpt>
      <trkpt lat="43.37663" lon="-1.84259">
        <ele>53.490479</ele>
        <time>2014-10-05T09:08:35Z</time>
      </trkpt>
      <trkpt lat="43.37663" lon="-1.84264">
        <ele>53.971191</ele>
        <time>2014-10-05T09:08:38Z</time>
      </trkpt>
      <trkpt lat="43.37666" lon="-1.84271">
        <ele>53.971191</ele>
        <time>2014-10-05T09:08:43Z</time>
      </trkpt>
      <trkpt lat="43.37668" lon="-1.84283">
        <ele>54.451782</ele>
        <time>2014-10-05T09:08:58Z</time>
      </trkpt>
      <trkpt lat="43.3767" lon="-1.84299">
        <ele>52.048584</ele>
        <time>2014-10-05T09:09:09Z</time>
      </trkpt>
      <trkpt lat="43.37671" lon="-1.84309">
        <ele>51.087158</ele>
        <time>2014-10-05T09:09:15Z</time>
      </trkpt>
      <trkpt lat="43.37672" lon="-1.84318">
        <ele>50.125977</ele>
        <time>2014-10-05T09:09:20Z</time>
      </trkpt>
      <trkpt lat="43.37668" lon="-1.84342">
        <ele>47.722534</ele>
        <time>2014-10-05T09:09:36Z</time>
      </trkpt>
      <trkpt lat="43.37668" lon="-1.84355">
        <ele>44.838623</ele>
        <time>2014-10-05T09:09:49Z</time>
      </trkpt>
      <trkpt lat="43.37661" lon="-1.84365">
        <ele>43.396606</ele>
        <time>2014-10-05T09:09:58Z</time>
      </trkpt>
      <trkpt lat="43.37642" lon="-1.84379">
        <ele>39.55127</ele>
        <time>2014-10-05T09:10:16Z</time>
      </trkpt>
      <trkpt lat="43.37633" lon="-1.84383">
        <ele>40.032104</ele>
        <time>2014-10-05T09:10:24Z</time>
      </trkpt>
      <trkpt lat="43.37614" lon="-1.84384">
        <ele>41.473999</ele>
        <time>2014-10-05T09:10:41Z</time>
      </trkpt>
      <trkpt lat="43.37611" lon="-1.84399">
        <ele>38.590088</ele>
        <time>2014-10-05T09:10:50Z</time>
      </trkpt>
      <trkpt lat="43.3761" lon="-1.84405">
        <ele>37.148071</ele>
        <time>2014-10-05T09:10:55Z</time>
      </trkpt>
      <trkpt lat="43.37607" lon="-1.84412">
        <ele>34.744873</ele>
        <time>2014-10-05T09:11:08Z</time>
      </trkpt>
      <trkpt lat="43.376" lon="-1.84417">
        <ele>32.822266</ele>
        <time>2014-10-05T09:11:22Z</time>
      </trkpt>
      <trkpt lat="43.37592" lon="-1.84428">
        <ele>31.380127</ele>
        <time>2014-10-05T09:11:32Z</time>
      </trkpt>
      <trkpt lat="43.37583" lon="-1.84422">
        <ele>29.93811</ele>
        <time>2014-10-05T09:11:44Z</time>
      </trkpt>
      <trkpt lat="43.3758" lon="-1.84417">
        <ele>27.534912</ele>
        <time>2014-10-05T09:11:53Z</time>
      </trkpt>
      <trkpt lat="43.37577" lon="-1.84418">
        <ele>27.534912</ele>
        <time>2014-10-05T09:11:56Z</time>
      </trkpt>
      <trkpt lat="43.37571" lon="-1.8442">
        <ele>27.534912</ele>
        <time>2014-10-05T09:12:01Z</time>
      </trkpt>
      <trkpt lat="43.3756" lon="-1.84428">
        <ele>23.689575</ele>
        <time>2014-10-05T09:12:15Z</time>
      </trkpt>
      <trkpt lat="43.37555" lon="-1.84431">
        <ele>22.728271</ele>
        <time>2014-10-05T09:12:20Z</time>
      </trkpt>
      <trkpt lat="43.3755" lon="-1.84432">
        <ele>22.247559</ele>
        <time>2014-10-05T09:12:24Z</time>
      </trkpt>
      <trkpt lat="43.37535" lon="-1.8444">
        <ele>19.84436</ele>
        <time>2014-10-05T09:12:41Z</time>
      </trkpt>
      <trkpt lat="43.37516" lon="-1.84442">
        <ele>18.402344</ele>
        <time>2014-10-05T09:13:01Z</time>
      </trkpt>
      <trkpt lat="43.37519" lon="-1.84446">
        <ele>17.921753</ele>
        <time>2014-10-05T09:13:28Z</time>
      </trkpt>
      <trkpt lat="43.37519" lon="-1.84447">
        <ele>16.479736</ele>
        <time>2014-10-05T09:14:10Z</time>
      </trkpt>
      <trkpt lat="43.37517" lon="-1.84453">
        <ele>16.479736</ele>
        <time>2014-10-05T09:14:15Z</time>
      </trkpt>
      <trkpt lat="43.37505" lon="-1.84463">
        <ele>15.03772</ele>
        <time>2014-10-05T09:14:28Z</time>
      </trkpt>
      <trkpt lat="43.37495" lon="-1.84472">
        <ele>13.595825</ele>
        <time>2014-10-05T09:14:38Z</time>
      </trkpt>
      <trkpt lat="43.37482" lon="-1.84487">
        <ele>13.115112</ele>
        <time>2014-10-05T09:14:53Z</time>
      </trkpt>
      <trkpt lat="43.37487" lon="-1.84493">
        <ele>15.03772</ele>
        <time>2014-10-05T09:15:04Z</time>
      </trkpt>
      <trkpt lat="43.37492" lon="-1.84496">
        <ele>15.999023</ele>
        <time>2014-10-05T09:15:10Z</time>
      </trkpt>
      <trkpt lat="43.37503" lon="-1.84506">
        <ele>17.441162</ele>
        <time>2014-10-05T09:15:24Z</time>
      </trkpt>
      <trkpt lat="43.37514" lon="-1.84515">
        <ele>19.84436</ele>
        <time>2014-10-05T09:15:34Z</time>
      </trkpt>
      <trkpt lat="43.37527" lon="-1.84524">
        <ele>20.324951</ele>
        <time>2014-10-05T09:15:48Z</time>
      </trkpt>
      <trkpt lat="43.37544" lon="-1.8453">
        <ele>21.286377</ele>
        <time>2014-10-05T09:16:04Z</time>
      </trkpt>
      <trkpt lat="43.3756" lon="-1.84539">
        <ele>23.208984</ele>
        <time>2014-10-05T09:16:22Z</time>
      </trkpt>
      <trkpt lat="43.37562" lon="-1.84551">
        <ele>23.689575</ele>
        <time>2014-10-05T09:16:32Z</time>
      </trkpt>
      <trkpt lat="43.37557" lon="-1.84567">
        <ele>27.054321</ele>
        <time>2014-10-05T09:16:46Z</time>
      </trkpt>
      <trkpt lat="43.37556" lon="-1.84579">
        <ele>28.976929</ele>
        <time>2014-10-05T09:16:59Z</time>
      </trkpt>
      <trkpt lat="43.37561" lon="-1.84584">
        <ele>30.899536</ele>
        <time>2014-10-05T09:17:12Z</time>
      </trkpt>
      <trkpt lat="43.37569" lon="-1.84583">
        <ele>31.380127</ele>
        <time>2014-10-05T09:17:19Z</time>
      </trkpt>
      <trkpt lat="43.37578" lon="-1.84585">
        <ele>32.341553</ele>
        <time>2014-10-05T09:17:29Z</time>
      </trkpt>
      <trkpt lat="43.37587" lon="-1.84593">
        <ele>30.418823</ele>
        <time>2014-10-05T09:17:44Z</time>
      </trkpt>
      <trkpt lat="43.37588" lon="-1.84598">
        <ele>29.93811</ele>
        <time>2014-10-05T09:17:48Z</time>
      </trkpt>
      <trkpt lat="43.37594" lon="-1.84613">
        <ele>27.534912</ele>
        <time>2014-10-05T09:18:03Z</time>
      </trkpt>
      <trkpt lat="43.37599" lon="-1.84617">
        <ele>27.054321</ele>
        <time>2014-10-05T09:18:09Z</time>
      </trkpt>
      <trkpt lat="43.37609" lon="-1.8462">
        <ele>27.534912</ele>
        <time>2014-10-05T09:18:20Z</time>
      </trkpt>
      <trkpt lat="43.37618" lon="-1.84622">
        <ele>27.534912</ele>
        <time>2014-10-05T09:18:29Z</time>
      </trkpt>
      <trkpt lat="43.37623" lon="-1.84636">
        <ele>30.899536</ele>
        <time>2014-10-05T09:18:39Z</time>
      </trkpt>
      <trkpt lat="43.37624" lon="-1.84653">
        <ele>29.45752</ele>
        <time>2014-10-05T09:18:48Z</time>
      </trkpt>
      <trkpt lat="43.37638" lon="-1.84653">
        <ele>30.899536</ele>
        <time>2014-10-05T09:19:04Z</time>
      </trkpt>
      <trkpt lat="43.37643" lon="-1.84651">
        <ele>31.380127</ele>
        <time>2014-10-05T09:19:11Z</time>
      </trkpt>
      <trkpt lat="43.3766" lon="-1.84652">
        <ele>32.822266</ele>
        <time>2014-10-05T09:19:28Z</time>
      </trkpt>
      <trkpt lat="43.37662" lon="-1.84656">
        <ele>33.783447</ele>
        <time>2014-10-05T09:19:31Z</time>
      </trkpt>
      <trkpt lat="43.37665" lon="-1.84663">
        <ele>33.783447</ele>
        <time>2014-10-05T09:19:36Z</time>
      </trkpt>
      <trkpt lat="43.37672" lon="-1.84666">
        <ele>34.26416</ele>
        <time>2014-10-05T09:19:43Z</time>
      </trkpt>
      <trkpt lat="43.37685" lon="-1.8467">
        <ele>37.628662</ele>
        <time>2014-10-05T09:19:56Z</time>
      </trkpt>
      <trkpt lat="43.37688" lon="-1.84676">
        <ele>38.109375</ele>
        <time>2014-10-05T09:20:01Z</time>
      </trkpt>
      <trkpt lat="43.3769" lon="-1.84683">
        <ele>38.590088</ele>
        <time>2014-10-05T09:20:09Z</time>
      </trkpt>
      <trkpt lat="43.37692" lon="-1.84688">
        <ele>37.628662</ele>
        <time>2014-10-05T09:20:13Z</time>
      </trkpt>
      <trkpt lat="43.37699" lon="-1.84706">
        <ele>38.109375</ele>
        <time>2014-10-05T09:20:25Z</time>
      </trkpt>
      <trkpt lat="43.37697" lon="-1.84727">
        <ele>38.109375</ele>
        <time>2014-10-05T09:20:39Z</time>
      </trkpt>
      <trkpt lat="43.37695" lon="-1.84751">
        <ele>37.628662</ele>
        <time>2014-10-05T09:20:56Z</time>
      </trkpt>
      <trkpt lat="43.37698" lon="-1.84752">
        <ele>37.148071</ele>
        <time>2014-10-05T09:20:59Z</time>
      </trkpt>
      <trkpt lat="43.37699" lon="-1.84757">
        <ele>38.109375</ele>
        <time>2014-10-05T09:21:06Z</time>
      </trkpt>
      <trkpt lat="43.37705" lon="-1.84789">
        <ele>38.109375</ele>
        <time>2014-10-05T09:21:26Z</time>
      </trkpt>
      <trkpt lat="43.37705" lon="-1.84804">
        <ele>37.628662</ele>
        <time>2014-10-05T09:21:35Z</time>
      </trkpt>
      <trkpt lat="43.37699" lon="-1.84825">
        <ele>39.070679</ele>
        <time>2014-10-05T09:21:55Z</time>
      </trkpt>
      <trkpt lat="43.37703" lon="-1.84826">
        <ele>38.590088</ele>
        <time>2014-10-05T09:22:00Z</time>
      </trkpt>
      <trkpt lat="43.37709" lon="-1.84827">
        <ele>38.109375</ele>
        <time>2014-10-05T09:22:06Z</time>
      </trkpt>
      <trkpt lat="43.37724" lon="-1.84848">
        <ele>38.109375</ele>
        <time>2014-10-05T09:22:24Z</time>
      </trkpt>
      <trkpt lat="43.37726" lon="-1.84856">
        <ele>40.032104</ele>
        <time>2014-10-05T09:22:29Z</time>
      </trkpt>
      <trkpt lat="43.37728" lon="-1.84859">
        <ele>40.512817</ele>
        <time>2014-10-05T09:22:32Z</time>
      </trkpt>
      <trkpt lat="43.37738" lon="-1.84879">
        <ele>38.590088</ele>
        <time>2014-10-05T09:22:48Z</time>
      </trkpt>
      <trkpt lat="43.3774" lon="-1.84881">
        <ele>38.590088</ele>
        <time>2014-10-05T09:22:57Z</time>
      </trkpt>
      <trkpt lat="43.37744" lon="-1.84891">
        <ele>38.109375</ele>
        <time>2014-10-05T09:23:04Z</time>
      </trkpt>
      <trkpt lat="43.37746" lon="-1.84901">
        <ele>37.628662</ele>
        <time>2014-10-05T09:23:10Z</time>
      </trkpt>
      <trkpt lat="43.37751" lon="-1.84922">
        <ele>37.628662</ele>
        <time>2014-10-05T09:23:25Z</time>
      </trkpt>
      <trkpt lat="43.37754" lon="-1.84937">
        <ele>35.225464</ele>
        <time>2014-10-05T09:23:36Z</time>
      </trkpt>
      <trkpt lat="43.37752" lon="-1.84939">
        <ele>34.26416</ele>
        <time>2014-10-05T09:23:38Z</time>
      </trkpt>
      <trkpt lat="43.37737" lon="-1.84956">
        <ele>32.341553</ele>
        <time>2014-10-05T09:23:56Z</time>
      </trkpt>
      <trkpt lat="43.37731" lon="-1.84972">
        <ele>33.302856</ele>
        <time>2014-10-05T09:24:08Z</time>
      </trkpt>
      <trkpt lat="43.37725" lon="-1.84973">
        <ele>34.744873</ele>
        <time>2014-10-05T09:24:15Z</time>
      </trkpt>
      <trkpt lat="43.3772" lon="-1.84977">
        <ele>35.225464</ele>
        <time>2014-10-05T09:24:20Z</time>
      </trkpt>
      <trkpt lat="43.37697" lon="-1.85001">
        <ele>36.186768</ele>
        <time>2014-10-05T09:24:42Z</time>
      </trkpt>
      <trkpt lat="43.37673" lon="-1.85023">
        <ele>36.186768</ele>
        <time>2014-10-05T09:25:03Z</time>
      </trkpt>
      <trkpt lat="43.37654" lon="-1.85045">
        <ele>36.66748</ele>
        <time>2014-10-05T09:25:21Z</time>
      </trkpt>
      <trkpt lat="43.37653" lon="-1.85047">
        <ele>38.109375</ele>
        <time>2014-10-05T09:25:23Z</time>
      </trkpt>
      <trkpt lat="43.37644" lon="-1.85059">
        <ele>37.628662</ele>
        <time>2014-10-05T09:25:33Z</time>
      </trkpt>
      <trkpt lat="43.3762" lon="-1.85085">
        <ele>38.109375</ele>
        <time>2014-10-05T09:25:57Z</time>
      </trkpt>
      <trkpt lat="43.37599" lon="-1.85101">
        <ele>37.148071</ele>
        <time>2014-10-05T09:26:15Z</time>
      </trkpt>
      <trkpt lat="43.37592" lon="-1.85106">
        <ele>37.148071</ele>
        <time>2014-10-05T09:26:21Z</time>
      </trkpt>
      <trkpt lat="43.37587" lon="-1.85107">
        <ele>37.148071</ele>
        <time>2014-10-05T09:26:28Z</time>
      </trkpt>
      <trkpt lat="43.37586" lon="-1.85109">
        <ele>37.148071</ele>
        <time>2014-10-05T09:26:30Z</time>
      </trkpt>
      <trkpt lat="43.37581" lon="-1.8511">
        <ele>37.148071</ele>
        <time>2014-10-05T09:26:34Z</time>
      </trkpt>
      <trkpt lat="43.37579" lon="-1.85115">
        <ele>37.628662</ele>
        <time>2014-10-05T09:26:38Z</time>
      </trkpt>
      <trkpt lat="43.37576" lon="-1.85117">
        <ele>36.186768</ele>
        <time>2014-10-05T09:26:41Z</time>
      </trkpt>
      <trkpt lat="43.37575" lon="-1.85118">
        <ele>37.628662</ele>
        <time>2014-10-05T09:26:42Z</time>
      </trkpt>
      <trkpt lat="43.3757" lon="-1.85118">
        <ele>36.186768</ele>
        <time>2014-10-05T09:26:57Z</time>
      </trkpt>
      <trkpt lat="43.3757" lon="-1.85117">
        <ele>36.186768</ele>
        <time>2014-10-05T09:26:58Z</time>
      </trkpt>
      <trkpt lat="43.37571" lon="-1.85115">
        <ele>36.186768</ele>
        <time>2014-10-05T09:27:00Z</time>
      </trkpt>
      <trkpt lat="43.37579" lon="-1.85096">
        <ele>36.66748</ele>
        <time>2014-10-05T09:27:15Z</time>
      </trkpt>
      <trkpt lat="43.37579" lon="-1.85095">
        <ele>37.148071</ele>
        <time>2014-10-05T09:27:16Z</time>
      </trkpt>
      <trkpt lat="43.37579" lon="-1.85092">
        <ele>38.109375</ele>
        <time>2014-10-05T09:27:18Z</time>
      </trkpt>
      <trkpt lat="43.37579" lon="-1.85083">
        <ele>39.55127</ele>
        <time>2014-10-05T09:27:34Z</time>
      </trkpt>
      <trkpt lat="43.3758" lon="-1.85065">
        <ele>39.070679</ele>
        <time>2014-10-05T09:27:47Z</time>
      </trkpt>
      <trkpt lat="43.3758" lon="-1.85061">
        <ele>40.032104</ele>
        <time>2014-10-05T09:27:49Z</time>
      </trkpt>
      <trkpt lat="43.37581" lon="-1.85034">
        <ele>43.396606</ele>
        <time>2014-10-05T09:28:05Z</time>
      </trkpt>
      <trkpt lat="43.37581" lon="-1.85017">
        <ele>44.358032</ele>
        <time>2014-10-05T09:28:17Z</time>
      </trkpt>
      <trkpt lat="43.37581" lon="-1.85012">
        <ele>43.396606</ele>
        <time>2014-10-05T09:28:20Z</time>
      </trkpt>
      <trkpt lat="43.3758" lon="-1.84978">
        <ele>45.799927</ele>
        <time>2014-10-05T09:28:40Z</time>
      </trkpt>
      <trkpt lat="43.37578" lon="-1.84955">
        <ele>47.241821</ele>
        <time>2014-10-05T09:28:54Z</time>
      </trkpt>
      <trkpt lat="43.37577" lon="-1.84943">
        <ele>49.645264</ele>
        <time>2014-10-05T09:29:02Z</time>
      </trkpt>
      <trkpt lat="43.37574" lon="-1.8493">
        <ele>53.009766</ele>
        <time>2014-10-05T09:29:12Z</time>
      </trkpt>
      <trkpt lat="43.37568" lon="-1.84906">
        <ele>55.413086</ele>
        <time>2014-10-05T09:29:31Z</time>
      </trkpt>
      <trkpt lat="43.37561" lon="-1.84886">
        <ele>57.335815</ele>
        <time>2014-10-05T09:29:48Z</time>
      </trkpt>
      <trkpt lat="43.37559" lon="-1.8488">
        <ele>59.258423</ele>
        <time>2014-10-05T09:29:53Z</time>
      </trkpt>
      <trkpt lat="43.37554" lon="-1.84871">
        <ele>61.18103</ele>
        <time>2014-10-05T09:30:01Z</time>
      </trkpt>
      <trkpt lat="43.37551" lon="-1.84867">
        <ele>61.661743</ele>
        <time>2014-10-05T09:30:05Z</time>
      </trkpt>
      <trkpt lat="43.37541" lon="-1.84847">
        <ele>64.545654</ele>
        <time>2014-10-05T09:30:22Z</time>
      </trkpt>
      <trkpt lat="43.37531" lon="-1.8483">
        <ele>67.429688</ele>
        <time>2014-10-05T09:30:39Z</time>
      </trkpt>
      <trkpt lat="43.37525" lon="-1.84821">
        <ele>70.313477</ele>
        <time>2014-10-05T09:30:50Z</time>
      </trkpt>
      <trkpt lat="43.37515" lon="-1.84808">
        <ele>73.678223</ele>
        <time>2014-10-05T09:31:06Z</time>
      </trkpt>
      <trkpt lat="43.37506" lon="-1.848">
        <ele>75.60083</ele>
        <time>2014-10-05T09:31:16Z</time>
      </trkpt>
      <trkpt lat="43.37492" lon="-1.84788">
        <ele>79.446045</ele>
        <time>2014-10-05T09:31:32Z</time>
      </trkpt>
      <trkpt lat="43.37484" lon="-1.84778">
        <ele>82.810791</ele>
        <time>2014-10-05T09:31:43Z</time>
      </trkpt>
      <trkpt lat="43.3747" lon="-1.84773">
        <ele>84.733398</ele>
        <time>2014-10-05T09:31:58Z</time>
      </trkpt>
      <trkpt lat="43.37456" lon="-1.84767">
        <ele>85.213989</ele>
        <time>2014-10-05T09:32:14Z</time>
      </trkpt>
      <trkpt lat="43.37455" lon="-1.84766">
        <ele>84.733398</ele>
        <time>2014-10-05T09:32:18Z</time>
      </trkpt>
      <trkpt lat="43.37454" lon="-1.84755">
        <ele>88.098022</ele>
        <time>2014-10-05T09:32:28Z</time>
      </trkpt>
      <trkpt lat="43.37452" lon="-1.84744">
        <ele>90.02063</ele>
        <time>2014-10-05T09:32:37Z</time>
      </trkpt>
      <trkpt lat="43.37448" lon="-1.84731">
        <ele>94.346558</ele>
        <time>2014-10-05T09:32:47Z</time>
      </trkpt>
      <trkpt lat="43.37448" lon="-1.8473">
        <ele>94.346558</ele>
        <time>2014-10-05T09:32:48Z</time>
      </trkpt>
      <trkpt lat="43.37447" lon="-1.84718">
        <ele>97.230469</ele>
        <time>2014-10-05T09:32:57Z</time>
      </trkpt>
      <trkpt lat="43.37445" lon="-1.84709">
        <ele>98.672485</ele>
        <time>2014-10-05T09:33:04Z</time>
      </trkpt>
      <trkpt lat="43.37438" lon="-1.84693">
        <ele>102.037109</ele>
        <time>2014-10-05T09:33:18Z</time>
      </trkpt>
      <trkpt lat="43.37433" lon="-1.84687">
        <ele>104.921021</ele>
        <time>2014-10-05T09:33:24Z</time>
      </trkpt>
      <trkpt lat="43.37413" lon="-1.84675">
        <ele>107.805054</ele>
        <time>2014-10-05T09:33:43Z</time>
      </trkpt>
      <trkpt lat="43.37405" lon="-1.84671">
        <ele>109.727661</ele>
        <time>2014-10-05T09:33:51Z</time>
      </trkpt>
      <trkpt lat="43.37389" lon="-1.84666">
        <ele>112.611572</ele>
        <time>2014-10-05T09:34:05Z</time>
      </trkpt>
      <trkpt lat="43.37369" lon="-1.84654">
        <ele>115.014893</ele>
        <time>2014-10-05T09:34:25Z</time>
      </trkpt>
      <trkpt lat="43.37351" lon="-1.84646">
        <ele>118.379395</ele>
        <time>2014-10-05T09:34:41Z</time>
      </trkpt>
      <trkpt lat="43.37328" lon="-1.84641">
        <ele>120.782837</ele>
        <time>2014-10-05T09:35:01Z</time>
      </trkpt>
      <trkpt lat="43.37308" lon="-1.8464">
        <ele>123.186157</ele>
        <time>2014-10-05T09:35:19Z</time>
      </trkpt>
      <trkpt lat="43.37305" lon="-1.84641">
        <ele>124.628052</ele>
        <time>2014-10-05T09:35:22Z</time>
      </trkpt>
      <trkpt lat="43.37286" lon="-1.84637">
        <ele>126.550659</ele>
        <time>2014-10-05T09:35:39Z</time>
      </trkpt>
      <trkpt lat="43.37279" lon="-1.84634">
        <ele>126.550659</ele>
        <time>2014-10-05T09:35:46Z</time>
      </trkpt>
      <trkpt lat="43.37268" lon="-1.84632">
        <ele>128.473389</ele>
        <time>2014-10-05T09:35:55Z</time>
      </trkpt>
      <trkpt lat="43.37266" lon="-1.84633">
        <ele>129.434692</ele>
        <time>2014-10-05T09:35:57Z</time>
      </trkpt>
      <trkpt lat="43.37246" lon="-1.84635">
        <ele>130.395996</ele>
        <time>2014-10-05T09:36:14Z</time>
      </trkpt>
      <trkpt lat="43.37239" lon="-1.84636">
        <ele>131.837891</ele>
        <time>2014-10-05T09:36:19Z</time>
      </trkpt>
      <trkpt lat="43.37223" lon="-1.84636">
        <ele>134.241211</ele>
        <time>2014-10-05T09:36:33Z</time>
      </trkpt>
      <trkpt lat="43.37214" lon="-1.84634">
        <ele>133.760498</ele>
        <time>2014-10-05T09:36:40Z</time>
      </trkpt>
      <trkpt lat="43.3719" lon="-1.84623">
        <ele>134.241211</ele>
        <time>2014-10-05T09:37:00Z</time>
      </trkpt>
      <trkpt lat="43.37176" lon="-1.84616">
        <ele>137.605835</ele>
        <time>2014-10-05T09:37:15Z</time>
      </trkpt>
      <trkpt lat="43.37161" lon="-1.8461">
        <ele>140.489868</ele>
        <time>2014-10-05T09:37:33Z</time>
      </trkpt>
      <trkpt lat="43.37145" lon="-1.84599">
        <ele>142.412476</ele>
        <time>2014-10-05T09:37:48Z</time>
      </trkpt>
      <trkpt lat="43.37128" lon="-1.84596">
        <ele>144.815796</ele>
        <time>2014-10-05T09:38:03Z</time>
      </trkpt>
      <trkpt lat="43.37108" lon="-1.846">
        <ele>148.18042</ele>
        <time>2014-10-05T09:38:22Z</time>
      </trkpt>
      <trkpt lat="43.37106" lon="-1.846">
        <ele>148.661011</ele>
        <time>2014-10-05T09:38:23Z</time>
      </trkpt>
      <trkpt lat="43.37096" lon="-1.84602">
        <ele>149.141602</ele>
        <time>2014-10-05T09:38:32Z</time>
      </trkpt>
      <trkpt lat="43.37076" lon="-1.84601">
        <ele>152.025757</ele>
        <time>2014-10-05T09:38:50Z</time>
      </trkpt>
      <trkpt lat="43.37073" lon="-1.84602">
        <ele>152.025757</ele>
        <time>2014-10-05T09:38:52Z</time>
      </trkpt>
      <trkpt lat="43.37053" lon="-1.84604">
        <ele>153.948364</ele>
        <time>2014-10-05T09:39:10Z</time>
      </trkpt>
      <trkpt lat="43.37036" lon="-1.84598">
        <ele>157.312866</ele>
        <time>2014-10-05T09:39:25Z</time>
      </trkpt>
      <trkpt lat="43.37013" lon="-1.84591">
        <ele>160.196899</ele>
        <time>2014-10-05T09:39:46Z</time>
      </trkpt>
      <trkpt lat="43.36992" lon="-1.84585">
        <ele>162.600098</ele>
        <time>2014-10-05T09:40:04Z</time>
      </trkpt>
      <trkpt lat="43.36964" lon="-1.84573">
        <ele>161.638916</ele>
        <time>2014-10-05T09:40:28Z</time>
      </trkpt>
      <trkpt lat="43.36955" lon="-1.84551">
        <ele>160.67749</ele>
        <time>2014-10-05T09:40:44Z</time>
      </trkpt>
      <trkpt lat="43.3695" lon="-1.8454">
        <ele>160.196899</ele>
        <time>2014-10-05T09:40:52Z</time>
      </trkpt>
      <trkpt lat="43.36932" lon="-1.8452">
        <ele>159.235474</ele>
        <time>2014-10-05T09:41:12Z</time>
      </trkpt>
      <trkpt lat="43.3691" lon="-1.84497">
        <ele>158.754761</ele>
        <time>2014-10-05T09:41:33Z</time>
      </trkpt>
      <trkpt lat="43.36887" lon="-1.84485">
        <ele>159.716187</ele>
        <time>2014-10-05T09:41:54Z</time>
      </trkpt>
      <trkpt lat="43.36873" lon="-1.84462">
        <ele>159.235474</ele>
        <time>2014-10-05T09:42:13Z</time>
      </trkpt>
      <trkpt lat="43.36869" lon="-1.84454">
        <ele>161.158203</ele>
        <time>2014-10-05T09:42:19Z</time>
      </trkpt>
      <trkpt lat="43.36853" lon="-1.84441">
        <ele>159.235474</ele>
        <time>2014-10-05T09:42:34Z</time>
      </trkpt>
      <trkpt lat="43.36828" lon="-1.84427">
        <ele>160.67749</ele>
        <time>2014-10-05T09:42:55Z</time>
      </trkpt>
      <trkpt lat="43.36802" lon="-1.84417">
        <ele>161.638916</ele>
        <time>2014-10-05T09:43:17Z</time>
      </trkpt>
      <trkpt lat="43.36776" lon="-1.84414">
        <ele>162.600098</ele>
        <time>2014-10-05T09:43:38Z</time>
      </trkpt>
      <trkpt lat="43.3676" lon="-1.84409">
        <ele>165.964722</ele>
        <time>2014-10-05T09:43:54Z</time>
      </trkpt>
      <trkpt lat="43.36759" lon="-1.84409">
        <ele>165.964722</ele>
        <time>2014-10-05T09:43:55Z</time>
      </trkpt>
      <trkpt lat="43.36741" lon="-1.84404">
        <ele>167.887329</ele>
        <time>2014-10-05T09:44:13Z</time>
      </trkpt>
      <trkpt lat="43.36723" lon="-1.84397">
        <ele>169.329468</ele>
        <time>2014-10-05T09:44:29Z</time>
      </trkpt>
      <trkpt lat="43.36714" lon="-1.84393">
        <ele>170.290649</ele>
        <time>2014-10-05T09:44:37Z</time>
      </trkpt>
      <trkpt lat="43.36695" lon="-1.84386">
        <ele>172.69397</ele>
        <time>2014-10-05T09:44:54Z</time>
      </trkpt>
      <trkpt lat="43.36673" lon="-1.84379">
        <ele>174.135864</ele>
        <time>2014-10-05T09:45:13Z</time>
      </trkpt>
      <trkpt lat="43.3666" lon="-1.8437">
        <ele>176.539307</ele>
        <time>2014-10-05T09:45:27Z</time>
      </trkpt>
      <trkpt lat="43.36652" lon="-1.84366">
        <ele>177.50061</ele>
        <time>2014-10-05T09:45:44Z</time>
      </trkpt>
      <trkpt lat="43.36649" lon="-1.84363">
        <ele>177.02002</ele>
        <time>2014-10-05T09:46:00Z</time>
      </trkpt>
      <trkpt lat="43.36644" lon="-1.84357">
        <ele>177.50061</ele>
        <time>2014-10-05T09:46:08Z</time>
      </trkpt>
      <trkpt lat="43.36627" lon="-1.84345">
        <ele>180.865234</ele>
        <time>2014-10-05T09:46:27Z</time>
      </trkpt>
      <trkpt lat="43.36609" lon="-1.84338">
        <ele>183.268433</ele>
        <time>2014-10-05T09:46:43Z</time>
      </trkpt>
      <trkpt lat="43.36597" lon="-1.84336">
        <ele>185.191162</ele>
        <time>2014-10-05T09:46:54Z</time>
      </trkpt>
      <trkpt lat="43.36588" lon="-1.84331">
        <ele>186.152466</ele>
        <time>2014-10-05T09:47:03Z</time>
      </trkpt>
      <trkpt lat="43.3657" lon="-1.84324">
        <ele>188.075073</ele>
        <time>2014-10-05T09:47:20Z</time>
      </trkpt>
      <trkpt lat="43.36555" lon="-1.84319">
        <ele>191.920288</ele>
        <time>2014-10-05T09:47:35Z</time>
      </trkpt>
      <trkpt lat="43.36534" lon="-1.84313">
        <ele>193.843018</ele>
        <time>2014-10-05T09:47:55Z</time>
      </trkpt>
      <trkpt lat="43.36526" lon="-1.84311">
        <ele>196.246338</ele>
        <time>2014-10-05T09:48:03Z</time>
      </trkpt>
      <trkpt lat="43.3651" lon="-1.84306">
        <ele>199.130127</ele>
        <time>2014-10-05T09:48:19Z</time>
      </trkpt>
      <trkpt lat="43.36506" lon="-1.84305">
        <ele>200.572266</ele>
        <time>2014-10-05T09:48:23Z</time>
      </trkpt>
      <trkpt lat="43.36492" lon="-1.84301">
        <ele>204.41748</ele>
        <time>2014-10-05T09:48:39Z</time>
      </trkpt>
      <trkpt lat="43.36481" lon="-1.84291">
        <ele>207.782104</ele>
        <time>2014-10-05T09:48:53Z</time>
      </trkpt>
      <trkpt lat="43.36479" lon="-1.8429">
        <ele>208.262817</ele>
        <time>2014-10-05T09:48:55Z</time>
      </trkpt>
      <trkpt lat="43.3647" lon="-1.84283">
        <ele>209.224121</ele>
        <time>2014-10-05T09:49:05Z</time>
      </trkpt>
      <trkpt lat="43.36455" lon="-1.84271">
        <ele>212.588623</ele>
        <time>2014-10-05T09:49:21Z</time>
      </trkpt>
      <trkpt lat="43.36441" lon="-1.84261">
        <ele>214.991943</ele>
        <time>2014-10-05T09:49:37Z</time>
      </trkpt>
      <trkpt lat="43.36433" lon="-1.84258">
        <ele>216.43396</ele>
        <time>2014-10-05T09:49:46Z</time>
      </trkpt>
      <trkpt lat="43.36418" lon="-1.84253">
        <ele>219.317993</ele>
        <time>2014-10-05T09:50:01Z</time>
      </trkpt>
      <trkpt lat="43.36401" lon="-1.84248">
        <ele>222.201782</ele>
        <time>2014-10-05T09:50:19Z</time>
      </trkpt>
      <trkpt lat="43.36397" lon="-1.84247">
        <ele>223.163208</ele>
        <time>2014-10-05T09:50:23Z</time>
      </trkpt>
      <trkpt lat="43.36384" lon="-1.84245">
        <ele>226.527832</ele>
        <time>2014-10-05T09:50:36Z</time>
      </trkpt>
      <trkpt lat="43.36382" lon="-1.84245">
        <ele>226.527832</ele>
        <time>2014-10-05T09:50:38Z</time>
      </trkpt>
      <trkpt lat="43.36368" lon="-1.84244">
        <ele>230.373047</ele>
        <time>2014-10-05T09:50:54Z</time>
      </trkpt>
      <trkpt lat="43.36355" lon="-1.8424">
        <ele>233.737671</ele>
        <time>2014-10-05T09:51:09Z</time>
      </trkpt>
      <trkpt lat="43.36348" lon="-1.84237">
        <ele>236.621704</ele>
        <time>2014-10-05T09:51:20Z</time>
      </trkpt>
      <trkpt lat="43.36334" lon="-1.84233">
        <ele>239.505493</ele>
        <time>2014-10-05T09:51:38Z</time>
      </trkpt>
      <trkpt lat="43.36322" lon="-1.84228">
        <ele>242.870239</ele>
        <time>2014-10-05T09:51:53Z</time>
      </trkpt>
      <trkpt lat="43.36321" lon="-1.84227">
        <ele>244.312256</ele>
        <time>2014-10-05T09:52:14Z</time>
      </trkpt>
      <trkpt lat="43.36309" lon="-1.84223">
        <ele>246.715454</ele>
        <time>2014-10-05T09:52:34Z</time>
      </trkpt>
      <trkpt lat="43.36303" lon="-1.84221">
        <ele>247.676758</ele>
        <time>2014-10-05T09:52:41Z</time>
      </trkpt>
      <trkpt lat="43.36301" lon="-1.8422">
        <ele>249.118774</ele>
        <time>2014-10-05T09:52:44Z</time>
      </trkpt>
      <trkpt lat="43.36287" lon="-1.84217">
        <ele>252.483398</ele>
        <time>2014-10-05T09:53:02Z</time>
      </trkpt>
      <trkpt lat="43.36275" lon="-1.84212">
        <ele>255.36731</ele>
        <time>2014-10-05T09:53:17Z</time>
      </trkpt>
      <trkpt lat="43.36274" lon="-1.84212">
        <ele>255.36731</ele>
        <time>2014-10-05T09:53:18Z</time>
      </trkpt>
      <trkpt lat="43.36266" lon="-1.84206">
        <ele>258.731934</ele>
        <time>2014-10-05T09:53:28Z</time>
      </trkpt>
      <trkpt lat="43.36265" lon="-1.84205">
        <ele>260.17395</ele>
        <time>2014-10-05T09:53:30Z</time>
      </trkpt>
      <trkpt lat="43.36252" lon="-1.84193">
        <ele>262.096558</ele>
        <time>2014-10-05T09:53:48Z</time>
      </trkpt>
      <trkpt lat="43.36249" lon="-1.84192">
        <ele>262.577148</ele>
        <time>2014-10-05T09:53:52Z</time>
      </trkpt>
      <trkpt lat="43.36245" lon="-1.84195">
        <ele>264.499878</ele>
        <time>2014-10-05T09:53:56Z</time>
      </trkpt>
      <trkpt lat="43.36233" lon="-1.84191">
        <ele>267.864502</ele>
        <time>2014-10-05T09:54:10Z</time>
      </trkpt>
      <trkpt lat="43.36227" lon="-1.84188">
        <ele>269.787109</ele>
        <time>2014-10-05T09:54:18Z</time>
      </trkpt>
      <trkpt lat="43.36221" lon="-1.84186">
        <ele>272.19043</ele>
        <time>2014-10-05T09:54:31Z</time>
      </trkpt>
      <trkpt lat="43.36216" lon="-1.84189">
        <ele>273.151855</ele>
        <time>2014-10-05T09:54:46Z</time>
      </trkpt>
      <trkpt lat="43.36214" lon="-1.84176">
        <ele>274.113037</ele>
        <time>2014-10-05T09:55:04Z</time>
      </trkpt>
      <trkpt lat="43.36214" lon="-1.84163">
        <ele>275.074463</ele>
        <time>2014-10-05T09:55:15Z</time>
      </trkpt>
      <trkpt lat="43.36214" lon="-1.84146">
        <ele>276.516357</ele>
        <time>2014-10-05T09:55:28Z</time>
      </trkpt>
      <trkpt lat="43.36211" lon="-1.84137">
        <ele>277.477661</ele>
        <time>2014-10-05T09:55:35Z</time>
      </trkpt>
      <trkpt lat="43.36206" lon="-1.84123">
        <ele>277.958252</ele>
        <time>2014-10-05T09:55:51Z</time>
      </trkpt>
      <trkpt lat="43.362" lon="-1.84101">
        <ele>280.842407</ele>
        <time>2014-10-05T09:56:08Z</time>
      </trkpt>
      <trkpt lat="43.36195" lon="-1.84082">
        <ele>282.765015</ele>
        <time>2014-10-05T09:56:25Z</time>
      </trkpt>
      <trkpt lat="43.36184" lon="-1.84061">
        <ele>284.206909</ele>
        <time>2014-10-05T09:56:42Z</time>
      </trkpt>
      <trkpt lat="43.36178" lon="-1.84057">
        <ele>284.206909</ele>
        <time>2014-10-05T09:56:48Z</time>
      </trkpt>
      <trkpt lat="43.3616" lon="-1.84046">
        <ele>285.648804</ele>
        <time>2014-10-05T09:57:06Z</time>
      </trkpt>
      <trkpt lat="43.36143" lon="-1.84041">
        <ele>288.052246</ele>
        <time>2014-10-05T09:57:23Z</time>
      </trkpt>
      <trkpt lat="43.36131" lon="-1.84031">
        <ele>289.494141</ele>
        <time>2014-10-05T09:57:38Z</time>
      </trkpt>
      <trkpt lat="43.36114" lon="-1.84018">
        <ele>289.974854</ele>
        <time>2014-10-05T09:57:52Z</time>
      </trkpt>
      <trkpt lat="43.36101" lon="-1.84006">
        <ele>291.416748</ele>
        <time>2014-10-05T09:58:08Z</time>
      </trkpt>
      <trkpt lat="43.36097" lon="-1.83996">
        <ele>293.339355</ele>
        <time>2014-10-05T09:58:20Z</time>
      </trkpt>
      <trkpt lat="43.36084" lon="-1.83973">
        <ele>293.820068</ele>
        <time>2014-10-05T09:58:38Z</time>
      </trkpt>
      <trkpt lat="43.36073" lon="-1.83956">
        <ele>294.781372</ele>
        <time>2014-10-05T09:58:54Z</time>
      </trkpt>
      <trkpt lat="43.36077" lon="-1.83943">
        <ele>295.261963</ele>
        <time>2014-10-05T09:59:04Z</time>
      </trkpt>
      <trkpt lat="43.36091" lon="-1.83927">
        <ele>295.742676</ele>
        <time>2014-10-05T09:59:21Z</time>
      </trkpt>
      <trkpt lat="43.36103" lon="-1.83914">
        <ele>295.742676</ele>
        <time>2014-10-05T09:59:34Z</time>
      </trkpt>
      <trkpt lat="43.3611" lon="-1.83907">
        <ele>296.704102</ele>
        <time>2014-10-05T09:59:42Z</time>
      </trkpt>
      <trkpt lat="43.36127" lon="-1.83882">
        <ele>298.146118</ele>
        <time>2014-10-05T10:00:01Z</time>
      </trkpt>
      <trkpt lat="43.36127" lon="-1.83856">
        <ele>299.588013</ele>
        <time>2014-10-05T10:00:19Z</time>
      </trkpt>
      <trkpt lat="43.36116" lon="-1.83842">
        <ele>299.1073</ele>
        <time>2014-10-05T10:00:34Z</time>
      </trkpt>
      <trkpt lat="43.36116" lon="-1.83841">
        <ele>299.1073</ele>
        <time>2014-10-05T10:00:35Z</time>
      </trkpt>
      <trkpt lat="43.36114" lon="-1.83837">
        <ele>297.665405</ele>
        <time>2014-10-05T10:00:38Z</time>
      </trkpt>
      <trkpt lat="43.36113" lon="-1.83835">
        <ele>298.146118</ele>
        <time>2014-10-05T10:00:39Z</time>
      </trkpt>
      <trkpt lat="43.36112" lon="-1.83798">
        <ele>297.184692</ele>
        <time>2014-10-05T10:01:00Z</time>
      </trkpt>
      <trkpt lat="43.36107" lon="-1.83762">
        <ele>296.223511</ele>
        <time>2014-10-05T10:01:19Z</time>
      </trkpt>
      <trkpt lat="43.36104" lon="-1.83727">
        <ele>294.781372</ele>
        <time>2014-10-05T10:01:39Z</time>
      </trkpt>
      <trkpt lat="43.36105" lon="-1.83703">
        <ele>295.742676</ele>
        <time>2014-10-05T10:01:53Z</time>
      </trkpt>
      <trkpt lat="43.36116" lon="-1.83677">
        <ele>297.184692</ele>
        <time>2014-10-05T10:02:10Z</time>
      </trkpt>
      <trkpt lat="43.36117" lon="-1.8367">
        <ele>298.146118</ele>
        <time>2014-10-05T10:02:15Z</time>
      </trkpt>
      <trkpt lat="43.36119" lon="-1.83649">
        <ele>298.146118</ele>
        <time>2014-10-05T10:02:27Z</time>
      </trkpt>
      <trkpt lat="43.36119" lon="-1.83619">
        <ele>299.1073</ele>
        <time>2014-10-05T10:02:44Z</time>
      </trkpt>
      <trkpt lat="43.36127" lon="-1.83593">
        <ele>301.029907</ele>
        <time>2014-10-05T10:03:01Z</time>
      </trkpt>
      <trkpt lat="43.36136" lon="-1.83565">
        <ele>301.991333</ele>
        <time>2014-10-05T10:03:19Z</time>
      </trkpt>
      <trkpt lat="43.36139" lon="-1.83555">
        <ele>303.433228</ele>
        <time>2014-10-05T10:03:25Z</time>
      </trkpt>
      <trkpt lat="43.36148" lon="-1.8353">
        <ele>304.875244</ele>
        <time>2014-10-05T10:03:42Z</time>
      </trkpt>
      <trkpt lat="43.36156" lon="-1.83517">
        <ele>305.83667</ele>
        <time>2014-10-05T10:03:51Z</time>
      </trkpt>
      <trkpt lat="43.36171" lon="-1.83498">
        <ele>305.355957</ele>
        <time>2014-10-05T10:04:08Z</time>
      </trkpt>
      <trkpt lat="43.36181" lon="-1.83484">
        <ele>306.797852</ele>
        <time>2014-10-05T10:04:20Z</time>
      </trkpt>
      <trkpt lat="43.36196" lon="-1.83472">
        <ele>307.278564</ele>
        <time>2014-10-05T10:04:33Z</time>
      </trkpt>
      <trkpt lat="43.3621" lon="-1.83458">
        <ele>308.239868</ele>
        <time>2014-10-05T10:04:46Z</time>
      </trkpt>
      <trkpt lat="43.3621" lon="-1.83451">
        <ele>309.681885</ele>
        <time>2014-10-05T10:04:54Z</time>
      </trkpt>
      <trkpt lat="43.36187" lon="-1.83456">
        <ele>310.643066</ele>
        <time>2014-10-05T10:05:14Z</time>
      </trkpt>
      <trkpt lat="43.36165" lon="-1.83463">
        <ele>313.527222</ele>
        <time>2014-10-05T10:05:33Z</time>
      </trkpt>
      <trkpt lat="43.36143" lon="-1.83472">
        <ele>314.488403</ele>
        <time>2014-10-05T10:05:51Z</time>
      </trkpt>
      <trkpt lat="43.36114" lon="-1.83488">
        <ele>315.93042</ele>
        <time>2014-10-05T10:06:11Z</time>
      </trkpt>
      <trkpt lat="43.36097" lon="-1.83505">
        <ele>318.333618</ele>
        <time>2014-10-05T10:06:29Z</time>
      </trkpt>
      <trkpt lat="43.36077" lon="-1.8353">
        <ele>319.295044</ele>
        <time>2014-10-05T10:06:49Z</time>
      </trkpt>
      <trkpt lat="43.36061" lon="-1.83554">
        <ele>322.659668</ele>
        <time>2014-10-05T10:07:07Z</time>
      </trkpt>
      <trkpt lat="43.3605" lon="-1.83572">
        <ele>323.620972</ele>
        <time>2014-10-05T10:07:21Z</time>
      </trkpt>
      <trkpt lat="43.36036" lon="-1.83592">
        <ele>326.504883</ele>
        <time>2014-10-05T10:07:36Z</time>
      </trkpt>
      <trkpt lat="43.36022" lon="-1.83612">
        <ele>327.466187</ele>
        <time>2014-10-05T10:07:50Z</time>
      </trkpt>
      <trkpt lat="43.36021" lon="-1.83618">
        <ele>328.427612</ele>
        <time>2014-10-05T10:07:55Z</time>
      </trkpt>
      <trkpt lat="43.36008" lon="-1.8364">
        <ele>329.869507</ele>
        <time>2014-10-05T10:08:10Z</time>
      </trkpt>
      <trkpt lat="43.35995" lon="-1.83661">
        <ele>331.311523</ele>
        <time>2014-10-05T10:08:27Z</time>
      </trkpt>
      <trkpt lat="43.35981" lon="-1.83686">
        <ele>333.234131</ele>
        <time>2014-10-05T10:08:43Z</time>
      </trkpt>
      <trkpt lat="43.35983" lon="-1.83709">
        <ele>334.676147</ele>
        <time>2014-10-05T10:08:55Z</time>
      </trkpt>
      <trkpt lat="43.35984" lon="-1.83721">
        <ele>335.637329</ele>
        <time>2014-10-05T10:09:02Z</time>
      </trkpt>
      <trkpt lat="43.35985" lon="-1.83732">
        <ele>336.118164</ele>
        <time>2014-10-05T10:09:08Z</time>
      </trkpt>
      <trkpt lat="43.35987" lon="-1.83737">
        <ele>338.040771</ele>
        <time>2014-10-05T10:09:11Z</time>
      </trkpt>
      <trkpt lat="43.35987" lon="-1.83739">
        <ele>338.040771</ele>
        <time>2014-10-05T10:09:12Z</time>
      </trkpt>
      <trkpt lat="43.35986" lon="-1.8378">
        <ele>340.444092</ele>
        <time>2014-10-05T10:09:33Z</time>
      </trkpt>
      <trkpt lat="43.35978" lon="-1.83799">
        <ele>341.405273</ele>
        <time>2014-10-05T10:09:46Z</time>
      </trkpt>
      <trkpt lat="43.35975" lon="-1.83805">
        <ele>341.885986</ele>
        <time>2014-10-05T10:09:51Z</time>
      </trkpt>
      <trkpt lat="43.3597" lon="-1.83811">
        <ele>343.327881</ele>
        <time>2014-10-05T10:09:56Z</time>
      </trkpt>
      <trkpt lat="43.35959" lon="-1.83833">
        <ele>344.77002</ele>
        <time>2014-10-05T10:10:12Z</time>
      </trkpt>
      <trkpt lat="43.35945" lon="-1.83862">
        <ele>346.692627</ele>
        <time>2014-10-05T10:10:29Z</time>
      </trkpt>
      <trkpt lat="43.3594" lon="-1.83888">
        <ele>348.134644</ele>
        <time>2014-10-05T10:10:44Z</time>
      </trkpt>
      <trkpt lat="43.35935" lon="-1.83901">
        <ele>348.615234</ele>
        <time>2014-10-05T10:10:51Z</time>
      </trkpt>
      <trkpt lat="43.35934" lon="-1.83914">
        <ele>349.576538</ele>
        <time>2014-10-05T10:10:59Z</time>
      </trkpt>
      <trkpt lat="43.35927" lon="-1.83944">
        <ele>352.460571</ele>
        <time>2014-10-05T10:11:17Z</time>
      </trkpt>
      <trkpt lat="43.35904" lon="-1.83967">
        <ele>354.86377</ele>
        <time>2014-10-05T10:11:40Z</time>
      </trkpt>
      <trkpt lat="43.35884" lon="-1.83974">
        <ele>355.344482</ele>
        <time>2014-10-05T10:11:58Z</time>
      </trkpt>
      <trkpt lat="43.35877" lon="-1.83965">
        <ele>356.786377</ele>
        <time>2014-10-05T10:12:13Z</time>
      </trkpt>
      <trkpt lat="43.35877" lon="-1.83959">
        <ele>358.708984</ele>
        <time>2014-10-05T10:12:18Z</time>
      </trkpt>
      <trkpt lat="43.35877" lon="-1.83954">
        <ele>359.67041</ele>
        <time>2014-10-05T10:12:21Z</time>
      </trkpt>
      <trkpt lat="43.35867" lon="-1.83941">
        <ele>363.035034</ele>
        <time>2014-10-05T10:12:37Z</time>
      </trkpt>
      <trkpt lat="43.35865" lon="-1.83935">
        <ele>363.515747</ele>
        <time>2014-10-05T10:12:43Z</time>
      </trkpt>
      <trkpt lat="43.35864" lon="-1.83915">
        <ele>366.399536</ele>
        <time>2014-10-05T10:13:00Z</time>
      </trkpt>
      <trkpt lat="43.35857" lon="-1.83912">
        <ele>368.802979</ele>
        <time>2014-10-05T10:13:07Z</time>
      </trkpt>
      <trkpt lat="43.35851" lon="-1.83909">
        <ele>370.725586</ele>
        <time>2014-10-05T10:13:14Z</time>
      </trkpt>
      <trkpt lat="43.35835" lon="-1.83901">
        <ele>373.128906</ele>
        <time>2014-10-05T10:13:31Z</time>
      </trkpt>
      <trkpt lat="43.35827" lon="-1.83897">
        <ele>375.532104</ele>
        <time>2014-10-05T10:13:39Z</time>
      </trkpt>
      <trkpt lat="43.35825" lon="-1.83894">
        <ele>376.012817</ele>
        <time>2014-10-05T10:13:43Z</time>
      </trkpt>
      <trkpt lat="43.35816" lon="-1.83888">
        <ele>376.974243</ele>
        <time>2014-10-05T10:13:56Z</time>
      </trkpt>
      <trkpt lat="43.35811" lon="-1.83885">
        <ele>377.454834</ele>
        <time>2014-10-05T10:14:01Z</time>
      </trkpt>
      <trkpt lat="43.35798" lon="-1.83883">
        <ele>382.261353</ele>
        <time>2014-10-05T10:14:15Z</time>
      </trkpt>
      <trkpt lat="43.35797" lon="-1.83883">
        <ele>382.261353</ele>
        <time>2014-10-05T10:14:16Z</time>
      </trkpt>
      <trkpt lat="43.35794" lon="-1.83883">
        <ele>383.703247</ele>
        <time>2014-10-05T10:14:19Z</time>
      </trkpt>
      <trkpt lat="43.35773" lon="-1.83883">
        <ele>385.625977</ele>
        <time>2014-10-05T10:14:38Z</time>
      </trkpt>
      <trkpt lat="43.3577" lon="-1.83883">
        <ele>385.625977</ele>
        <time>2014-10-05T10:14:41Z</time>
      </trkpt>
      <trkpt lat="43.35765" lon="-1.83884">
        <ele>386.106689</ele>
        <time>2014-10-05T10:14:46Z</time>
      </trkpt>
      <trkpt lat="43.35762" lon="-1.83883">
        <ele>386.587402</ele>
        <time>2014-10-05T10:14:49Z</time>
      </trkpt>
      <trkpt lat="43.3575" lon="-1.83889">
        <ele>387.548584</ele>
        <time>2014-10-05T10:15:01Z</time>
      </trkpt>
      <trkpt lat="43.35741" lon="-1.83894">
        <ele>388.990601</ele>
        <time>2014-10-05T10:15:11Z</time>
      </trkpt>
      <trkpt lat="43.35736" lon="-1.83895">
        <ele>389.471191</ele>
        <time>2014-10-05T10:15:15Z</time>
      </trkpt>
      <trkpt lat="43.35726" lon="-1.839">
        <ele>391.393799</ele>
        <time>2014-10-05T10:15:25Z</time>
      </trkpt>
      <trkpt lat="43.35721" lon="-1.83903">
        <ele>392.355347</ele>
        <time>2014-10-05T10:15:30Z</time>
      </trkpt>
      <trkpt lat="43.35714" lon="-1.83905">
        <ele>391.874512</ele>
        <time>2014-10-05T10:15:37Z</time>
      </trkpt>
      <trkpt lat="43.357" lon="-1.83902">
        <ele>391.874512</ele>
        <time>2014-10-05T10:15:53Z</time>
      </trkpt>
      <trkpt lat="43.35702" lon="-1.8389">
        <ele>393.797241</ele>
        <time>2014-10-05T10:16:21Z</time>
      </trkpt>
      <trkpt lat="43.35703" lon="-1.83888">
        <ele>393.797241</ele>
        <time>2014-10-05T10:16:23Z</time>
      </trkpt>
      <trkpt lat="43.35704" lon="-1.83885">
        <ele>393.797241</ele>
        <time>2014-10-05T10:16:26Z</time>
      </trkpt>
      <trkpt lat="43.3571" lon="-1.83872">
        <ele>394.277954</ele>
        <time>2014-10-05T10:16:39Z</time>
      </trkpt>
      <trkpt lat="43.35713" lon="-1.8387">
        <ele>396.200562</ele>
        <time>2014-10-05T10:16:42Z</time>
      </trkpt>
      <trkpt lat="43.35717" lon="-1.83857">
        <ele>397.161743</ele>
        <time>2014-10-05T10:16:57Z</time>
      </trkpt>
      <trkpt lat="43.35727" lon="-1.8384">
        <ele>396.681152</ele>
        <time>2014-10-05T10:17:15Z</time>
      </trkpt>
      <trkpt lat="43.3573" lon="-1.83829">
        <ele>396.200562</ele>
        <time>2014-10-05T10:17:29Z</time>
      </trkpt>
      <trkpt lat="43.35732" lon="-1.83827">
        <ele>395.719849</ele>
        <time>2014-10-05T10:17:34Z</time>
      </trkpt>
      <trkpt lat="43.35735" lon="-1.83817">
        <ele>395.719849</ele>
        <time>2014-10-05T10:17:50Z</time>
      </trkpt>
      <trkpt lat="43.35745" lon="-1.83797">
        <ele>395.239136</ele>
        <time>2014-10-05T10:18:07Z</time>
      </trkpt>
      <trkpt lat="43.35751" lon="-1.83776">
        <ele>396.681152</ele>
        <time>2014-10-05T10:18:26Z</time>
      </trkpt>
      <trkpt lat="43.35758" lon="-1.83764">
        <ele>396.681152</ele>
        <time>2014-10-05T10:18:41Z</time>
      </trkpt>
      <trkpt lat="43.3576" lon="-1.83761">
        <ele>397.161743</ele>
        <time>2014-10-05T10:18:53Z</time>
      </trkpt>
      <trkpt lat="43.35763" lon="-1.83759">
        <ele>397.161743</ele>
        <time>2014-10-05T10:18:56Z</time>
      </trkpt>
      <trkpt lat="43.35776" lon="-1.83734">
        <ele>396.200562</ele>
        <time>2014-10-05T10:19:16Z</time>
      </trkpt>
      <trkpt lat="43.35778" lon="-1.83716">
        <ele>395.719849</ele>
        <time>2014-10-05T10:19:28Z</time>
      </trkpt>
      <trkpt lat="43.35786" lon="-1.83691">
        <ele>396.681152</ele>
        <time>2014-10-05T10:19:47Z</time>
      </trkpt>
      <trkpt lat="43.35789" lon="-1.83686">
        <ele>396.681152</ele>
        <time>2014-10-05T10:19:51Z</time>
      </trkpt>
      <trkpt lat="43.35796" lon="-1.83667">
        <ele>396.681152</ele>
        <time>2014-10-05T10:20:08Z</time>
      </trkpt>
      <trkpt lat="43.35796" lon="-1.83667">
        <ele>396.200562</ele>
        <time>2014-10-05T10:20:36Z</time>
      </trkpt>
      <trkpt lat="43.35793" lon="-1.8366">
        <ele>394.277954</ele>
        <time>2014-10-05T10:20:52Z</time>
      </trkpt>
      <trkpt lat="43.35795" lon="-1.83638">
        <ele>392.835938</ele>
        <time>2014-10-05T10:21:10Z</time>
      </trkpt>
      <trkpt lat="43.35794" lon="-1.83627">
        <ele>392.355347</ele>
        <time>2014-10-05T10:21:26Z</time>
      </trkpt>
      <trkpt lat="43.35798" lon="-1.83611">
        <ele>389.471191</ele>
        <time>2014-10-05T10:21:40Z</time>
      </trkpt>
      <trkpt lat="43.35805" lon="-1.83604">
        <ele>388.51001</ele>
        <time>2014-10-05T10:21:58Z</time>
      </trkpt>
      <trkpt lat="43.35809" lon="-1.83598">
        <ele>387.067993</ele>
        <time>2014-10-05T10:22:06Z</time>
      </trkpt>
      <trkpt lat="43.35809" lon="-1.83594">
        <ele>387.548584</ele>
        <time>2014-10-05T10:22:09Z</time>
      </trkpt>
      <trkpt lat="43.35815" lon="-1.83571">
        <ele>385.145386</ele>
        <time>2014-10-05T10:22:26Z</time>
      </trkpt>
      <trkpt lat="43.35815" lon="-1.83552">
        <ele>384.664795</ele>
        <time>2014-10-05T10:22:40Z</time>
      </trkpt>
      <trkpt lat="43.35816" lon="-1.83544">
        <ele>385.625977</ele>
        <time>2014-10-05T10:22:47Z</time>
      </trkpt>
      <trkpt lat="43.35815" lon="-1.83543">
        <ele>386.106689</ele>
        <time>2014-10-05T10:22:59Z</time>
      </trkpt>
      <trkpt lat="43.35815" lon="-1.83542">
        <ele>385.145386</ele>
        <time>2014-10-05T10:23:11Z</time>
      </trkpt>
      <trkpt lat="43.35815" lon="-1.83541">
        <ele>384.664795</ele>
        <time>2014-10-05T10:25:45Z</time>
      </trkpt>
      <trkpt lat="43.35815" lon="-1.83539">
        <ele>384.184082</ele>
        <time>2014-10-05T10:30:45Z</time>
      </trkpt>
      <trkpt lat="43.35814" lon="-1.83539">
        <ele>384.664795</ele>
        <time>2014-10-05T10:32:50Z</time>
      </trkpt>
      <trkpt lat="43.35815" lon="-1.83541">
        <ele>383.703247</ele>
        <time>2014-10-05T10:39:03Z</time>
      </trkpt>
      <trkpt lat="43.35815" lon="-1.83542">
        <ele>384.664795</ele>
        <time>2014-10-05T10:41:31Z</time>
      </trkpt>
      <trkpt lat="43.35813" lon="-1.83541">
        <ele>384.184082</ele>
        <time>2014-10-05T10:42:35Z</time>
      </trkpt>
      <trkpt lat="43.35814" lon="-1.83541">
        <ele>386.587402</ele>
        <time>2014-10-05T10:48:51Z</time>
      </trkpt>
      <trkpt lat="43.35816" lon="-1.83542">
        <ele>388.990601</ele>
        <time>2014-10-05T10:49:11Z</time>
      </trkpt>
      <trkpt lat="43.35819" lon="-1.83547">
        <ele>386.106689</ele>
        <time>2014-10-05T10:49:21Z</time>
      </trkpt>
      <trkpt lat="43.3582" lon="-1.83547">
        <ele>386.587402</ele>
        <time>2014-10-05T10:49:22Z</time>
      </trkpt>
      <trkpt lat="43.35836" lon="-1.8355">
        <ele>383.222656</ele>
        <time>2014-10-05T10:49:38Z</time>
      </trkpt>
      <trkpt lat="43.35837" lon="-1.8355">
        <ele>383.703247</ele>
        <time>2014-10-05T10:49:39Z</time>
      </trkpt>
      <trkpt lat="43.3585" lon="-1.83534">
        <ele>382.261353</ele>
        <time>2014-10-05T10:49:55Z</time>
      </trkpt>
      <trkpt lat="43.35869" lon="-1.83506">
        <ele>379.858032</ele>
        <time>2014-10-05T10:50:17Z</time>
      </trkpt>
      <trkpt lat="43.35873" lon="-1.83493">
        <ele>382.261353</ele>
        <time>2014-10-05T10:50:26Z</time>
      </trkpt>
      <trkpt lat="43.35872" lon="-1.83485">
        <ele>382.261353</ele>
        <time>2014-10-05T10:50:32Z</time>
      </trkpt>
      <trkpt lat="43.35875" lon="-1.83478">
        <ele>380.819458</ele>
        <time>2014-10-05T10:50:37Z</time>
      </trkpt>
      <trkpt lat="43.35875" lon="-1.83477">
        <ele>380.338745</ele>
        <time>2014-10-05T10:50:38Z</time>
      </trkpt>
      <trkpt lat="43.35891" lon="-1.83453">
        <ele>380.338745</ele>
        <time>2014-10-05T10:50:57Z</time>
      </trkpt>
      <trkpt lat="43.35905" lon="-1.83436">
        <ele>380.338745</ele>
        <time>2014-10-05T10:51:13Z</time>
      </trkpt>
      <trkpt lat="43.35907" lon="-1.83422">
        <ele>379.858032</ele>
        <time>2014-10-05T10:51:25Z</time>
      </trkpt>
      <trkpt lat="43.35909" lon="-1.83419">
        <ele>378.416138</ele>
        <time>2014-10-05T10:51:28Z</time>
      </trkpt>
      <trkpt lat="43.35912" lon="-1.83416">
        <ele>376.974243</ele>
        <time>2014-10-05T10:51:33Z</time>
      </trkpt>
      <trkpt lat="43.35919" lon="-1.83402">
        <ele>375.051514</ele>
        <time>2014-10-05T10:51:48Z</time>
      </trkpt>
      <trkpt lat="43.35926" lon="-1.83388">
        <ele>372.16748</ele>
        <time>2014-10-05T10:52:00Z</time>
      </trkpt>
      <trkpt lat="43.3593" lon="-1.83382">
        <ele>371.206299</ele>
        <time>2014-10-05T10:52:05Z</time>
      </trkpt>
      <trkpt lat="43.35946" lon="-1.83355">
        <ele>370.244873</ele>
        <time>2014-10-05T10:52:26Z</time>
      </trkpt>
      <trkpt lat="43.35963" lon="-1.83328">
        <ele>369.764282</ele>
        <time>2014-10-05T10:52:47Z</time>
      </trkpt>
      <trkpt lat="43.35965" lon="-1.83326">
        <ele>369.764282</ele>
        <time>2014-10-05T10:52:49Z</time>
      </trkpt>
      <trkpt lat="43.35965" lon="-1.83322">
        <ele>369.764282</ele>
        <time>2014-10-05T10:52:52Z</time>
      </trkpt>
      <trkpt lat="43.3598" lon="-1.833">
        <ele>371.68689</ele>
        <time>2014-10-05T10:53:12Z</time>
      </trkpt>
      <trkpt lat="43.35992" lon="-1.83279">
        <ele>373.609497</ele>
        <time>2014-10-05T10:53:29Z</time>
      </trkpt>
      <trkpt lat="43.36005" lon="-1.83245">
        <ele>375.532104</ele>
        <time>2014-10-05T10:53:52Z</time>
      </trkpt>
      <trkpt lat="43.36017" lon="-1.83218">
        <ele>376.49353</ele>
        <time>2014-10-05T10:54:11Z</time>
      </trkpt>
      <trkpt lat="43.36034" lon="-1.8319">
        <ele>377.935425</ele>
        <time>2014-10-05T10:54:32Z</time>
      </trkpt>
      <trkpt lat="43.36055" lon="-1.83165">
        <ele>379.377441</ele>
        <time>2014-10-05T10:54:54Z</time>
      </trkpt>
      <trkpt lat="43.36072" lon="-1.83147">
        <ele>380.338745</ele>
        <time>2014-10-05T10:55:12Z</time>
      </trkpt>
      <trkpt lat="43.36088" lon="-1.83132">
        <ele>380.819458</ele>
        <time>2014-10-05T10:55:28Z</time>
      </trkpt>
      <trkpt lat="43.36103" lon="-1.83114">
        <ele>381.78064</ele>
        <time>2014-10-05T10:55:45Z</time>
      </trkpt>
      <trkpt lat="43.3612" lon="-1.83094">
        <ele>383.222656</ele>
        <time>2014-10-05T10:56:04Z</time>
      </trkpt>
      <trkpt lat="43.36128" lon="-1.83083">
        <ele>383.703247</ele>
        <time>2014-10-05T10:56:20Z</time>
      </trkpt>
      <trkpt lat="43.36138" lon="-1.83055">
        <ele>383.703247</ele>
        <time>2014-10-05T10:56:39Z</time>
      </trkpt>
      <trkpt lat="43.36148" lon="-1.83029">
        <ele>382.261353</ele>
        <time>2014-10-05T10:56:59Z</time>
      </trkpt>
      <trkpt lat="43.36148" lon="-1.8301">
        <ele>383.222656</ele>
        <time>2014-10-05T10:57:14Z</time>
      </trkpt>
      <trkpt lat="43.36146" lon="-1.83007">
        <ele>385.145386</ele>
        <time>2014-10-05T10:57:18Z</time>
      </trkpt>
      <trkpt lat="43.36142" lon="-1.83005">
        <ele>384.664795</ele>
        <time>2014-10-05T10:57:37Z</time>
      </trkpt>
      <trkpt lat="43.36149" lon="-1.83006">
        <ele>384.184082</ele>
        <time>2014-10-05T10:58:04Z</time>
      </trkpt>
      <trkpt lat="43.36149" lon="-1.83009">
        <ele>384.184082</ele>
        <time>2014-10-05T10:58:29Z</time>
      </trkpt>
      <trkpt lat="43.36148" lon="-1.83014">
        <ele>383.222656</ele>
        <time>2014-10-05T10:58:33Z</time>
      </trkpt>
      <trkpt lat="43.36151" lon="-1.83021">
        <ele>382.261353</ele>
        <time>2014-10-05T10:58:46Z</time>
      </trkpt>
      <trkpt lat="43.36162" lon="-1.83">
        <ele>379.377441</ele>
        <time>2014-10-05T10:59:04Z</time>
      </trkpt>
      <trkpt lat="43.36167" lon="-1.82979">
        <ele>375.532104</ele>
        <time>2014-10-05T10:59:20Z</time>
      </trkpt>
      <trkpt lat="43.36167" lon="-1.82975">
        <ele>375.051514</ele>
        <time>2014-10-05T10:59:24Z</time>
      </trkpt>
      <trkpt lat="43.36175" lon="-1.82961">
        <ele>372.648193</ele>
        <time>2014-10-05T10:59:36Z</time>
      </trkpt>
      <trkpt lat="43.36178" lon="-1.82948">
        <ele>369.764282</ele>
        <time>2014-10-05T10:59:49Z</time>
      </trkpt>
      <trkpt lat="43.36181" lon="-1.82944">
        <ele>368.322266</ele>
        <time>2014-10-05T10:59:54Z</time>
      </trkpt>
      <trkpt lat="43.36192" lon="-1.82932">
        <ele>364.957642</ele>
        <time>2014-10-05T11:00:06Z</time>
      </trkpt>
      <trkpt lat="43.36193" lon="-1.82931">
        <ele>364.957642</ele>
        <time>2014-10-05T11:00:07Z</time>
      </trkpt>
      <trkpt lat="43.36199" lon="-1.82923">
        <ele>361.59314</ele>
        <time>2014-10-05T11:00:15Z</time>
      </trkpt>
      <trkpt lat="43.36201" lon="-1.82921">
        <ele>361.112427</ele>
        <time>2014-10-05T11:00:18Z</time>
      </trkpt>
      <trkpt lat="43.36208" lon="-1.82904">
        <ele>359.67041</ele>
        <time>2014-10-05T11:00:37Z</time>
      </trkpt>
      <trkpt lat="43.36208" lon="-1.82898">
        <ele>359.67041</ele>
        <time>2014-10-05T11:00:50Z</time>
      </trkpt>
      <trkpt lat="43.36209" lon="-1.82896">
        <ele>359.67041</ele>
        <time>2014-10-05T11:01:02Z</time>
      </trkpt>
      <trkpt lat="43.3622" lon="-1.82894">
        <ele>355.825195</ele>
        <time>2014-10-05T11:01:12Z</time>
      </trkpt>
      <trkpt lat="43.36221" lon="-1.82893">
        <ele>355.344482</ele>
        <time>2014-10-05T11:01:13Z</time>
      </trkpt>
      <trkpt lat="43.36235" lon="-1.82884">
        <ele>351.979858</ele>
        <time>2014-10-05T11:01:26Z</time>
      </trkpt>
      <trkpt lat="43.36259" lon="-1.82869">
        <ele>349.095825</ele>
        <time>2014-10-05T11:01:47Z</time>
      </trkpt>
      <trkpt lat="43.36268" lon="-1.82863">
        <ele>346.692627</ele>
        <time>2014-10-05T11:01:57Z</time>
      </trkpt>
      <trkpt lat="43.36278" lon="-1.82854">
        <ele>343.327881</ele>
        <time>2014-10-05T11:02:09Z</time>
      </trkpt>
      <trkpt lat="43.3628" lon="-1.82852">
        <ele>342.84729</ele>
        <time>2014-10-05T11:02:12Z</time>
      </trkpt>
      <trkpt lat="43.36282" lon="-1.82851">
        <ele>341.885986</ele>
        <time>2014-10-05T11:02:14Z</time>
      </trkpt>
      <trkpt lat="43.36292" lon="-1.82846">
        <ele>339.002075</ele>
        <time>2014-10-05T11:02:26Z</time>
      </trkpt>
      <trkpt lat="43.36293" lon="-1.82846">
        <ele>338.040771</ele>
        <time>2014-10-05T11:02:27Z</time>
      </trkpt>
      <trkpt lat="43.36298" lon="-1.82844">
        <ele>337.079468</ele>
        <time>2014-10-05T11:02:32Z</time>
      </trkpt>
      <trkpt lat="43.36305" lon="-1.82839">
        <ele>335.156738</ele>
        <time>2014-10-05T11:02:40Z</time>
      </trkpt>
      <trkpt lat="43.36319" lon="-1.82829">
        <ele>331.792114</ele>
        <time>2014-10-05T11:02:56Z</time>
      </trkpt>
      <trkpt lat="43.36329" lon="-1.82821">
        <ele>328.908325</ele>
        <time>2014-10-05T11:03:08Z</time>
      </trkpt>
      <trkpt lat="43.36342" lon="-1.82802">
        <ele>327.466187</ele>
        <time>2014-10-05T11:03:26Z</time>
      </trkpt>
      <trkpt lat="43.3636" lon="-1.82779">
        <ele>323.620972</ele>
        <time>2014-10-05T11:03:48Z</time>
      </trkpt>
      <trkpt lat="43.36378" lon="-1.82764">
        <ele>323.140381</ele>
        <time>2014-10-05T11:04:07Z</time>
      </trkpt>
      <trkpt lat="43.36389" lon="-1.82761">
        <ele>319.775635</ele>
        <time>2014-10-05T11:04:21Z</time>
      </trkpt>
      <trkpt lat="43.36399" lon="-1.82754">
        <ele>318.333618</ele>
        <time>2014-10-05T11:04:38Z</time>
      </trkpt>
      <trkpt lat="43.36399" lon="-1.82753">
        <ele>318.333618</ele>
        <time>2014-10-05T11:04:42Z</time>
      </trkpt>
      <trkpt lat="43.364" lon="-1.82747">
        <ele>316.411011</ele>
        <time>2014-10-05T11:04:47Z</time>
      </trkpt>
      <trkpt lat="43.36415" lon="-1.82722">
        <ele>314.488403</ele>
        <time>2014-10-05T11:05:07Z</time>
      </trkpt>
      <trkpt lat="43.36424" lon="-1.82698">
        <ele>314.969116</ele>
        <time>2014-10-05T11:05:24Z</time>
      </trkpt>
      <trkpt lat="43.36429" lon="-1.82695">
        <ele>312.565796</ele>
        <time>2014-10-05T11:05:34Z</time>
      </trkpt>
      <trkpt lat="43.36433" lon="-1.82689">
        <ele>312.565796</ele>
        <time>2014-10-05T11:05:47Z</time>
      </trkpt>
      <trkpt lat="43.3644" lon="-1.82682">
        <ele>310.643066</ele>
        <time>2014-10-05T11:06:03Z</time>
      </trkpt>
      <trkpt lat="43.36441" lon="-1.82679">
        <ele>309.201172</ele>
        <time>2014-10-05T11:06:06Z</time>
      </trkpt>
      <trkpt lat="43.36442" lon="-1.82668">
        <ele>307.759277</ele>
        <time>2014-10-05T11:06:17Z</time>
      </trkpt>
      <trkpt lat="43.36443" lon="-1.82661">
        <ele>304.875244</ele>
        <time>2014-10-05T11:06:30Z</time>
      </trkpt>
      <trkpt lat="43.36441" lon="-1.82653">
        <ele>301.51062</ele>
        <time>2014-10-05T11:06:43Z</time>
      </trkpt>
      <trkpt lat="43.36443" lon="-1.82639">
        <ele>297.665405</ele>
        <time>2014-10-05T11:07:02Z</time>
      </trkpt>
      <trkpt lat="43.36443" lon="-1.82639">
        <ele>297.184692</ele>
        <time>2014-10-05T11:07:04Z</time>
      </trkpt>
      <trkpt lat="43.3645" lon="-1.82633">
        <ele>294.300781</ele>
        <time>2014-10-05T11:07:18Z</time>
      </trkpt>
      <trkpt lat="43.36455" lon="-1.82626">
        <ele>291.416748</ele>
        <time>2014-10-05T11:07:32Z</time>
      </trkpt>
      <trkpt lat="43.36461" lon="-1.82621">
        <ele>288.532959</ele>
        <time>2014-10-05T11:07:43Z</time>
      </trkpt>
      <trkpt lat="43.36465" lon="-1.82613">
        <ele>284.687622</ele>
        <time>2014-10-05T11:07:57Z</time>
      </trkpt>
      <trkpt lat="43.36464" lon="-1.82603">
        <ele>281.322998</ele>
        <time>2014-10-05T11:08:09Z</time>
      </trkpt>
      <trkpt lat="43.36466" lon="-1.82596">
        <ele>278.438965</ele>
        <time>2014-10-05T11:08:21Z</time>
      </trkpt>
      <trkpt lat="43.36472" lon="-1.82591">
        <ele>275.555054</ele>
        <time>2014-10-05T11:08:39Z</time>
      </trkpt>
      <trkpt lat="43.36476" lon="-1.82588">
        <ele>272.671143</ele>
        <time>2014-10-05T11:08:54Z</time>
      </trkpt>
      <trkpt lat="43.36479" lon="-1.82583">
        <ele>271.229126</ele>
        <time>2014-10-05T11:09:10Z</time>
      </trkpt>
      <trkpt lat="43.36478" lon="-1.82581">
        <ele>267.864502</ele>
        <time>2014-10-05T11:09:17Z</time>
      </trkpt>
      <trkpt lat="43.36481" lon="-1.82571">
        <ele>266.903198</ele>
        <time>2014-10-05T11:09:30Z</time>
      </trkpt>
      <trkpt lat="43.36481" lon="-1.82566">
        <ele>264.019287</ele>
        <time>2014-10-05T11:09:40Z</time>
      </trkpt>
      <trkpt lat="43.36485" lon="-1.82564">
        <ele>260.654541</ele>
        <time>2014-10-05T11:09:53Z</time>
      </trkpt>
      <trkpt lat="43.36492" lon="-1.82561">
        <ele>258.251343</ele>
        <time>2014-10-05T11:10:07Z</time>
      </trkpt>
      <trkpt lat="43.36492" lon="-1.8256">
        <ele>257.770752</ele>
        <time>2014-10-05T11:10:09Z</time>
      </trkpt>
      <trkpt lat="43.36493" lon="-1.82552">
        <ele>254.406006</ele>
        <time>2014-10-05T11:10:20Z</time>
      </trkpt>
      <trkpt lat="43.36492" lon="-1.82551">
        <ele>253.925415</ele>
        <time>2014-10-05T11:10:22Z</time>
      </trkpt>
      <trkpt lat="43.36498" lon="-1.82544">
        <ele>252.483398</ele>
        <time>2014-10-05T11:10:35Z</time>
      </trkpt>
      <trkpt lat="43.36504" lon="-1.82538">
        <ele>249.118774</ele>
        <time>2014-10-05T11:10:48Z</time>
      </trkpt>
      <trkpt lat="43.36509" lon="-1.82529">
        <ele>245.75415</ele>
        <time>2014-10-05T11:10:58Z</time>
      </trkpt>
      <trkpt lat="43.36514" lon="-1.82518">
        <ele>242.389648</ele>
        <time>2014-10-05T11:11:10Z</time>
      </trkpt>
      <trkpt lat="43.36518" lon="-1.82509">
        <ele>240.947632</ele>
        <time>2014-10-05T11:11:22Z</time>
      </trkpt>
      <trkpt lat="43.36521" lon="-1.82502">
        <ele>238.063599</ele>
        <time>2014-10-05T11:11:31Z</time>
      </trkpt>
      <trkpt lat="43.36528" lon="-1.82492">
        <ele>234.699097</ele>
        <time>2014-10-05T11:11:45Z</time>
      </trkpt>
      <trkpt lat="43.36531" lon="-1.82486">
        <ele>232.776489</ele>
        <time>2014-10-05T11:11:51Z</time>
      </trkpt>
      <trkpt lat="43.36543" lon="-1.82473">
        <ele>230.373047</ele>
        <time>2014-10-05T11:12:09Z</time>
      </trkpt>
      <trkpt lat="43.3655" lon="-1.82467">
        <ele>227.489136</ele>
        <time>2014-10-05T11:12:18Z</time>
      </trkpt>
      <trkpt lat="43.36554" lon="-1.82467">
        <ele>225.566528</ele>
        <time>2014-10-05T11:12:34Z</time>
      </trkpt>
      <trkpt lat="43.36555" lon="-1.82457">
        <ele>223.163208</ele>
        <time>2014-10-05T11:12:48Z</time>
      </trkpt>
      <trkpt lat="43.36556" lon="-1.82455">
        <ele>223.163208</ele>
        <time>2014-10-05T11:13:00Z</time>
      </trkpt>
      <trkpt lat="43.36556" lon="-1.82459">
        <ele>222.682495</ele>
        <time>2014-10-05T11:13:11Z</time>
      </trkpt>
      <trkpt lat="43.36557" lon="-1.82459">
        <ele>223.163208</ele>
        <time>2014-10-05T11:13:15Z</time>
      </trkpt>
      <trkpt lat="43.36556" lon="-1.82461">
        <ele>222.201782</ele>
        <time>2014-10-05T11:13:36Z</time>
      </trkpt>
      <trkpt lat="43.36557" lon="-1.82458">
        <ele>222.682495</ele>
        <time>2014-10-05T11:15:18Z</time>
      </trkpt>
      <trkpt lat="43.36558" lon="-1.82456">
        <ele>222.682495</ele>
        <time>2014-10-05T11:15:20Z</time>
      </trkpt>
      <trkpt lat="43.36567" lon="-1.82452">
        <ele>220.759888</ele>
        <time>2014-10-05T11:15:32Z</time>
      </trkpt>
      <trkpt lat="43.36569" lon="-1.82446">
        <ele>219.317993</ele>
        <time>2014-10-05T11:15:43Z</time>
      </trkpt>
      <trkpt lat="43.36574" lon="-1.82443">
        <ele>216.914673</ele>
        <time>2014-10-05T11:15:55Z</time>
      </trkpt>
      <trkpt lat="43.3658" lon="-1.82439">
        <ele>214.991943</ele>
        <time>2014-10-05T11:16:07Z</time>
      </trkpt>
      <trkpt lat="43.36583" lon="-1.82433">
        <ele>214.51123</ele>
        <time>2014-10-05T11:16:19Z</time>
      </trkpt>
      <trkpt lat="43.36585" lon="-1.82425">
        <ele>213.550049</ele>
        <time>2014-10-05T11:16:25Z</time>
      </trkpt>
      <trkpt lat="43.36586" lon="-1.82415">
        <ele>213.550049</ele>
        <time>2014-10-05T11:16:32Z</time>
      </trkpt>
      <trkpt lat="43.366" lon="-1.82383">
        <ele>212.588623</ele>
        <time>2014-10-05T11:16:54Z</time>
      </trkpt>
      <trkpt lat="43.36614" lon="-1.82352">
        <ele>211.627441</ele>
        <time>2014-10-05T11:17:15Z</time>
      </trkpt>
      <trkpt lat="43.36628" lon="-1.82318">
        <ele>211.627441</ele>
        <time>2014-10-05T11:17:36Z</time>
      </trkpt>
      <trkpt lat="43.36636" lon="-1.82285">
        <ele>210.185425</ele>
        <time>2014-10-05T11:17:56Z</time>
      </trkpt>
      <trkpt lat="43.36637" lon="-1.82278">
        <ele>209.704834</ele>
        <time>2014-10-05T11:18:01Z</time>
      </trkpt>
      <trkpt lat="43.36645" lon="-1.82238">
        <ele>206.820679</ele>
        <time>2014-10-05T11:18:25Z</time>
      </trkpt>
      <trkpt lat="43.36656" lon="-1.82204">
        <ele>204.41748</ele>
        <time>2014-10-05T11:18:44Z</time>
      </trkpt>
      <trkpt lat="43.36668" lon="-1.82177">
        <ele>202.014282</ele>
        <time>2014-10-05T11:19:03Z</time>
      </trkpt>
      <trkpt lat="43.36672" lon="-1.82159">
        <ele>199.61084</ele>
        <time>2014-10-05T11:19:16Z</time>
      </trkpt>
      <trkpt lat="43.36679" lon="-1.82141">
        <ele>198.168945</ele>
        <time>2014-10-05T11:19:35Z</time>
      </trkpt>
      <trkpt lat="43.36679" lon="-1.8213">
        <ele>196.246338</ele>
        <time>2014-10-05T11:19:53Z</time>
      </trkpt>
      <trkpt lat="43.36681" lon="-1.82104">
        <ele>195.284912</ele>
        <time>2014-10-05T11:20:09Z</time>
      </trkpt>
      <trkpt lat="43.36691" lon="-1.82072">
        <ele>194.804321</ele>
        <time>2014-10-05T11:20:30Z</time>
      </trkpt>
      <trkpt lat="43.36687" lon="-1.82069">
        <ele>195.284912</ele>
        <time>2014-10-05T11:20:45Z</time>
      </trkpt>
      <trkpt lat="43.36683" lon="-1.82096">
        <ele>195.284912</ele>
        <time>2014-10-05T11:21:00Z</time>
      </trkpt>
      <trkpt lat="43.36682" lon="-1.82105">
        <ele>195.765625</ele>
        <time>2014-10-05T11:21:04Z</time>
      </trkpt>
      <trkpt lat="43.36682" lon="-1.82113">
        <ele>195.765625</ele>
        <time>2014-10-05T11:21:08Z</time>
      </trkpt>
      <trkpt lat="43.36688" lon="-1.82142">
        <ele>198.649536</ele>
        <time>2014-10-05T11:21:26Z</time>
      </trkpt>
      <trkpt lat="43.36703" lon="-1.82157">
        <ele>199.61084</ele>
        <time>2014-10-05T11:21:42Z</time>
      </trkpt>
      <trkpt lat="43.36723" lon="-1.82156">
        <ele>199.61084</ele>
        <time>2014-10-05T11:21:59Z</time>
      </trkpt>
      <trkpt lat="43.36742" lon="-1.82142">
        <ele>201.052856</ele>
        <time>2014-10-05T11:22:16Z</time>
      </trkpt>
      <trkpt lat="43.3676" lon="-1.82123">
        <ele>202.975464</ele>
        <time>2014-10-05T11:22:36Z</time>
      </trkpt>
      <trkpt lat="43.36778" lon="-1.82107">
        <ele>203.456177</ele>
        <time>2014-10-05T11:22:53Z</time>
      </trkpt>
      <trkpt lat="43.36791" lon="-1.82092">
        <ele>203.456177</ele>
        <time>2014-10-05T11:23:07Z</time>
      </trkpt>
      <trkpt lat="43.36807" lon="-1.82075">
        <ele>204.898071</ele>
        <time>2014-10-05T11:23:22Z</time>
      </trkpt>
      <trkpt lat="43.36827" lon="-1.82053">
        <ele>205.378784</ele>
        <time>2014-10-05T11:23:40Z</time>
      </trkpt>
      <trkpt lat="43.36851" lon="-1.82027">
        <ele>205.378784</ele>
        <time>2014-10-05T11:24:01Z</time>
      </trkpt>
      <trkpt lat="43.36868" lon="-1.8201">
        <ele>205.859497</ele>
        <time>2014-10-05T11:24:17Z</time>
      </trkpt>
      <trkpt lat="43.36873" lon="-1.82003">
        <ele>205.378784</ele>
        <time>2014-10-05T11:24:30Z</time>
      </trkpt>
      <trkpt lat="43.36875" lon="-1.82002">
        <ele>204.898071</ele>
        <time>2014-10-05T11:24:32Z</time>
      </trkpt>
      <trkpt lat="43.36891" lon="-1.81995">
        <ele>205.859497</ele>
        <time>2014-10-05T11:24:47Z</time>
      </trkpt>
      <trkpt lat="43.36892" lon="-1.81995">
        <ele>205.859497</ele>
        <time>2014-10-05T11:24:55Z</time>
      </trkpt>
      <trkpt lat="43.36899" lon="-1.81994">
        <ele>202.494873</ele>
        <time>2014-10-05T11:25:01Z</time>
      </trkpt>
      <trkpt lat="43.36907" lon="-1.81992">
        <ele>207.782104</ele>
        <time>2014-10-05T11:25:07Z</time>
      </trkpt>
      <trkpt lat="43.36911" lon="-1.81992">
        <ele>205.378784</ele>
        <time>2014-10-05T11:25:10Z</time>
      </trkpt>
      <trkpt lat="43.36944" lon="-1.81986">
        <ele>204.898071</ele>
        <time>2014-10-05T11:25:34Z</time>
      </trkpt>
      <trkpt lat="43.36974" lon="-1.81983">
        <ele>204.898071</ele>
        <time>2014-10-05T11:25:56Z</time>
      </trkpt>
      <trkpt lat="43.37009" lon="-1.81985">
        <ele>204.41748</ele>
        <time>2014-10-05T11:26:21Z</time>
      </trkpt>
      <trkpt lat="43.37036" lon="-1.81972">
        <ele>203.456177</ele>
        <time>2014-10-05T11:26:43Z</time>
      </trkpt>
      <trkpt lat="43.37056" lon="-1.81957">
        <ele>200.572266</ele>
        <time>2014-10-05T11:27:02Z</time>
      </trkpt>
      <trkpt lat="43.37064" lon="-1.81954">
        <ele>199.130127</ele>
        <time>2014-10-05T11:27:09Z</time>
      </trkpt>
      <trkpt lat="43.37082" lon="-1.8195">
        <ele>195.765625</ele>
        <time>2014-10-05T11:27:24Z</time>
      </trkpt>
      <trkpt lat="43.37112" lon="-1.81943">
        <ele>193.843018</ele>
        <time>2014-10-05T11:27:47Z</time>
      </trkpt>
      <trkpt lat="43.37132" lon="-1.81932">
        <ele>190.478394</ele>
        <time>2014-10-05T11:28:04Z</time>
      </trkpt>
      <trkpt lat="43.37153" lon="-1.81918">
        <ele>189.036377</ele>
        <time>2014-10-05T11:28:21Z</time>
      </trkpt>
      <trkpt lat="43.37178" lon="-1.81906">
        <ele>187.11377</ele>
        <time>2014-10-05T11:28:40Z</time>
      </trkpt>
      <trkpt lat="43.37203" lon="-1.81897">
        <ele>186.152466</ele>
        <time>2014-10-05T11:28:57Z</time>
      </trkpt>
      <trkpt lat="43.37216" lon="-1.81873">
        <ele>183.749023</ele>
        <time>2014-10-05T11:29:14Z</time>
      </trkpt>
      <trkpt lat="43.37212" lon="-1.81854">
        <ele>180.384521</ele>
        <time>2014-10-05T11:29:26Z</time>
      </trkpt>
      <trkpt lat="43.37207" lon="-1.81824">
        <ele>177.981201</ele>
        <time>2014-10-05T11:29:44Z</time>
      </trkpt>
      <trkpt lat="43.37227" lon="-1.81804">
        <ele>177.02002</ele>
        <time>2014-10-05T11:30:02Z</time>
      </trkpt>
      <trkpt lat="43.37253" lon="-1.81791">
        <ele>176.539307</ele>
        <time>2014-10-05T11:30:22Z</time>
      </trkpt>
      <trkpt lat="43.37277" lon="-1.81786">
        <ele>175.577881</ele>
        <time>2014-10-05T11:30:38Z</time>
      </trkpt>
      <trkpt lat="43.37299" lon="-1.81784">
        <ele>175.577881</ele>
        <time>2014-10-05T11:30:53Z</time>
      </trkpt>
      <trkpt lat="43.37321" lon="-1.81777">
        <ele>175.09729</ele>
        <time>2014-10-05T11:31:10Z</time>
      </trkpt>
      <trkpt lat="43.37332" lon="-1.81772">
        <ele>174.616577</ele>
        <time>2014-10-05T11:31:27Z</time>
      </trkpt>
      <trkpt lat="43.3733" lon="-1.81775">
        <ele>174.135864</ele>
        <time>2014-10-05T11:31:31Z</time>
      </trkpt>
      <trkpt lat="43.3733" lon="-1.81781">
        <ele>174.135864</ele>
        <time>2014-10-05T11:31:35Z</time>
      </trkpt>
      <trkpt lat="43.37338" lon="-1.81796">
        <ele>172.213257</ele>
        <time>2014-10-05T11:31:48Z</time>
      </trkpt>
      <trkpt lat="43.37342" lon="-1.81803">
        <ele>172.213257</ele>
        <time>2014-10-05T11:31:55Z</time>
      </trkpt>
      <trkpt lat="43.37349" lon="-1.81808">
        <ele>170.771362</ele>
        <time>2014-10-05T11:32:09Z</time>
      </trkpt>
      <trkpt lat="43.37368" lon="-1.81813">
        <ele>168.848755</ele>
        <time>2014-10-05T11:32:24Z</time>
      </trkpt>
      <trkpt lat="43.37391" lon="-1.81812">
        <ele>165.964722</ele>
        <time>2014-10-05T11:32:40Z</time>
      </trkpt>
      <trkpt lat="43.3741" lon="-1.81813">
        <ele>162.600098</ele>
        <time>2014-10-05T11:32:54Z</time>
      </trkpt>
      <trkpt lat="43.37432" lon="-1.81815">
        <ele>159.235474</ele>
        <time>2014-10-05T11:33:11Z</time>
      </trkpt>
      <trkpt lat="43.37452" lon="-1.81817">
        <ele>157.312866</ele>
        <time>2014-10-05T11:33:25Z</time>
      </trkpt>
      <trkpt lat="43.37477" lon="-1.81828">
        <ele>154.909546</ele>
        <time>2014-10-05T11:33:46Z</time>
      </trkpt>
      <trkpt lat="43.3749" lon="-1.81834">
        <ele>151.544922</ele>
        <time>2014-10-05T11:33:57Z</time>
      </trkpt>
      <trkpt lat="43.37518" lon="-1.81844">
        <ele>149.622314</ele>
        <time>2014-10-05T11:34:19Z</time>
      </trkpt>
      <trkpt lat="43.37552" lon="-1.81856">
        <ele>148.661011</ele>
        <time>2014-10-05T11:34:44Z</time>
      </trkpt>
      <trkpt lat="43.37588" lon="-1.81864">
        <ele>145.7771</ele>
        <time>2014-10-05T11:35:11Z</time>
      </trkpt>
      <trkpt lat="43.37612" lon="-1.81861">
        <ele>145.7771</ele>
        <time>2014-10-05T11:35:29Z</time>
      </trkpt>
      <trkpt lat="43.37637" lon="-1.81859">
        <ele>144.335205</ele>
        <time>2014-10-05T11:35:48Z</time>
      </trkpt>
      <trkpt lat="43.37661" lon="-1.81857">
        <ele>142.893066</ele>
        <time>2014-10-05T11:36:07Z</time>
      </trkpt>
      <trkpt lat="43.37687" lon="-1.81854">
        <ele>142.412476</ele>
        <time>2014-10-05T11:36:27Z</time>
      </trkpt>
      <trkpt lat="43.3772" lon="-1.81849">
        <ele>141.45105</ele>
        <time>2014-10-05T11:36:51Z</time>
      </trkpt>
      <trkpt lat="43.37751" lon="-1.81839">
        <ele>140.489868</ele>
        <time>2014-10-05T11:37:14Z</time>
      </trkpt>
      <trkpt lat="43.37778" lon="-1.81828">
        <ele>139.528442</ele>
        <time>2014-10-05T11:37:34Z</time>
      </trkpt>
      <trkpt lat="43.3781" lon="-1.81811">
        <ele>137.605835</ele>
        <time>2014-10-05T11:37:58Z</time>
      </trkpt>
      <trkpt lat="43.37837" lon="-1.81792">
        <ele>135.202515</ele>
        <time>2014-10-05T11:38:21Z</time>
      </trkpt>
      <trkpt lat="43.3786" lon="-1.81775">
        <ele>132.318604</ele>
        <time>2014-10-05T11:38:41Z</time>
      </trkpt>
      <trkpt lat="43.37876" lon="-1.8176">
        <ele>131.3573</ele>
        <time>2014-10-05T11:38:55Z</time>
      </trkpt>
      <trkpt lat="43.37905" lon="-1.81748">
        <ele>132.318604</ele>
        <time>2014-10-05T11:39:16Z</time>
      </trkpt>
      <trkpt lat="43.37928" lon="-1.81741">
        <ele>135.202515</ele>
        <time>2014-10-05T11:39:34Z</time>
      </trkpt>
      <trkpt lat="43.37954" lon="-1.81731">
        <ele>137.125244</ele>
        <time>2014-10-05T11:39:54Z</time>
      </trkpt>
      <trkpt lat="43.37964" lon="-1.81719">
        <ele>138.086548</ele>
        <time>2014-10-05T11:40:04Z</time>
      </trkpt>
      <trkpt lat="43.37968" lon="-1.81714">
        <ele>138.567261</ele>
        <time>2014-10-05T11:40:08Z</time>
      </trkpt>
      <trkpt lat="43.3798" lon="-1.81675">
        <ele>140.489868</ele>
        <time>2014-10-05T11:40:31Z</time>
      </trkpt>
      <trkpt lat="43.37998" lon="-1.81649">
        <ele>139.528442</ele>
        <time>2014-10-05T11:40:51Z</time>
      </trkpt>
      <trkpt lat="43.38014" lon="-1.81636">
        <ele>139.047852</ele>
        <time>2014-10-05T11:41:06Z</time>
      </trkpt>
      <trkpt lat="43.3802" lon="-1.81631">
        <ele>138.567261</ele>
        <time>2014-10-05T11:41:12Z</time>
      </trkpt>
      <trkpt lat="43.38042" lon="-1.81617">
        <ele>138.086548</ele>
        <time>2014-10-05T11:41:31Z</time>
      </trkpt>
      <trkpt lat="43.38056" lon="-1.81602">
        <ele>137.125244</ele>
        <time>2014-10-05T11:41:45Z</time>
      </trkpt>
      <trkpt lat="43.3808" lon="-1.81577">
        <ele>134.721924</ele>
        <time>2014-10-05T11:42:06Z</time>
      </trkpt>
      <trkpt lat="43.38097" lon="-1.81561">
        <ele>131.837891</ele>
        <time>2014-10-05T11:42:22Z</time>
      </trkpt>
      <trkpt lat="43.38113" lon="-1.81537">
        <ele>129.915283</ele>
        <time>2014-10-05T11:42:41Z</time>
      </trkpt>
      <trkpt lat="43.38127" lon="-1.8151">
        <ele>126.069946</ele>
        <time>2014-10-05T11:42:59Z</time>
      </trkpt>
      <trkpt lat="43.38145" lon="-1.81481">
        <ele>124.147339</ele>
        <time>2014-10-05T11:43:19Z</time>
      </trkpt>
      <trkpt lat="43.38162" lon="-1.81477">
        <ele>122.705444</ele>
        <time>2014-10-05T11:43:33Z</time>
      </trkpt>
      <trkpt lat="43.3817" lon="-1.8146">
        <ele>119.34082</ele>
        <time>2014-10-05T11:43:47Z</time>
      </trkpt>
      <trkpt lat="43.38183" lon="-1.81446">
        <ele>115.976196</ele>
        <time>2014-10-05T11:44:03Z</time>
      </trkpt>
      <trkpt lat="43.38198" lon="-1.81433">
        <ele>113.092285</ele>
        <time>2014-10-05T11:44:20Z</time>
      </trkpt>
      <trkpt lat="43.3821" lon="-1.81422">
        <ele>109.727661</ele>
        <time>2014-10-05T11:44:34Z</time>
      </trkpt>
      <trkpt lat="43.38215" lon="-1.81419">
        <ele>108.285645</ele>
        <time>2014-10-05T11:44:39Z</time>
      </trkpt>
      <trkpt lat="43.38235" lon="-1.81402">
        <ele>105.401733</ele>
        <time>2014-10-05T11:44:59Z</time>
      </trkpt>
      <trkpt lat="43.38247" lon="-1.8139">
        <ele>102.037109</ele>
        <time>2014-10-05T11:45:12Z</time>
      </trkpt>
      <trkpt lat="43.38266" lon="-1.81376">
        <ele>99.633789</ele>
        <time>2014-10-05T11:45:31Z</time>
      </trkpt>
      <trkpt lat="43.38278" lon="-1.81369">
        <ele>96.749878</ele>
        <time>2014-10-05T11:45:43Z</time>
      </trkpt>
      <trkpt lat="43.3828" lon="-1.81367">
        <ele>96.749878</ele>
        <time>2014-10-05T11:45:46Z</time>
      </trkpt>
      <trkpt lat="43.38295" lon="-1.81357">
        <ele>93.385132</ele>
        <time>2014-10-05T11:46:01Z</time>
      </trkpt>
      <trkpt lat="43.38305" lon="-1.81348">
        <ele>90.02063</ele>
        <time>2014-10-05T11:46:12Z</time>
      </trkpt>
      <trkpt lat="43.38321" lon="-1.81333">
        <ele>87.617188</ele>
        <time>2014-10-05T11:46:32Z</time>
      </trkpt>
      <trkpt lat="43.38337" lon="-1.81326">
        <ele>84.252686</ele>
        <time>2014-10-05T11:46:46Z</time>
      </trkpt>
      <trkpt lat="43.38344" lon="-1.81325">
        <ele>82.330078</ele>
        <time>2014-10-05T11:46:54Z</time>
      </trkpt>
      <trkpt lat="43.38356" lon="-1.8133">
        <ele>79.446045</ele>
        <time>2014-10-05T11:47:08Z</time>
      </trkpt>
      <trkpt lat="43.38362" lon="-1.81333">
        <ele>76.081421</ele>
        <time>2014-10-05T11:47:16Z</time>
      </trkpt>
      <trkpt lat="43.38363" lon="-1.81333">
        <ele>75.60083</ele>
        <time>2014-10-05T11:47:17Z</time>
      </trkpt>
      <trkpt lat="43.38377" lon="-1.81339">
        <ele>72.716919</ele>
        <time>2014-10-05T11:47:34Z</time>
      </trkpt>
      <trkpt lat="43.38386" lon="-1.81342">
        <ele>69.352295</ele>
        <time>2014-10-05T11:47:46Z</time>
      </trkpt>
      <trkpt lat="43.38399" lon="-1.81346">
        <ele>66.468262</ele>
        <time>2014-10-05T11:48:02Z</time>
      </trkpt>
      <trkpt lat="43.38408" lon="-1.81349">
        <ele>63.103638</ele>
        <time>2014-10-05T11:48:12Z</time>
      </trkpt>
      <trkpt lat="43.38419" lon="-1.81352">
        <ele>59.258423</ele>
        <time>2014-10-05T11:48:26Z</time>
      </trkpt>
      <trkpt lat="43.38433" lon="-1.81355">
        <ele>56.374512</ele>
        <time>2014-10-05T11:48:42Z</time>
      </trkpt>
      <trkpt lat="43.38441" lon="-1.81354">
        <ele>53.490479</ele>
        <time>2014-10-05T11:48:52Z</time>
      </trkpt>
      <trkpt lat="43.38444" lon="-1.81354">
        <ele>53.009766</ele>
        <time>2014-10-05T11:48:55Z</time>
      </trkpt>
      <trkpt lat="43.3846" lon="-1.81362">
        <ele>51.567871</ele>
        <time>2014-10-05T11:49:14Z</time>
      </trkpt>
      <trkpt lat="43.38467" lon="-1.81367">
        <ele>48.203369</ele>
        <time>2014-10-05T11:49:33Z</time>
      </trkpt>
      <trkpt lat="43.38471" lon="-1.81364">
        <ele>46.76123</ele>
        <time>2014-10-05T11:49:47Z</time>
      </trkpt>
      <trkpt lat="43.38471" lon="-1.81359">
        <ele>46.76123</ele>
        <time>2014-10-05T11:49:52Z</time>
      </trkpt>
      <trkpt lat="43.38463" lon="-1.81334">
        <ele>46.28064</ele>
        <time>2014-10-05T11:50:11Z</time>
      </trkpt>
      <trkpt lat="43.38459" lon="-1.81329">
        <ele>46.28064</ele>
        <time>2014-10-05T11:50:16Z</time>
      </trkpt>
      <trkpt lat="43.38453" lon="-1.81311">
        <ele>45.319214</ele>
        <time>2014-10-05T11:50:30Z</time>
      </trkpt>
      <trkpt lat="43.38454" lon="-1.81284">
        <ele>44.838623</ele>
        <time>2014-10-05T11:50:47Z</time>
      </trkpt>
      <trkpt lat="43.38455" lon="-1.81268">
        <ele>44.358032</ele>
        <time>2014-10-05T11:50:56Z</time>
      </trkpt>
      <trkpt lat="43.38454" lon="-1.81242">
        <ele>43.877319</ele>
        <time>2014-10-05T11:51:10Z</time>
      </trkpt>
      <trkpt lat="43.38451" lon="-1.81224">
        <ele>41.954712</ele>
        <time>2014-10-05T11:51:21Z</time>
      </trkpt>
      <trkpt lat="43.38448" lon="-1.81215">
        <ele>42.435425</ele>
        <time>2014-10-05T11:51:26Z</time>
      </trkpt>
      <trkpt lat="43.38447" lon="-1.8121">
        <ele>40.993408</ele>
        <time>2014-10-05T11:51:29Z</time>
      </trkpt>
      <trkpt lat="43.38437" lon="-1.81187">
        <ele>40.032104</ele>
        <time>2014-10-05T11:51:44Z</time>
      </trkpt>
      <trkpt lat="43.38422" lon="-1.81172">
        <ele>38.109375</ele>
        <time>2014-10-05T11:52:00Z</time>
      </trkpt>
      <trkpt lat="43.38405" lon="-1.81163">
        <ele>37.148071</ele>
        <time>2014-10-05T11:52:15Z</time>
      </trkpt>
      <trkpt lat="43.38398" lon="-1.81156">
        <ele>34.744873</ele>
        <time>2014-10-05T11:52:22Z</time>
      </trkpt>
      <trkpt lat="43.38384" lon="-1.8115">
        <ele>32.822266</ele>
        <time>2014-10-05T11:52:34Z</time>
      </trkpt>
      <trkpt lat="43.38366" lon="-1.81158">
        <ele>32.822266</ele>
        <time>2014-10-05T11:52:50Z</time>
      </trkpt>
      <trkpt lat="43.38353" lon="-1.81167">
        <ele>36.186768</ele>
        <time>2014-10-05T11:53:04Z</time>
      </trkpt>
      <trkpt lat="43.38343" lon="-1.81175">
        <ele>38.109375</ele>
        <time>2014-10-05T11:53:15Z</time>
      </trkpt>
      <trkpt lat="43.3834" lon="-1.81176">
        <ele>37.148071</ele>
        <time>2014-10-05T11:53:18Z</time>
      </trkpt>
      <trkpt lat="43.38332" lon="-1.81179">
        <ele>38.109375</ele>
        <time>2014-10-05T11:53:25Z</time>
      </trkpt>
      <trkpt lat="43.38319" lon="-1.81183">
        <ele>40.512817</ele>
        <time>2014-10-05T11:53:37Z</time>
      </trkpt>
      <trkpt lat="43.38317" lon="-1.81183">
        <ele>40.993408</ele>
        <time>2014-10-05T11:53:39Z</time>
      </trkpt>
      <trkpt lat="43.38304" lon="-1.8118">
        <ele>42.916016</ele>
        <time>2014-10-05T11:53:52Z</time>
      </trkpt>
      <trkpt lat="43.38298" lon="-1.8117">
        <ele>44.838623</ele>
        <time>2014-10-05T11:54:03Z</time>
      </trkpt>
      <trkpt lat="43.38306" lon="-1.8116">
        <ele>46.28064</ele>
        <time>2014-10-05T11:54:16Z</time>
      </trkpt>
      <trkpt lat="43.38317" lon="-1.81145">
        <ele>48.203369</ele>
        <time>2014-10-05T11:54:30Z</time>
      </trkpt>
      <trkpt lat="43.38331" lon="-1.81128">
        <ele>49.164551</ele>
        <time>2014-10-05T11:54:45Z</time>
      </trkpt>
      <trkpt lat="43.38332" lon="-1.81122">
        <ele>49.645264</ele>
        <time>2014-10-05T11:54:49Z</time>
      </trkpt>
      <trkpt lat="43.38333" lon="-1.81112">
        <ele>49.645264</ele>
        <time>2014-10-05T11:54:57Z</time>
      </trkpt>
      <trkpt lat="43.38344" lon="-1.81091">
        <ele>53.490479</ele>
        <time>2014-10-05T11:55:13Z</time>
      </trkpt>
      <trkpt lat="43.38347" lon="-1.81087">
        <ele>54.932373</ele>
        <time>2014-10-05T11:55:20Z</time>
      </trkpt>
      <trkpt lat="43.38351" lon="-1.81084">
        <ele>55.893799</ele>
        <time>2014-10-05T11:55:25Z</time>
      </trkpt>
      <trkpt lat="43.38361" lon="-1.81077">
        <ele>55.893799</ele>
        <time>2014-10-05T11:55:37Z</time>
      </trkpt>
      <trkpt lat="43.38367" lon="-1.81075">
        <ele>56.855103</ele>
        <time>2014-10-05T11:55:43Z</time>
      </trkpt>
      <trkpt lat="43.3838" lon="-1.81065">
        <ele>58.77771</ele>
        <time>2014-10-05T11:55:57Z</time>
      </trkpt>
      <trkpt lat="43.38381" lon="-1.81061">
        <ele>58.77771</ele>
        <time>2014-10-05T11:56:00Z</time>
      </trkpt>
      <trkpt lat="43.38383" lon="-1.81058">
        <ele>59.739136</ele>
        <time>2014-10-05T11:56:02Z</time>
      </trkpt>
      <trkpt lat="43.38386" lon="-1.81052">
        <ele>58.77771</ele>
        <time>2014-10-05T11:56:07Z</time>
      </trkpt>
      <trkpt lat="43.38389" lon="-1.81046">
        <ele>59.739136</ele>
        <time>2014-10-05T11:56:10Z</time>
      </trkpt>
      <trkpt lat="43.38404" lon="-1.81033">
        <ele>59.739136</ele>
        <time>2014-10-05T11:56:23Z</time>
      </trkpt>
      <trkpt lat="43.38418" lon="-1.81021">
        <ele>59.258423</ele>
        <time>2014-10-05T11:56:37Z</time>
      </trkpt>
      <trkpt lat="43.38433" lon="-1.81009">
        <ele>58.77771</ele>
        <time>2014-10-05T11:56:50Z</time>
      </trkpt>
      <trkpt lat="43.38453" lon="-1.8102">
        <ele>59.258423</ele>
        <time>2014-10-05T11:57:05Z</time>
      </trkpt>
      <trkpt lat="43.38459" lon="-1.81026">
        <ele>60.700317</ele>
        <time>2014-10-05T11:57:11Z</time>
      </trkpt>
      <trkpt lat="43.38461" lon="-1.81029">
        <ele>61.18103</ele>
        <time>2014-10-05T11:57:13Z</time>
      </trkpt>
      <trkpt lat="43.38477" lon="-1.81042">
        <ele>61.18103</ele>
        <time>2014-10-05T11:57:27Z</time>
      </trkpt>
      <trkpt lat="43.38493" lon="-1.81053">
        <ele>62.622925</ele>
        <time>2014-10-05T11:57:42Z</time>
      </trkpt>
      <trkpt lat="43.38513" lon="-1.81062">
        <ele>64.065063</ele>
        <time>2014-10-05T11:57:57Z</time>
      </trkpt>
      <trkpt lat="43.3853" lon="-1.81073">
        <ele>64.545654</ele>
        <time>2014-10-05T11:58:11Z</time>
      </trkpt>
      <trkpt lat="43.38549" lon="-1.81083">
        <ele>65.50708</ele>
        <time>2014-10-05T11:58:26Z</time>
      </trkpt>
      <trkpt lat="43.3856" lon="-1.81098">
        <ele>65.50708</ele>
        <time>2014-10-05T11:58:37Z</time>
      </trkpt>
      <trkpt lat="43.38576" lon="-1.81111">
        <ele>67.429688</ele>
        <time>2014-10-05T11:58:53Z</time>
      </trkpt>
      <trkpt lat="43.38588" lon="-1.81117">
        <ele>68.871582</ele>
        <time>2014-10-05T11:59:05Z</time>
      </trkpt>
      <trkpt lat="43.38603" lon="-1.81117">
        <ele>70.313477</ele>
        <time>2014-10-05T11:59:18Z</time>
      </trkpt>
      <trkpt lat="43.38607" lon="-1.8111">
        <ele>70.313477</ele>
        <time>2014-10-05T11:59:33Z</time>
      </trkpt>
      <trkpt lat="43.38606" lon="-1.81105">
        <ele>70.313477</ele>
        <time>2014-10-05T12:00:04Z</time>
      </trkpt>
      <trkpt lat="43.38603" lon="-1.81113">
        <ele>69.832886</ele>
        <time>2014-10-05T12:00:21Z</time>
      </trkpt>
      <trkpt lat="43.38603" lon="-1.81117">
        <ele>70.313477</ele>
        <time>2014-10-05T12:00:23Z</time>
      </trkpt>
      <trkpt lat="43.38609" lon="-1.81134">
        <ele>68.871582</ele>
        <time>2014-10-05T12:00:42Z</time>
      </trkpt>
      <trkpt lat="43.38613" lon="-1.81144">
        <ele>68.871582</ele>
        <time>2014-10-05T12:00:57Z</time>
      </trkpt>
      <trkpt lat="43.38618" lon="-1.81146">
        <ele>68.390869</ele>
        <time>2014-10-05T12:01:27Z</time>
      </trkpt>
      <trkpt lat="43.38616" lon="-1.81138">
        <ele>67.429688</ele>
        <time>2014-10-05T12:01:52Z</time>
      </trkpt>
      <trkpt lat="43.38616" lon="-1.81136">
        <ele>66.948975</ele>
        <time>2014-10-05T12:02:23Z</time>
      </trkpt>
      <trkpt lat="43.38616" lon="-1.81127">
        <ele>65.987671</ele>
        <time>2014-10-05T12:02:30Z</time>
      </trkpt>
      <trkpt lat="43.38616" lon="-1.81124">
        <ele>65.987671</ele>
        <time>2014-10-05T12:02:32Z</time>
      </trkpt>
      <trkpt lat="43.38623" lon="-1.81114">
        <ele>65.50708</ele>
        <time>2014-10-05T12:02:39Z</time>
      </trkpt>
      <trkpt lat="43.38633" lon="-1.81092">
        <ele>65.50708</ele>
        <time>2014-10-05T12:02:54Z</time>
      </trkpt>
      <trkpt lat="43.38637" lon="-1.81083">
        <ele>65.987671</ele>
        <time>2014-10-05T12:03:00Z</time>
      </trkpt>
      <trkpt lat="43.38636" lon="-1.81064">
        <ele>67.910278</ele>
        <time>2014-10-05T12:03:11Z</time>
      </trkpt>
      <trkpt lat="43.38647" lon="-1.81035">
        <ele>68.390869</ele>
        <time>2014-10-05T12:03:27Z</time>
      </trkpt>
      <trkpt lat="43.38648" lon="-1.81034">
        <ele>67.910278</ele>
        <time>2014-10-05T12:03:28Z</time>
      </trkpt>
      <trkpt lat="43.38649" lon="-1.81027">
        <ele>67.910278</ele>
        <time>2014-10-05T12:03:32Z</time>
      </trkpt>
      <trkpt lat="43.3865" lon="-1.81024">
        <ele>68.390869</ele>
        <time>2014-10-05T12:03:34Z</time>
      </trkpt>
      <trkpt lat="43.38652" lon="-1.81011">
        <ele>69.352295</ele>
        <time>2014-10-05T12:03:42Z</time>
      </trkpt>
      <trkpt lat="43.38658" lon="-1.80987">
        <ele>70.313477</ele>
        <time>2014-10-05T12:03:57Z</time>
      </trkpt>
      <trkpt lat="43.38658" lon="-1.80971">
        <ele>67.910278</ele>
        <time>2014-10-05T12:04:09Z</time>
      </trkpt>
      <trkpt lat="43.38661" lon="-1.80961">
        <ele>64.545654</ele>
        <time>2014-10-05T12:04:18Z</time>
      </trkpt>
      <trkpt lat="43.38672" lon="-1.8095">
        <ele>62.142334</ele>
        <time>2014-10-05T12:04:30Z</time>
      </trkpt>
      <trkpt lat="43.38687" lon="-1.80931">
        <ele>59.258423</ele>
        <time>2014-10-05T12:04:43Z</time>
      </trkpt>
      <trkpt lat="43.38688" lon="-1.8093">
        <ele>59.258423</ele>
        <time>2014-10-05T12:04:44Z</time>
      </trkpt>
      <trkpt lat="43.387" lon="-1.80901">
        <ele>56.374512</ele>
        <time>2014-10-05T12:05:02Z</time>
      </trkpt>
      <trkpt lat="43.38694" lon="-1.80863">
        <ele>58.77771</ele>
        <time>2014-10-05T12:05:23Z</time>
      </trkpt>
      <trkpt lat="43.38693" lon="-1.80857">
        <ele>58.77771</ele>
        <time>2014-10-05T12:05:26Z</time>
      </trkpt>
      <trkpt lat="43.38692" lon="-1.80854">
        <ele>59.258423</ele>
        <time>2014-10-05T12:05:28Z</time>
      </trkpt>
      <trkpt lat="43.38692" lon="-1.80832">
        <ele>60.219727</ele>
        <time>2014-10-05T12:05:40Z</time>
      </trkpt>
      <trkpt lat="43.38694" lon="-1.80829">
        <ele>60.219727</ele>
        <time>2014-10-05T12:05:43Z</time>
      </trkpt>
      <trkpt lat="43.38703" lon="-1.8082">
        <ele>58.77771</ele>
        <time>2014-10-05T12:05:55Z</time>
      </trkpt>
      <trkpt lat="43.38704" lon="-1.80819">
        <ele>58.77771</ele>
        <time>2014-10-05T12:05:56Z</time>
      </trkpt>
      <trkpt lat="43.38705" lon="-1.80817">
        <ele>57.335815</ele>
        <time>2014-10-05T12:05:58Z</time>
      </trkpt>
      <trkpt lat="43.3871" lon="-1.80793">
        <ele>59.258423</ele>
        <time>2014-10-05T12:06:11Z</time>
      </trkpt>
      <trkpt lat="43.3871" lon="-1.80792">
        <ele>58.297119</ele>
        <time>2014-10-05T12:06:12Z</time>
      </trkpt>
      <trkpt lat="43.38721" lon="-1.80774">
        <ele>54.451782</ele>
        <time>2014-10-05T12:06:26Z</time>
      </trkpt>
      <trkpt lat="43.38724" lon="-1.80746">
        <ele>52.048584</ele>
        <time>2014-10-05T12:06:42Z</time>
      </trkpt>
      <trkpt lat="43.3872" lon="-1.80738">
        <ele>53.009766</ele>
        <time>2014-10-05T12:06:49Z</time>
      </trkpt>
      <trkpt lat="43.38713" lon="-1.80725">
        <ele>53.490479</ele>
        <time>2014-10-05T12:07:03Z</time>
      </trkpt>
      <trkpt lat="43.38706" lon="-1.80714">
        <ele>53.490479</ele>
        <time>2014-10-05T12:07:11Z</time>
      </trkpt>
      <trkpt lat="43.38705" lon="-1.80689">
        <ele>52.048584</ele>
        <time>2014-10-05T12:07:23Z</time>
      </trkpt>
      <trkpt lat="43.38709" lon="-1.80676">
        <ele>50.606567</ele>
        <time>2014-10-05T12:07:30Z</time>
      </trkpt>
      <trkpt lat="43.38708" lon="-1.80665">
        <ele>50.125977</ele>
        <time>2014-10-05T12:07:35Z</time>
      </trkpt>
      <trkpt lat="43.38708" lon="-1.80659">
        <ele>50.125977</ele>
        <time>2014-10-05T12:07:41Z</time>
      </trkpt>
      <trkpt lat="43.38705" lon="-1.80644">
        <ele>49.164551</ele>
        <time>2014-10-05T12:07:58Z</time>
      </trkpt>
      <trkpt lat="43.38704" lon="-1.80639">
        <ele>48.68396</ele>
        <time>2014-10-05T12:08:04Z</time>
      </trkpt>
      <trkpt lat="43.387" lon="-1.80627">
        <ele>47.241821</ele>
        <time>2014-10-05T12:08:12Z</time>
      </trkpt>
      <trkpt lat="43.387" lon="-1.8062">
        <ele>46.76123</ele>
        <time>2014-10-05T12:08:16Z</time>
      </trkpt>
      <trkpt lat="43.38703" lon="-1.80613">
        <ele>44.838623</ele>
        <time>2014-10-05T12:08:21Z</time>
      </trkpt>
      <trkpt lat="43.38709" lon="-1.80606">
        <ele>41.954712</ele>
        <time>2014-10-05T12:08:28Z</time>
      </trkpt>
      <trkpt lat="43.38713" lon="-1.80605">
        <ele>40.993408</ele>
        <time>2014-10-05T12:08:31Z</time>
      </trkpt>
      <trkpt lat="43.38716" lon="-1.80605">
        <ele>40.512817</ele>
        <time>2014-10-05T12:08:33Z</time>
      </trkpt>
      <trkpt lat="43.38718" lon="-1.80603">
        <ele>39.55127</ele>
        <time>2014-10-05T12:08:39Z</time>
      </trkpt>
      <trkpt lat="43.38719" lon="-1.806">
        <ele>39.55127</ele>
        <time>2014-10-05T12:08:41Z</time>
      </trkpt>
      <trkpt lat="43.38717" lon="-1.80596">
        <ele>38.590088</ele>
        <time>2014-10-05T12:08:44Z</time>
      </trkpt>
      <trkpt lat="43.38715" lon="-1.80595">
        <ele>37.628662</ele>
        <time>2014-10-05T12:08:46Z</time>
      </trkpt>
      <trkpt lat="43.38707" lon="-1.80586">
        <ele>34.26416</ele>
        <time>2014-10-05T12:08:55Z</time>
      </trkpt>
      <trkpt lat="43.38703" lon="-1.80585">
        <ele>33.783447</ele>
        <time>2014-10-05T12:08:58Z</time>
      </trkpt>
      <trkpt lat="43.38706" lon="-1.80574">
        <ele>31.380127</ele>
        <time>2014-10-05T12:09:11Z</time>
      </trkpt>
      <trkpt lat="43.38711" lon="-1.8057">
        <ele>28.976929</ele>
        <time>2014-10-05T12:09:17Z</time>
      </trkpt>
      <trkpt lat="43.38716" lon="-1.80565">
        <ele>27.054321</ele>
        <time>2014-10-05T12:09:23Z</time>
      </trkpt>
      <trkpt lat="43.3872" lon="-1.80562">
        <ele>26.573608</ele>
        <time>2014-10-05T12:09:26Z</time>
      </trkpt>
      <trkpt lat="43.38734" lon="-1.80549">
        <ele>23.689575</ele>
        <time>2014-10-05T12:09:39Z</time>
      </trkpt>
      <trkpt lat="43.38743" lon="-1.80538">
        <ele>20.805664</ele>
        <time>2014-10-05T12:09:51Z</time>
      </trkpt>
      <trkpt lat="43.38752" lon="-1.80527">
        <ele>17.921753</ele>
        <time>2014-10-05T12:10:04Z</time>
      </trkpt>
      <trkpt lat="43.38762" lon="-1.80521">
        <ele>15.03772</ele>
        <time>2014-10-05T12:10:16Z</time>
      </trkpt>
      <trkpt lat="43.38762" lon="-1.80514">
        <ele>14.076416</ele>
        <time>2014-10-05T12:10:38Z</time>
      </trkpt>
      <trkpt lat="43.38763" lon="-1.8051">
        <ele>14.076416</ele>
        <time>2014-10-05T12:10:41Z</time>
      </trkpt>
      <trkpt lat="43.38766" lon="-1.80505">
        <ele>12.153809</ele>
        <time>2014-10-05T12:10:45Z</time>
      </trkpt>
      <trkpt lat="43.38778" lon="-1.8049">
        <ele>15.999023</ele>
        <time>2014-10-05T12:11:01Z</time>
      </trkpt>
      <trkpt lat="43.38786" lon="-1.80476">
        <ele>18.883057</ele>
        <time>2014-10-05T12:11:16Z</time>
      </trkpt>
      <trkpt lat="43.38788" lon="-1.80473">
        <ele>19.84436</ele>
        <time>2014-10-05T12:11:18Z</time>
      </trkpt>
      <trkpt lat="43.38787" lon="-1.80468">
        <ele>20.324951</ele>
        <time>2014-10-05T12:11:22Z</time>
      </trkpt>
      <trkpt lat="43.38774" lon="-1.8047">
        <ele>23.208984</ele>
        <time>2014-10-05T12:11:39Z</time>
      </trkpt>
      <trkpt lat="43.38774" lon="-1.80467">
        <ele>24.170288</ele>
        <time>2014-10-05T12:11:42Z</time>
      </trkpt>
      <trkpt lat="43.38778" lon="-1.80439">
        <ele>26.092896</ele>
        <time>2014-10-05T12:12:02Z</time>
      </trkpt>
      <trkpt lat="43.3877" lon="-1.80424">
        <ele>29.45752</ele>
        <time>2014-10-05T12:12:17Z</time>
      </trkpt>
      <trkpt lat="43.38767" lon="-1.80414">
        <ele>32.341553</ele>
        <time>2014-10-05T12:12:26Z</time>
      </trkpt>
      <trkpt lat="43.38761" lon="-1.80394">
        <ele>32.341553</ele>
        <time>2014-10-05T12:12:41Z</time>
      </trkpt>
      <trkpt lat="43.38762" lon="-1.80391">
        <ele>32.822266</ele>
        <time>2014-10-05T12:12:44Z</time>
      </trkpt>
      <trkpt lat="43.38749" lon="-1.80373">
        <ele>31.380127</ele>
        <time>2014-10-05T12:12:59Z</time>
      </trkpt>
      <trkpt lat="43.38747" lon="-1.80366">
        <ele>31.380127</ele>
        <time>2014-10-05T12:13:03Z</time>
      </trkpt>
      <trkpt lat="43.38746" lon="-1.80349">
        <ele>30.418823</ele>
        <time>2014-10-05T12:13:11Z</time>
      </trkpt>
      <trkpt lat="43.38756" lon="-1.80324">
        <ele>27.054321</ele>
        <time>2014-10-05T12:13:26Z</time>
      </trkpt>
      <trkpt lat="43.38765" lon="-1.80304">
        <ele>23.689575</ele>
        <time>2014-10-05T12:13:40Z</time>
      </trkpt>
      <trkpt lat="43.38768" lon="-1.80295">
        <ele>23.208984</ele>
        <time>2014-10-05T12:13:45Z</time>
      </trkpt>
      <trkpt lat="43.38763" lon="-1.80279">
        <ele>21.286377</ele>
        <time>2014-10-05T12:14:01Z</time>
      </trkpt>
      <trkpt lat="43.38763" lon="-1.80278">
        <ele>20.324951</ele>
        <time>2014-10-05T12:14:02Z</time>
      </trkpt>
      <trkpt lat="43.38762" lon="-1.80272">
        <ele>20.324951</ele>
        <time>2014-10-05T12:14:06Z</time>
      </trkpt>
      <trkpt lat="43.38764" lon="-1.80265">
        <ele>20.324951</ele>
        <time>2014-10-05T12:14:11Z</time>
      </trkpt>
      <trkpt lat="43.38776" lon="-1.80263">
        <ele>22.247559</ele>
        <time>2014-10-05T12:14:26Z</time>
      </trkpt>
      <trkpt lat="43.38788" lon="-1.80255">
        <ele>23.689575</ele>
        <time>2014-10-05T12:14:40Z</time>
      </trkpt>
      <trkpt lat="43.38792" lon="-1.80253">
        <ele>26.573608</ele>
        <time>2014-10-05T12:14:47Z</time>
      </trkpt>
      <trkpt lat="43.38795" lon="-1.80253">
        <ele>27.054321</ele>
        <time>2014-10-05T12:14:51Z</time>
      </trkpt>
      <trkpt lat="43.38813" lon="-1.80246">
        <ele>29.45752</ele>
        <time>2014-10-05T12:15:08Z</time>
      </trkpt>
      <trkpt lat="43.38827" lon="-1.80233">
        <ele>32.822266</ele>
        <time>2014-10-05T12:15:24Z</time>
      </trkpt>
      <trkpt lat="43.38833" lon="-1.80213">
        <ele>34.744873</ele>
        <time>2014-10-05T12:15:38Z</time>
      </trkpt>
      <trkpt lat="43.38838" lon="-1.802">
        <ele>39.55127</ele>
        <time>2014-10-05T12:15:49Z</time>
      </trkpt>
      <trkpt lat="43.3884" lon="-1.80196">
        <ele>40.032104</ele>
        <time>2014-10-05T12:15:53Z</time>
      </trkpt>
      <trkpt lat="43.38844" lon="-1.80182">
        <ele>39.55127</ele>
        <time>2014-10-05T12:16:07Z</time>
      </trkpt>
      <trkpt lat="43.38855" lon="-1.80151">
        <ele>41.954712</ele>
        <time>2014-10-05T12:16:26Z</time>
      </trkpt>
      <trkpt lat="43.3886" lon="-1.80139">
        <ele>44.358032</ele>
        <time>2014-10-05T12:16:35Z</time>
      </trkpt>
      <trkpt lat="43.38871" lon="-1.80128">
        <ele>44.358032</ele>
        <time>2014-10-05T12:16:50Z</time>
      </trkpt>
      <trkpt lat="43.38883" lon="-1.80122">
        <ele>45.799927</ele>
        <time>2014-10-05T12:17:05Z</time>
      </trkpt>
      <trkpt lat="43.38884" lon="-1.8012">
        <ele>46.28064</ele>
        <time>2014-10-05T12:17:07Z</time>
      </trkpt>
      <trkpt lat="43.38885" lon="-1.80112">
        <ele>46.76123</ele>
        <time>2014-10-05T12:17:13Z</time>
      </trkpt>
      <trkpt lat="43.38894" lon="-1.8009">
        <ele>46.28064</ele>
        <time>2014-10-05T12:17:28Z</time>
      </trkpt>
      <trkpt lat="43.38898" lon="-1.80085">
        <ele>46.28064</ele>
        <time>2014-10-05T12:17:32Z</time>
      </trkpt>
      <trkpt lat="43.38922" lon="-1.80069">
        <ele>45.319214</ele>
        <time>2014-10-05T12:17:51Z</time>
      </trkpt>
      <trkpt lat="43.38931" lon="-1.80074">
        <ele>43.396606</ele>
        <time>2014-10-05T12:17:58Z</time>
      </trkpt>
      <trkpt lat="43.38939" lon="-1.80075">
        <ele>42.435425</ele>
        <time>2014-10-05T12:18:03Z</time>
      </trkpt>
      <trkpt lat="43.38963" lon="-1.8007">
        <ele>41.473999</ele>
        <time>2014-10-05T12:18:21Z</time>
      </trkpt>
      <trkpt lat="43.38973" lon="-1.80062">
        <ele>43.396606</ele>
        <time>2014-10-05T12:18:30Z</time>
      </trkpt>
      <trkpt lat="43.38977" lon="-1.8004">
        <ele>45.319214</ele>
        <time>2014-10-05T12:18:44Z</time>
      </trkpt>
      <trkpt lat="43.38977" lon="-1.80011">
        <ele>49.164551</ele>
        <time>2014-10-05T12:19:01Z</time>
      </trkpt>
      <trkpt lat="43.38977" lon="-1.80009">
        <ele>49.164551</ele>
        <time>2014-10-05T12:19:02Z</time>
      </trkpt>
      <trkpt lat="43.38978" lon="-1.8">
        <ele>49.645264</ele>
        <time>2014-10-05T12:19:07Z</time>
      </trkpt>
      <trkpt lat="43.38979" lon="-1.79997">
        <ele>50.606567</ele>
        <time>2014-10-05T12:19:09Z</time>
      </trkpt>
      <trkpt lat="43.38999" lon="-1.79989">
        <ele>50.606567</ele>
        <time>2014-10-05T12:19:24Z</time>
      </trkpt>
      <trkpt lat="43.39009" lon="-1.7997">
        <ele>49.645264</ele>
        <time>2014-10-05T12:19:41Z</time>
      </trkpt>
      <trkpt lat="43.39009" lon="-1.7997">
        <ele>49.645264</ele>
        <time>2014-10-05T12:19:42Z</time>
      </trkpt>
      <trkpt lat="43.39025" lon="-1.79939">
        <ele>48.68396</ele>
        <time>2014-10-05T12:20:02Z</time>
      </trkpt>
      <trkpt lat="43.39025" lon="-1.79915">
        <ele>45.319214</ele>
        <time>2014-10-05T12:20:14Z</time>
      </trkpt>
      <trkpt lat="43.39022" lon="-1.79882">
        <ele>42.916016</ele>
        <time>2014-10-05T12:20:31Z</time>
      </trkpt>
      <trkpt lat="43.39019" lon="-1.7985">
        <ele>43.396606</ele>
        <time>2014-10-05T12:20:47Z</time>
      </trkpt>
      <trkpt lat="43.39019" lon="-1.79847">
        <ele>42.916016</ele>
        <time>2014-10-05T12:20:48Z</time>
      </trkpt>
      <trkpt lat="43.39016" lon="-1.79842">
        <ele>43.396606</ele>
        <time>2014-10-05T12:20:52Z</time>
      </trkpt>
      <trkpt lat="43.39017" lon="-1.79839">
        <ele>43.877319</ele>
        <time>2014-10-05T12:20:54Z</time>
      </trkpt>
      <trkpt lat="43.39016" lon="-1.79831">
        <ele>43.396606</ele>
        <time>2014-10-05T12:20:58Z</time>
      </trkpt>
      <trkpt lat="43.39015" lon="-1.79808">
        <ele>43.396606</ele>
        <time>2014-10-05T12:21:11Z</time>
      </trkpt>
      <trkpt lat="43.39014" lon="-1.79776">
        <ele>41.473999</ele>
        <time>2014-10-05T12:21:27Z</time>
      </trkpt>
      <trkpt lat="43.39007" lon="-1.79745">
        <ele>38.590088</ele>
        <time>2014-10-05T12:21:43Z</time>
      </trkpt>
      <trkpt lat="43.38992" lon="-1.79712">
        <ele>38.590088</ele>
        <time>2014-10-05T12:22:02Z</time>
      </trkpt>
      <trkpt lat="43.38979" lon="-1.79692">
        <ele>38.590088</ele>
        <time>2014-10-05T12:22:17Z</time>
      </trkpt>
      <trkpt lat="43.38975" lon="-1.79687">
        <ele>38.590088</ele>
        <time>2014-10-05T12:22:23Z</time>
      </trkpt>
      <trkpt lat="43.38969" lon="-1.79664">
        <ele>38.590088</ele>
        <time>2014-10-05T12:22:38Z</time>
      </trkpt>
      <trkpt lat="43.38965" lon="-1.79646">
        <ele>40.512817</ele>
        <time>2014-10-05T12:22:49Z</time>
      </trkpt>
      <trkpt lat="43.38963" lon="-1.79623">
        <ele>42.916016</ele>
        <time>2014-10-05T12:23:02Z</time>
      </trkpt>
      <trkpt lat="43.38972" lon="-1.79615">
        <ele>45.799927</ele>
        <time>2014-10-05T12:23:13Z</time>
      </trkpt>
      <trkpt lat="43.3898" lon="-1.79615">
        <ele>45.799927</ele>
        <time>2014-10-05T12:23:20Z</time>
      </trkpt>
      <trkpt lat="43.38996" lon="-1.79604">
        <ele>47.241821</ele>
        <time>2014-10-05T12:23:34Z</time>
      </trkpt>
      <trkpt lat="43.39004" lon="-1.7959">
        <ele>47.241821</ele>
        <time>2014-10-05T12:23:45Z</time>
      </trkpt>
      <trkpt lat="43.39011" lon="-1.79586">
        <ele>47.722534</ele>
        <time>2014-10-05T12:23:52Z</time>
      </trkpt>
      <trkpt lat="43.39039" lon="-1.79593">
        <ele>49.164551</ele>
        <time>2014-10-05T12:24:10Z</time>
      </trkpt>
      <trkpt lat="43.39059" lon="-1.7958">
        <ele>49.645264</ele>
        <time>2014-10-05T12:24:29Z</time>
      </trkpt>
      <trkpt lat="43.39072" lon="-1.79553">
        <ele>49.645264</ele>
        <time>2014-10-05T12:24:47Z</time>
      </trkpt>
      <trkpt lat="43.39084" lon="-1.79524">
        <ele>49.164551</ele>
        <time>2014-10-05T12:25:05Z</time>
      </trkpt>
      <trkpt lat="43.39094" lon="-1.7949">
        <ele>49.645264</ele>
        <time>2014-10-05T12:25:26Z</time>
      </trkpt>
      <trkpt lat="43.39105" lon="-1.79463">
        <ele>49.645264</ele>
        <time>2014-10-05T12:25:43Z</time>
      </trkpt>
      <trkpt lat="43.39108" lon="-1.7945">
        <ele>49.164551</ele>
        <time>2014-10-05T12:25:58Z</time>
      </trkpt>
      <trkpt lat="43.3911" lon="-1.79451">
        <ele>49.164551</ele>
        <time>2014-10-05T12:26:15Z</time>
      </trkpt>
      <trkpt lat="43.39109" lon="-1.79449">
        <ele>49.645264</ele>
        <time>2014-10-05T12:26:30Z</time>
      </trkpt>
      <trkpt lat="43.39109" lon="-1.79448">
        <ele>48.68396</ele>
        <time>2014-10-05T12:26:34Z</time>
      </trkpt>
    </trkseg>
  </trk>
</gpx>